Darstellungsparameter: Aktuell verwendete Einstellungen:
Skalierung der Graphiken ... ?
xyx+y,   Skalierungsfaktor:      Skalierung: Modus: x, Faktor: 1
Darstellungszeitraum ... ?
Vom - - bis: - -   Zeitraum: 07.03.2003 - 06.09.2003
Min/Max/Avg-Anzeige ... ?
Zeige MMA aktuell
Zeige MMA Monat
Zeige MMA alles
Zeige --A aktuell
Zeige --A Monat
Zeige --A alles
Keine MMA-Anzeige
MMA:
Keine MMA-Graphiken
MMA-Basis: 07.03.2003 - 06.09.2003
Quicknavigation für Darstellung... ?
Tage:      1T, 2T, 3T, 5T -1T -2T -3T -5T +1T +2T +3T +5T
Wochen: 1W, 2W, 3W -1W -2W -3W +1W +2W +3W
Monate: 1M, 3M, 6M -1M -3M -6M +1M +3M +6M
Jahre:    1J, 3J, 5J, 10J -1J -3J -5J -10J +1J +3J +5J +10J
Nutze für die Darstellung ... ?
Originaldaten oder Mittelwerte auf ...
Stundenbasis Tagesbasis Wochenbasis
Monatsbasis Jahresbasis      Datenbasis: Original-Daten
Darstellen als:
Statistik (Auto) Statistik J:M      Darstellung:
Zur Graphik,    zurück zur Übersicht aller Sensoren.
 
Tabellarische Datenbersicht: ?
 
Sensor: Nr:Datum:Temp:Abs-Feuchte:Windchill:Wind:
Aussen-T/F 1 07-03-2003 00:04:26 5.6 C 5.44 g/m*3 5.6 C 0 km/h
2 07-03-2003 00:14:26 5.5 C 5.48 g/m*3 5.5 C 0 km/h
3 07-03-2003 00:24:26 5.2 C 5.44 g/m*3 5.2 C 0 km/h
4 07-03-2003 00:34:26 5.1 C 5.4 g/m*3 5.1 C 0 km/h
5 07-03-2003 00:44:26 4.6 C 5.29 g/m*3 4.6 C 0 km/h
6 07-03-2003 00:54:26 4.1 C 5.25 g/m*3 4.1 C 0 km/h
7 07-03-2003 01:04:26 3.7 C 5.17 g/m*3 3.7 C 0 km/h
8 07-03-2003 01:14:26 3.5 C 5.23 g/m*3 3.5 C 0 km/h
9 07-03-2003 01:24:26 3.2 C 5.12 g/m*3 3.2 C 0 km/h
10 07-03-2003 01:34:26 2.9 C 5.08 g/m*3 2.9 C 0 km/h
11 07-03-2003 01:44:26 2.9 C 5.08 g/m*3 2.9 C 0 km/h
12 07-03-2003 01:54:26 2.7 C 5.07 g/m*3 2.7 C 0 km/h
13 07-03-2003 02:04:26 2.4 C 4.91 g/m*3 2.4 C 0 km/h
14 07-03-2003 02:14:26 2.5 C 5 g/m*3 2.5 C 0 km/h
15 07-03-2003 02:24:26 2.3 C 4.93 g/m*3 2.3 C 0 km/h
16 07-03-2003 02:34:26 2.7 C 5.13 g/m*3 2.7 C 0 km/h
17 07-03-2003 02:44:26 2.7 C 5.19 g/m*3 2.7 C 0 km/h
18 07-03-2003 02:54:26 3 C 5.23 g/m*3 3 C 0 km/h
19 07-03-2003 03:04:26 3.1 C 5.27 g/m*3 3.1 C 0 km/h
20 07-03-2003 03:14:26 3.2 C 5.3 g/m*3 3.2 C 0 km/h
21 07-03-2003 03:24:26 3.3 C 5.28 g/m*3 3.3 C 0 km/h
22 07-03-2003 03:34:26 3.3 C 5.22 g/m*3 3.3 C 0 km/h
23 07-03-2003 03:44:26 3.4 C 5.25 g/m*3 3.4 C 0 km/h
24 07-03-2003 03:54:26 3.3 C 5.16 g/m*3 3.3 C 0 km/h
25 07-03-2003 04:04:26 3.4 C 5.19 g/m*3 3.4 C 0 km/h
Sensor: Nr:Datum:Temp:Abs-Feuchte:Windchill:Wind:
Aussen-T/F 26 07-03-2003 04:14:26 3.4 C 5.19 g/m*3 3.4 C 0 km/h
27 07-03-2003 04:24:26 3.3 C 5.16 g/m*3 3.3 C 0 km/h
28 07-03-2003 04:34:26 3.2 C 5.12 g/m*3 3.2 C 0 km/h
29 07-03-2003 04:44:26 2.9 C 5.02 g/m*3 2.9 C 0 km/h
30 07-03-2003 04:54:26 2.5 C 4.94 g/m*3 2.5 C 0 km/h
31 07-03-2003 05:04:26 2.3 C 4.88 g/m*3 2.3 C 0 km/h
32 07-03-2003 05:14:26 2.1 C 4.81 g/m*3 2.1 C 0 km/h
33 07-03-2003 05:24:26 1.9 C 4.8 g/m*3 1.9 C 0 km/h
34 07-03-2003 05:34:26 1.4 C 4.59 g/m*3 1.4 C 0 km/h
35 07-03-2003 05:44:26 1.2 C 4.58 g/m*3 1.2 C 0 km/h
36 07-03-2003 05:54:26 1.2 C 4.58 g/m*3 1.2 C 0 km/h
37 07-03-2003 06:04:26 1.1 C 4.55 g/m*3 1.1 C 0 km/h
38 07-03-2003 06:14:26 1.2 C 4.63 g/m*3 1.2 C 0 km/h
39 07-03-2003 06:24:26 1.1 C 4.6 g/m*3 1.1 C 0 km/h
40 07-03-2003 06:34:26 1.1 C 4.6 g/m*3 1.1 C 0 km/h
41 07-03-2003 06:44:26 1.2 C 4.68 g/m*3 1.2 C 0 km/h
42 07-03-2003 06:54:26 1.1 C 4.7 g/m*3 1.1 C 0 km/h
43 07-03-2003 07:04:26 0.9 C 4.69 g/m*3 0.9 C 0 km/h
44 07-03-2003 07:14:26 1 C 4.67 g/m*3 1 C 0 km/h
45 07-03-2003 07:24:26 1 C 4.67 g/m*3 1 C 0 km/h
46 07-03-2003 07:34:26 1.1 C 4.76 g/m*3 1.1 C 0 km/h
47 07-03-2003 07:44:26 1.3 C 4.82 g/m*3 1.3 C 0 km/h
48 07-03-2003 07:54:26 1.7 C 4.95 g/m*3 1.7 C 0 km/h
49 07-03-2003 08:04:26 1.7 C 4.95 g/m*3 1.7 C 0 km/h
50 07-03-2003 08:14:26 2.1 C 4.98 g/m*3 2.1 C 0 km/h
Sensor: Nr:Datum:Temp:Abs-Feuchte:Windchill:Wind:
Aussen-T/F 51 07-03-2003 08:24:26 2.3 C 5.05 g/m*3 2.3 C 0 km/h
52 07-03-2003 08:34:26 2.1 C 4.92 g/m*3 2.1 C 0 km/h
53 07-03-2003 08:44:26 2 C 4.89 g/m*3 2 C 0 km/h
54 07-03-2003 08:54:26 2.3 C 4.99 g/m*3 2.3 C 0 km/h
55 07-03-2003 09:04:26 2.5 C 5 g/m*3 2.5 C 0 km/h
56 07-03-2003 09:14:26 2.7 C 5.01 g/m*3 2.7 C 0 km/h
57 07-03-2003 09:24:26 2.9 C 5.02 g/m*3 2.9 C 0 km/h
58 07-03-2003 09:34:26 3.3 C 5.1 g/m*3 3.3 C 0 km/h
59 07-03-2003 09:44:26 3.5 C 5.1 g/m*3 3.5 C 0 km/h
60 07-03-2003 09:54:26 3.5 C 5.04 g/m*3 3.5 C 0 km/h
61 07-03-2003 10:04:26 3.6 C 5.01 g/m*3 3.6 C 0 km/h
62 07-03-2003 10:14:26 3.7 C 5.05 g/m*3 3.7 C 0 km/h
63 07-03-2003 10:24:26 4.4 C 5.16 g/m*3 4.4 C 0 km/h
64 07-03-2003 10:34:26 4.9 C 5.27 g/m*3 4.9 C 0 km/h
65 07-03-2003 10:44:26 5.5 C 5.34 g/m*3 5.5 C 0 km/h
66 07-03-2003 10:54:26 5.8 C 5.3 g/m*3 5.8 C 0 km/h
67 07-03-2003 11:04:26 5.8 C 5.37 g/m*3 5.8 C 0 km/h
68 07-03-2003 11:14:26 5.8 C 5.3 g/m*3 5.8 C 0 km/h
69 07-03-2003 11:24:26 6.2 C 5.37 g/m*3 6.2 C 0 km/h
70 07-03-2003 11:34:26 6.6 C 5.51 g/m*3 6.6 C 0 km/h
71 07-03-2003 11:44:26 6.4 C 5.36 g/m*3 6.4 C 0 km/h
72 07-03-2003 11:54:26 6.3 C 5.4 g/m*3 6.3 C 0 km/h
73 07-03-2003 12:04:26 6.9 C 5.85 g/m*3 6.9 C 0 km/h
74 07-03-2003 12:14:26 7.7 C 5.92 g/m*3 7.7 C 0 km/h
75 07-03-2003 12:24:26 8.3 C 6.07 g/m*3 8.3 C 0 km/h
Sensor: Nr:Datum:Temp:Abs-Feuchte:Windchill:Wind:
Aussen-T/F 76 07-03-2003 12:34:26 8.9 C 6.04 g/m*3 8.9 C 0 km/h
77 07-03-2003 12:44:26 8.9 C 5.87 g/m*3 8.9 C 0 km/h
78 07-03-2003 12:54:26 9.3 C 5.75 g/m*3 9.3 C 0 km/h
79 07-03-2003 13:04:26 9.4 C 5.79 g/m*3 9.4 C 0 km/h
80 07-03-2003 13:14:26 9.7 C 5.72 g/m*3 9.7 C 0 km/h
81 07-03-2003 13:24:26 10.1 C 5.48 g/m*3 10.1 C 0 km/h
82 07-03-2003 13:34:26 10.7 C 5.7 g/m*3 10.7 C 0 km/h
83 07-03-2003 13:44:26 10.8 C 5.54 g/m*3 10.8 C 0 km/h
84 07-03-2003 13:54:26 11.6 C 5.51 g/m*3 11.6 C 0 km/h
85 07-03-2003 14:04:26 11.3 C 5.41 g/m*3 11.3 C 0 km/h
86 07-03-2003 14:14:26 12 C 5.44 g/m*3 12 C 0 km/h
87 07-03-2003 14:24:26 12.2 C 5.5 g/m*3 12.2 C 0 km/h
88 07-03-2003 14:34:26 12.1 C 5.25 g/m*3 12.1 C 0 km/h
89 07-03-2003 14:44:26 11.8 C 5.16 g/m*3 11.8 C 0 km/h
90 07-03-2003 14:54:26 12 C 5.22 g/m*3 12 C 0 km/h
91 07-03-2003 15:04:26 12 C 4.9 g/m*3 12 C 0 km/h
92 07-03-2003 15:14:26 11.7 C 4.92 g/m*3 11.7 C 0 km/h
93 07-03-2003 15:24:26 11.9 C 5.08 g/m*3 11.9 C 0 km/h
94 07-03-2003 15:34:26 11.9 C 4.87 g/m*3 11.9 C 0 km/h
95 07-03-2003 15:44:26 11.7 C 4.71 g/m*3 11.7 C 0 km/h
96 07-03-2003 15:54:26 11.2 C 4.66 g/m*3 11.2 C 0 km/h
97 07-03-2003 16:34:08 11 C 4.8 g/m*3 11 C 0 km/h
98 07-03-2003 16:44:08 11 C 4.8 g/m*3 11 C 0 km/h
99 07-03-2003 16:54:08 11 C 4.8 g/m*3 11 C 0 km/h
100 07-03-2003 17:04:08 10.6 C 4.88 g/m*3 10.6 C 0 km/h
Sensor: Nr:Datum:Temp:Abs-Feuchte:Windchill:Wind:
Aussen-T/F 101 07-03-2003 17:14:13 10.4 C 4.92 g/m*3 10.4 C 0 km/h
102 07-03-2003 17:24:13 10.4 C 4.92 g/m*3 10.4 C 0 km/h
103 07-03-2003 17:34:14 9.7 C 4.79 g/m*3 9.7 C 0 km/h
104 07-03-2003 17:44:14 9.6 C 4.67 g/m*3 9.6 C 0 km/h
105 07-03-2003 17:54:14 9.1 C 4.7 g/m*3 9.1 C 0 km/h
106 07-03-2003 18:04:13 8.6 C 5.24 g/m*3 8.6 C 0 km/h
107 07-03-2003 18:14:13 8.3 C 5.14 g/m*3 8.3 C 0 km/h
108 07-03-2003 18:24:13 8 C 5.13 g/m*3 8 C 0 km/h
109 07-03-2003 18:34:13 7.7 C 5.27 g/m*3 7.7 C 0 km/h
110 07-03-2003 18:44:13 7.4 C 5.09 g/m*3 7.4 C 0 km/h
111 07-03-2003 18:54:13 7.4 C 4.93 g/m*3 7.4 C 0 km/h
112 07-03-2003 19:04:15 7.2 C 4.87 g/m*3 7.2 C 0 km/h
113 07-03-2003 19:14:15 7.3 C 4.98 g/m*3 7.3 C 0 km/h
114 07-03-2003 19:24:15 7.4 C 4.93 g/m*3 7.4 C 0 km/h
115 07-03-2003 19:34:15 7.6 C 4.99 g/m*3 7.6 C 0 km/h
116 07-03-2003 19:44:15 7.3 C 4.98 g/m*3 7.3 C 0 km/h
117 07-03-2003 19:54:15 7.3 C 5.06 g/m*3 7.3 C 0 km/h
118 07-03-2003 20:04:14 7.5 C 5.04 g/m*3 7.5 C 0 km/h
119 07-03-2003 20:14:14 7.5 C 5.04 g/m*3 7.5 C 0 km/h
120 07-03-2003 20:24:14 7.5 C 5.04 g/m*3 7.5 C 0 km/h
121 07-03-2003 20:34:14 7.5 C 5.04 g/m*3 7.5 C 0 km/h
122 07-03-2003 20:44:14 6.5 C 5.1 g/m*3 6.5 C 0 km/h
123 07-03-2003 20:54:14 6.5 C 5.1 g/m*3 6.5 C 0 km/h
124 07-03-2003 21:05:12 5.7 C 5.05 g/m*3 5.7 C 0 km/h
125 07-03-2003 21:15:12 5.2 C 4.89 g/m*3 5.2 C 0 km/h
Sensor: Nr:Datum:Temp:Abs-Feuchte:Windchill:Wind:
Aussen-T/F 126 07-03-2003 21:25:12 5.1 C 4.86 g/m*3 5.1 C 0 km/h
127 07-03-2003 21:35:12 4.7 C 4.8 g/m*3 4.7 C 0 km/h
128 07-03-2003 21:45:12 4.6 C 4.76 g/m*3 4.6 C 0 km/h
129 07-03-2003 21:55:12 4.4 C 4.77 g/m*3 4.4 C 0 km/h
130 07-03-2003 22:05:12 4.3 C 4.74 g/m*3 4.3 C 0 km/h
131 07-03-2003 22:15:12 4.3 C 4.67 g/m*3 4.3 C 0 km/h
132 07-03-2003 22:25:12 3.8 C 4.64 g/m*3 3.8 C 0 km/h
133 07-03-2003 22:35:12 3.7 C 4.67 g/m*3 3.7 C 0 km/h
134 07-03-2003 22:45:12 3.8 C 4.64 g/m*3 3.8 C 0 km/h
135 07-03-2003 22:55:12 3.7 C 4.61 g/m*3 3.7 C 0 km/h
136 07-03-2003 23:05:12 3.6 C 4.58 g/m*3 3.6 C 0 km/h
137 07-03-2003 23:15:12 4.1 C 4.67 g/m*3 4.1 C 0 km/h
138 07-03-2003 23:25:12 3.8 C 4.64 g/m*3 3.8 C 0 km/h
139 07-03-2003 23:35:12 3.5 C 4.55 g/m*3 3.5 C 0 km/h
140 07-03-2003 23:45:12 3.5 C 4.61 g/m*3 3.5 C 0 km/h
141 07-03-2003 23:55:12 3.5 C 4.61 g/m*3 3.5 C 0 km/h
142 08-03-2003 00:05:12 3.5 C 4.55 g/m*3 3.5 C 0 km/h
143 08-03-2003 00:15:12 3.3 C 4.55 g/m*3 3.3 C 0 km/h
144 08-03-2003 00:25:12 3.1 C 4.55 g/m*3 3.1 C 0 km/h
145 08-03-2003 00:35:12 3.4 C 4.7 g/m*3 3.4 C 0 km/h
146 08-03-2003 00:45:12 3.9 C 4.8 g/m*3 3.9 C 0 km/h
147 08-03-2003 00:55:12 5.4 C 4.67 g/m*3 5.4 C 0 km/h
148 08-03-2003 01:05:12 5.4 C 4.6 g/m*3 5.4 C 0 km/h
149 08-03-2003 01:15:12 5.1 C 4.51 g/m*3 5.1 C 0 km/h
150 08-03-2003 01:25:12 4.8 C 4.56 g/m*3 4.8 C 0 km/h
Sensor: Nr:Datum:Temp:Abs-Feuchte:Windchill:Wind:
Aussen-T/F 151 08-03-2003 01:35:12 5 C 4.48 g/m*3 5 C 0 km/h
152 08-03-2003 01:45:12 5 C 4.48 g/m*3 5 C 0 km/h
153 08-03-2003 01:55:12 5.1 C 4.51 g/m*3 5.1 C 0 km/h
154 08-03-2003 02:05:12 4.9 C 4.59 g/m*3 4.9 C 0 km/h
155 08-03-2003 02:15:12 4.7 C 4.6 g/m*3 4.7 C 0 km/h
156 08-03-2003 02:25:12 4.8 C 4.63 g/m*3 4.8 C 0 km/h
157 08-03-2003 02:35:12 4.9 C 4.59 g/m*3 4.9 C 0 km/h
158 08-03-2003 02:45:12 4.6 C 4.57 g/m*3 4.6 C 0 km/h
159 08-03-2003 02:55:12 4.6 C 4.57 g/m*3 4.6 C 0 km/h
160 08-03-2003 03:05:12 4.3 C 4.61 g/m*3 4.3 C 0 km/h
161 08-03-2003 03:15:12 4.1 C 4.61 g/m*3 4.1 C 0 km/h
162 08-03-2003 03:25:12 4.4 C 4.64 g/m*3 4.4 C 0 km/h
163 08-03-2003 03:35:12 4.4 C 4.64 g/m*3 4.4 C 0 km/h
164 08-03-2003 03:45:12 4.2 C 4.64 g/m*3 4.2 C 0 km/h
165 08-03-2003 03:55:12 4.5 C 4.67 g/m*3 4.5 C 0 km/h
166 08-03-2003 04:05:12 5.1 C 4.65 g/m*3 5.1 C 0 km/h
167 08-03-2003 04:15:12 5.5 C 4.64 g/m*3 5.5 C 0 km/h
168 08-03-2003 04:25:12 5.3 C 4.57 g/m*3 5.3 C 0 km/h
169 08-03-2003 04:35:12 5.2 C 4.68 g/m*3 5.2 C 0 km/h
170 08-03-2003 04:45:12 5.2 C 4.68 g/m*3 5.2 C 0 km/h
171 08-03-2003 04:55:12 5.3 C 4.71 g/m*3 5.3 C 0 km/h
172 08-03-2003 05:05:12 4.9 C 4.73 g/m*3 4.9 C 0 km/h
173 08-03-2003 05:15:12 5.2 C 4.82 g/m*3 5.2 C 0 km/h
174 08-03-2003 05:25:12 5.3 C 4.78 g/m*3 5.3 C 0 km/h
175 08-03-2003 05:35:12 5.1 C 4.72 g/m*3 5.1 C 0 km/h
Sensor: Nr:Datum:Temp:Abs-Feuchte:Windchill:Wind:
Aussen-T/F 176 08-03-2003 05:45:12 5 C 4.76 g/m*3 5 C 0 km/h
177 08-03-2003 05:55:12 5.1 C 4.79 g/m*3 5.1 C 0 km/h
178 08-03-2003 06:05:12 5.2 C 4.75 g/m*3 5.2 C 0 km/h
179 08-03-2003 06:15:12 5.4 C 4.81 g/m*3 5.4 C 0 km/h
180 08-03-2003 06:25:12 5.1 C 4.72 g/m*3 5.1 C 0 km/h
181 08-03-2003 06:35:12 4.9 C 4.79 g/m*3 4.9 C 0 km/h
182 08-03-2003 06:45:12 4.5 C 4.73 g/m*3 4.5 C 0 km/h
183 08-03-2003 06:55:12 4.4 C 4.77 g/m*3 4.4 C 0 km/h
184 08-03-2003 07:05:12 4.3 C 4.74 g/m*3 4.3 C 0 km/h
185 08-03-2003 07:15:12 4.3 C 4.8 g/m*3 4.3 C 0 km/h
186 08-03-2003 07:25:12 4.3 C 4.8 g/m*3 4.3 C 0 km/h
187 08-03-2003 07:35:12 4.4 C 4.83 g/m*3 4.4 C 0 km/h
188 08-03-2003 07:45:12 4.8 C 4.83 g/m*3 4.8 C 0 km/h
189 08-03-2003 07:55:12 5.1 C 4.79 g/m*3 5.1 C 0 km/h
190 08-03-2003 08:05:12 5.2 C 4.82 g/m*3 5.2 C 0 km/h
191 08-03-2003 08:15:12 5.2 C 4.82 g/m*3 5.2 C 0 km/h
192 08-03-2003 08:25:12 5.3 C 4.85 g/m*3 5.3 C 0 km/h
193 08-03-2003 08:35:12 5.6 C 4.95 g/m*3 5.6 C 0 km/h
194 08-03-2003 08:45:12 5.8 C 4.94 g/m*3 5.8 C 0 km/h
195 08-03-2003 08:55:12 6.1 C 4.97 g/m*3 6.1 C 0 km/h
196 08-03-2003 09:05:12 6.4 C 4.99 g/m*3 6.4 C 0 km/h
197 08-03-2003 09:15:12 6.6 C 4.98 g/m*3 6.6 C 0 km/h
198 08-03-2003 09:25:12 6.7 C 4.94 g/m*3 6.7 C 0 km/h
199 08-03-2003 09:35:12 6.8 C 4.89 g/m*3 6.8 C 0 km/h
200 08-03-2003 09:45:12 6.9 C 4.93 g/m*3 6.9 C 0 km/h
Sensor: Nr:Datum:Temp:Abs-Feuchte:Windchill:Wind:
Aussen-T/F 201 08-03-2003 09:55:12 7 C 4.88 g/m*3 7 C 0 km/h
202 08-03-2003 10:05:12 7.2 C 4.95 g/m*3 7.2 C 0 km/h
203 08-03-2003 10:15:12 7.4 C 4.93 g/m*3 7.4 C 0 km/h
204 08-03-2003 10:25:12 7.8 C 4.98 g/m*3 7.8 C 0 km/h
205 08-03-2003 10:35:12 8.1 C 4.91 g/m*3 8.1 C 0 km/h
206 08-03-2003 10:45:12 8 C 4.88 g/m*3 8 C 0 km/h
207 08-03-2003 10:55:12 8 C 4.8 g/m*3 8 C 0 km/h
208 08-03-2003 11:05:13 8.3 C 4.89 g/m*3 8.3 C 0 km/h
209 08-03-2003 11:15:13 8.3 C 4.89 g/m*3 8.3 C 0 km/h
210 08-03-2003 11:25:13 8.3 C 4.89 g/m*3 8.3 C 0 km/h
211 08-03-2003 11:35:13 8.3 C 4.89 g/m*3 8.3 C 0 km/h
212 08-03-2003 11:45:13 8.3 C 4.89 g/m*3 8.3 C 0 km/h
213 08-03-2003 11:55:13 8.3 C 4.89 g/m*3 8.3 C 0 km/h
214 08-03-2003 12:05:58 8.3 C 4.89 g/m*3 8.3 C 0 km/h
215 08-03-2003 12:15:06 8.3 C 4.89 g/m*3 8.3 C 0 km/h
216 08-03-2003 12:25:13 8.3 C 4.89 g/m*3 8.3 C 0 km/h
217 08-03-2003 12:35:13 8.3 C 4.89 g/m*3 8.3 C 0 km/h
218 08-03-2003 12:45:13 8.3 C 4.89 g/m*3 8.3 C 0 km/h
219 08-03-2003 12:55:13 10.1 C 4.54 g/m*3 10.1 C 0 km/h
220 08-03-2003 13:05:23 10.1 C 4.54 g/m*3 10.1 C 0 km/h
221 08-03-2003 13:15:23 10.4 C 4.53 g/m*3 10.4 C 0 km/h
222 08-03-2003 13:25:13 10.4 C 4.53 g/m*3 10.4 C 0 km/h
223 08-03-2003 13:35:13 10.4 C 4.53 g/m*3 10.4 C 0 km/h
224 08-03-2003 13:45:13 10.4 C 4.53 g/m*3 10.4 C 0 km/h
225 08-03-2003 13:55:13 10.4 C 4.53 g/m*3 10.4 C 0 km/h
Sensor: Nr:Datum:Temp:Abs-Feuchte:Windchill:Wind:
Aussen-T/F 226 08-03-2003 14:05:12 11.8 C 4.74 g/m*3 11.8 C 0 km/h
227 08-03-2003 14:15:12 11.8 C 4.63 g/m*3 11.8 C 0 km/h
228 08-03-2003 14:25:12 12.2 C 4.53 g/m*3 12.2 C 0 km/h
229 08-03-2003 14:35:12 11.7 C 4.39 g/m*3 11.7 C 0 km/h
230 08-03-2003 14:45:12 12.1 C 4.5 g/m*3 12.1 C 0 km/h
231 08-03-2003 14:55:12 12.4 C 4.59 g/m*3 12.4 C 0 km/h
232 08-03-2003 15:05:12 11.7 C 4.5 g/m*3 11.7 C 0 km/h
233 08-03-2003 15:25:12 11.5 C 4.54 g/m*3 11.5 C 0 km/h
234 08-03-2003 15:35:12 11.5 C 4.44 g/m*3 11.5 C 0 km/h
235 08-03-2003 15:45:12 11.5 C 4.44 g/m*3 11.5 C 0 km/h
236 08-03-2003 15:55:12 11.5 C 4.44 g/m*3 11.5 C 0 km/h
237 08-03-2003 16:05:11 11.3 C 4.28 g/m*3 11.3 C 0 km/h
238 08-03-2003 16:15:11 11.4 C 4.41 g/m*3 11.4 C 0 km/h
239 08-03-2003 16:25:11 11.4 C 4.31 g/m*3 11.4 C 0 km/h
240 08-03-2003 16:35:11 11.5 C 4.34 g/m*3 11.5 C 0 km/h
241 08-03-2003 16:45:11 11.5 C 4.34 g/m*3 11.5 C 0 km/h
242 08-03-2003 16:55:11 11.5 C 4.34 g/m*3 11.5 C 0 km/h
243 08-03-2003 17:05:12 11.5 C 4.34 g/m*3 11.5 C 0 km/h
244 08-03-2003 17:15:12 10.8 C 4.35 g/m*3 10.8 C 0 km/h
245 08-03-2003 17:25:12 10.8 C 4.35 g/m*3 10.8 C 0 km/h
246 08-03-2003 17:35:12 10.8 C 4.35 g/m*3 10.8 C 0 km/h
247 08-03-2003 17:45:12 10.8 C 4.35 g/m*3 10.8 C 0 km/h
248 08-03-2003 17:55:12 10.8 C 4.35 g/m*3 10.8 C 0 km/h
249 08-03-2003 18:40:12 9.9 C 4.48 g/m*3 9.9 C 0 km/h
250 08-03-2003 18:52:12 9.8 C 4.55 g/m*3 9.8 C 0 km/h
Sensor: Nr:Datum:Temp:Abs-Feuchte:Windchill:Wind:
Aussen-T/F 251 08-03-2003 19:04:13 9.6 C 4.58 g/m*3 9.6 C 0 km/h
252 08-03-2003 19:16:13 9.2 C 4.46 g/m*3 9.2 C 0 km/h
253 08-03-2003 19:28:13 9.1 C 4.53 g/m*3 9.1 C 0 km/h
254 08-03-2003 19:40:13 8.9 C 4.64 g/m*3 8.9 C 0 km/h
255 08-03-2003 19:52:13 8.9 C 4.73 g/m*3 8.9 C 0 km/h
256 08-03-2003 20:04:13 9 C 4.76 g/m*3 9 C 0 km/h
257 08-03-2003 20:16:13 8.6 C 4.81 g/m*3 8.6 C 0 km/h
258 08-03-2003 20:28:13 9 C 4.76 g/m*3 9 C 0 km/h
259 08-03-2003 20:40:13 9 C 4.76 g/m*3 9 C 0 km/h
260 08-03-2003 20:52:13 9 C 4.76 g/m*3 9 C 0 km/h
261 08-03-2003 21:04:12 9 C 4.76 g/m*3 9 C 0 km/h
262 08-03-2003 21:16:12 9 C 4.76 g/m*3 9 C 0 km/h
263 08-03-2003 21:40:12 8.8 C 4.87 g/m*3 8.8 C 0 km/h
264 08-03-2003 21:52:12 8.4 C 4.84 g/m*3 8.4 C 0 km/h
265 08-03-2003 22:05:13 8.4 C 4.84 g/m*3 8.4 C 0 km/h
266 08-03-2003 22:17:13 8.7 C 4.84 g/m*3 8.7 C 0 km/h
267 08-03-2003 22:29:13 8.8 C 4.87 g/m*3 8.8 C 0 km/h
268 08-03-2003 22:41:13 8.9 C 4.91 g/m*3 8.9 C 0 km/h
269 08-03-2003 22:53:13 8.8 C 4.87 g/m*3 8.8 C 0 km/h
270 08-03-2003 23:05:13 8.8 C 4.87 g/m*3 8.8 C 0 km/h
271 08-03-2003 23:17:13 9 C 4.94 g/m*3 9 C 0 km/h
272 08-03-2003 23:29:13 9 C 4.94 g/m*3 9 C 0 km/h
273 08-03-2003 23:41:13 9 C 4.85 g/m*3 9 C 0 km/h
274 08-03-2003 23:53:13 9 C 4.85 g/m*3 9 C 0 km/h
275 09-03-2003 00:05:13 9 C 4.85 g/m*3 9 C 0 km/h
Sensor: Nr:Datum:Temp:Abs-Feuchte:Windchill:Wind:
Aussen-T/F 276 09-03-2003 00:17:13 9 C 4.85 g/m*3 9 C 0 km/h
277 09-03-2003 00:29:13 9 C 4.85 g/m*3 9 C 0 km/h
278 09-03-2003 00:41:13 9 C 4.85 g/m*3 9 C 0 km/h
279 09-03-2003 00:53:13 9 C 4.94 g/m*3 9 C 0 km/h
280 09-03-2003 01:05:13 8.2 C 5.28 g/m*3 8.2 C 0 km/h
281 09-03-2003 01:17:13 8 C 5.21 g/m*3 8 C 0 km/h
282 09-03-2003 01:29:13 8.4 C 5.17 g/m*3 8.4 C 0 km/h
283 09-03-2003 01:41:13 8.5 C 5.12 g/m*3 8.5 C 0 km/h
284 09-03-2003 01:53:13 8.6 C 5.16 g/m*3 8.6 C 0 km/h
285 09-03-2003 02:05:13 8.4 C 5.17 g/m*3 8.4 C 0 km/h
286 09-03-2003 02:17:13 8 C 5.37 g/m*3 8 C 0 km/h
287 09-03-2003 02:29:13 7.4 C 5.65 g/m*3 7.4 C 0 km/h
288 09-03-2003 02:41:13 7.4 C 5.57 g/m*3 7.4 C 0 km/h
289 09-03-2003 02:53:13 7.5 C 5.44 g/m*3 7.5 C 0 km/h
290 09-03-2003 03:05:13 7.7 C 5.43 g/m*3 7.7 C 0 km/h
291 09-03-2003 03:17:13 8 C 5.29 g/m*3 8 C 0 km/h
292 09-03-2003 03:29:13 8.1 C 5.24 g/m*3 8.1 C 0 km/h
293 09-03-2003 03:41:13 8 C 5.21 g/m*3 8 C 0 km/h
294 09-03-2003 03:53:13 8.2 C 5.19 g/m*3 8.2 C 0 km/h
295 09-03-2003 04:05:13 8.1 C 5.16 g/m*3 8.1 C 0 km/h
296 09-03-2003 04:17:13 8 C 5.13 g/m*3 8 C 0 km/h
297 09-03-2003 04:29:13 7.9 C 5.17 g/m*3 7.9 C 0 km/h
298 09-03-2003 04:41:13 8 C 5.13 g/m*3 8 C 0 km/h
299 09-03-2003 04:53:13 7.8 C 5.14 g/m*3 7.8 C 0 km/h
300 09-03-2003 05:05:13 7.8 C 5.14 g/m*3 7.8 C 0 km/h
Sensor: Nr:Datum:Temp:Abs-Feuchte:Windchill:Wind:
Aussen-T/F 301 09-03-2003 05:17:13 7.5 C 5.2 g/m*3 7.5 C 0 km/h
302 09-03-2003 05:29:13 7.3 C 5.21 g/m*3 7.3 C 0 km/h
303 09-03-2003 05:41:13 7.4 C 5.17 g/m*3 7.4 C 0 km/h
304 09-03-2003 05:53:13 7 C 5.19 g/m*3 7 C 0 km/h
305 09-03-2003 06:05:13 6.7 C 5.32 g/m*3 6.7 C 0 km/h
306 09-03-2003 06:17:13 6.8 C 5.35 g/m*3 6.8 C 0 km/h
307 09-03-2003 06:29:13 6.9 C 5.39 g/m*3 6.9 C 0 km/h
308 09-03-2003 06:41:13 7 C 5.35 g/m*3 7 C 0 km/h
309 09-03-2003 06:53:13 7 C 5.27 g/m*3 7 C 0 km/h
310 09-03-2003 07:05:13 7 C 5.35 g/m*3 7 C 0 km/h
311 09-03-2003 07:17:13 7 C 5.27 g/m*3 7 C 0 km/h
312 09-03-2003 07:29:13 7 C 5.27 g/m*3 7 C 0 km/h
313 09-03-2003 07:41:13 7.1 C 5.23 g/m*3 7.1 C 0 km/h
314 09-03-2003 07:53:13 7.3 C 5.29 g/m*3 7.3 C 0 km/h
315 09-03-2003 08:05:13 7.4 C 5.25 g/m*3 7.4 C 0 km/h
316 09-03-2003 08:17:13 7.7 C 5.27 g/m*3 7.7 C 0 km/h
317 09-03-2003 08:29:13 7.9 C 5.26 g/m*3 7.9 C 0 km/h
318 09-03-2003 08:41:13 8.1 C 5.16 g/m*3 8.1 C 0 km/h
319 09-03-2003 08:53:13 8.3 C 5.14 g/m*3 8.3 C 0 km/h
320 09-03-2003 09:05:13 8.5 C 5.21 g/m*3 8.5 C 0 km/h
321 09-03-2003 09:17:13 8.5 C 5.21 g/m*3 8.5 C 0 km/h
322 09-03-2003 09:29:13 8.6 C 5.24 g/m*3 8.6 C 0 km/h
323 09-03-2003 09:41:13 8.7 C 5.19 g/m*3 8.7 C 0 km/h
324 09-03-2003 09:53:13 9 C 5.2 g/m*3 9 C 0 km/h
325 09-03-2003 10:05:13 9.1 C 5.23 g/m*3 9.1 C 0 km/h
Sensor: Nr:Datum:Temp:Abs-Feuchte:Windchill:Wind:
Aussen-T/F 326 09-03-2003 10:17:13 9.4 C 5.34 g/m*3 9.4 C 0 km/h
327 09-03-2003 10:29:13 9.5 C 5.28 g/m*3 9.5 C 0 km/h
328 09-03-2003 10:41:13 9.5 C 5.28 g/m*3 9.5 C 0 km/h
329 09-03-2003 10:53:13 9.5 C 5.28 g/m*3 9.5 C 0 km/h
330 09-03-2003 11:05:12 9.5 C 5.28 g/m*3 9.5 C 0 km/h
331 09-03-2003 11:17:12 9.5 C 5.28 g/m*3 9.5 C 0 km/h
332 09-03-2003 11:29:12 9.5 C 5.28 g/m*3 9.5 C 0 km/h
333 09-03-2003 11:41:12 9.5 C 5.28 g/m*3 9.5 C 0 km/h
334 09-03-2003 11:53:12 9.5 C 5.28 g/m*3 9.5 C 0 km/h
335 09-03-2003 12:05:12 9.5 C 5.28 g/m*3 9.5 C 0 km/h
336 09-03-2003 12:17:12 9.5 C 5.28 g/m*3 9.5 C 0 km/h
337 09-03-2003 12:29:12 9.5 C 5.28 g/m*3 9.5 C 0 km/h
338 09-03-2003 12:41:12 9.5 C 5.28 g/m*3 9.5 C 0 km/h
339 09-03-2003 12:53:12 9.5 C 5.28 g/m*3 9.5 C 0 km/h
340 09-03-2003 13:05:12 9.5 C 5.28 g/m*3 9.5 C 0 km/h
341 09-03-2003 13:17:12 9.5 C 5.28 g/m*3 9.5 C 0 km/h
342 09-03-2003 13:29:12 9.5 C 5.28 g/m*3 9.5 C 0 km/h
343 09-03-2003 13:41:12 9.5 C 5.28 g/m*3 9.5 C 0 km/h
344 09-03-2003 13:53:12 9.5 C 5.28 g/m*3 9.5 C 0 km/h
345 09-03-2003 14:05:12 9.5 C 5.28 g/m*3 9.5 C 0 km/h
346 09-03-2003 14:17:12 9.5 C 5.28 g/m*3 9.5 C 0 km/h
347 09-03-2003 14:29:12 9.5 C 5.28 g/m*3 9.5 C 0 km/h
348 09-03-2003 14:41:12 15.5 C 5.02 g/m*3 15.5 C 0 km/h
349 09-03-2003 14:53:12 16.1 C 4.93 g/m*3 16.1 C 0 km/h
350 09-03-2003 15:05:13 15.8 C 4.85 g/m*3 15.8 C 0 km/h
Sensor: Nr:Datum:Temp:Abs-Feuchte:Windchill:Wind:
Aussen-T/F 351 09-03-2003 15:17:13 15.8 C 4.85 g/m*3 15.8 C 0 km/h
352 09-03-2003 15:29:13 15.9 C 5.01 g/m*3 15.9 C 0 km/h
353 09-03-2003 15:41:13 15.9 C 5.01 g/m*3 15.9 C 0 km/h
354 09-03-2003 15:53:13 16.3 C 4.86 g/m*3 16.3 C 0 km/h
355 09-03-2003 16:05:12 17 C 4.77 g/m*3 17 C 0 km/h
356 09-03-2003 16:17:12 17 C 4.77 g/m*3 17 C 0 km/h
357 09-03-2003 16:29:12 17 C 4.77 g/m*3 17 C 0 km/h
358 09-03-2003 19:17:19 12.8 C 5.15 g/m*3 12.8 C 0 km/h
359 09-03-2003 19:25:12 12.8 C 5.15 g/m*3 12.8 C 0 km/h
360 09-03-2003 19:37:12 11.5 C 5.37 g/m*3 11.5 C 0 km/h
361 09-03-2003 19:49:12 12 C 5.22 g/m*3 12 C 0 km/h
362 09-03-2003 20:01:12 13.1 C 5.02 g/m*3 13.1 C 0 km/h
363 09-03-2003 20:13:12 13.2 C 5.05 g/m*3 13.2 C 0 km/h
364 09-03-2003 20:25:12 13.2 C 5.05 g/m*3 13.2 C 0 km/h
365 09-03-2003 20:37:12 13.1 C 5.02 g/m*3 13.1 C 0 km/h
366 09-03-2003 20:49:12 12.8 C 5.15 g/m*3 12.8 C 0 km/h
367 09-03-2003 21:01:12 12.8 C 5.26 g/m*3 12.8 C 0 km/h
368 09-03-2003 21:14:13 12.4 C 5.24 g/m*3 12.4 C 0 km/h
369 09-03-2003 21:26:13 12.2 C 5.29 g/m*3 12.2 C 0 km/h
370 09-03-2003 21:38:13 11.9 C 5.4 g/m*3 11.9 C 0 km/h
371 09-03-2003 21:50:13 11.8 C 5.37 g/m*3 11.8 C 0 km/h
372 09-03-2003 22:02:13 11.5 C 5.37 g/m*3 11.5 C 0 km/h
373 09-03-2003 22:14:13 11.3 C 5.41 g/m*3 11.3 C 0 km/h
374 09-03-2003 22:26:13 11.2 C 5.47 g/m*3 11.2 C 0 km/h
375 09-03-2003 22:50:13 10.8 C 5.54 g/m*3 10.8 C 0 km/h
Sensor: Nr:Datum:Temp:Abs-Feuchte:Windchill:Wind:
Aussen-T/F 376 09-03-2003 23:02:13 10.6 C 5.56 g/m*3 10.6 C 0 km/h
377 09-03-2003 23:14:13 10.5 C 5.63 g/m*3 10.5 C 0 km/h
378 09-03-2003 23:26:13 10.2 C 5.52 g/m*3 10.2 C 0 km/h
379 09-03-2003 23:38:13 9.8 C 5.57 g/m*3 9.8 C 0 km/h
380 09-03-2003 23:50:13 9.4 C 5.52 g/m*3 9.4 C 0 km/h
381 10-03-2003 00:02:13 9.1 C 5.5 g/m*3 9.1 C 0 km/h
382 10-03-2003 00:14:13 8.9 C 5.61 g/m*3 8.9 C 0 km/h
383 10-03-2003 00:26:13 8.6 C 5.5 g/m*3 8.6 C 0 km/h
384 10-03-2003 00:38:13 8.3 C 5.48 g/m*3 8.3 C 0 km/h
385 10-03-2003 00:50:13 8.2 C 5.44 g/m*3 8.2 C 0 km/h
386 10-03-2003 01:02:13 7.5 C 5.28 g/m*3 7.5 C 0 km/h
387 10-03-2003 01:14:13 7.1 C 5.46 g/m*3 7.1 C 0 km/h
388 10-03-2003 01:26:13 7.4 C 5.49 g/m*3 7.4 C 0 km/h
389 10-03-2003 01:38:13 7.5 C 5.44 g/m*3 7.5 C 0 km/h
390 10-03-2003 01:50:13 7.4 C 5.41 g/m*3 7.4 C 0 km/h
391 10-03-2003 02:02:13 6.8 C 5.43 g/m*3 6.8 C 0 km/h
392 10-03-2003 02:14:13 6.4 C 5.29 g/m*3 6.4 C 0 km/h
393 10-03-2003 02:26:13 5.7 C 5.34 g/m*3 5.7 C 0 km/h
394 10-03-2003 02:38:13 5.3 C 5.27 g/m*3 5.3 C 0 km/h
395 10-03-2003 02:50:13 5.1 C 5.27 g/m*3 5.1 C 0 km/h
396 10-03-2003 03:02:13 5 C 5.3 g/m*3 5 C 0 km/h
397 10-03-2003 03:14:13 4.6 C 5.23 g/m*3 4.6 C 0 km/h
398 10-03-2003 03:26:13 4.4 C 5.22 g/m*3 4.4 C 0 km/h
399 10-03-2003 03:38:13 4.4 C 5.22 g/m*3 4.4 C 0 km/h
400 10-03-2003 03:50:13 4.2 C 5.15 g/m*3 4.2 C 0 km/h
Sensor: Nr:Datum:Temp:Abs-Feuchte:Windchill:Wind:
Aussen-T/F 401 10-03-2003 04:02:13 4.3 C 5.25 g/m*3 4.3 C 0 km/h
402 10-03-2003 04:14:13 5.1 C 5.4 g/m*3 5.1 C 0 km/h
403 10-03-2003 04:26:13 6 C 5.23 g/m*3 6 C 0 km/h
404 10-03-2003 04:38:13 5.6 C 5.16 g/m*3 5.6 C 0 km/h
405 10-03-2003 04:50:13 4.8 C 5.1 g/m*3 4.8 C 0 km/h
406 10-03-2003 05:02:13 5 C 5.23 g/m*3 5 C 0 km/h
407 10-03-2003 05:14:13 4.5 C 5.06 g/m*3 4.5 C 0 km/h
408 10-03-2003 05:26:13 4.1 C 5.06 g/m*3 4.1 C 0 km/h
409 10-03-2003 05:38:13 4 C 5.09 g/m*3 4 C 0 km/h
410 10-03-2003 05:50:13 4 C 5.15 g/m*3 4 C 0 km/h
411 10-03-2003 06:02:13 4.7 C 5.33 g/m*3 4.7 C 0 km/h
412 10-03-2003 06:14:13 6.2 C 5.22 g/m*3 6.2 C 0 km/h
413 10-03-2003 06:26:13 6 C 5.01 g/m*3 6 C 0 km/h
414 10-03-2003 06:38:13 5 C 4.89 g/m*3 5 C 0 km/h
415 10-03-2003 06:50:13 4.7 C 5 g/m*3 4.7 C 0 km/h
416 10-03-2003 07:02:13 4.6 C 4.96 g/m*3 4.6 C 0 km/h
417 10-03-2003 07:14:13 4.6 C 4.96 g/m*3 4.6 C 0 km/h
418 10-03-2003 07:26:13 4.7 C 5 g/m*3 4.7 C 0 km/h
419 10-03-2003 07:38:13 4.8 C 4.96 g/m*3 4.8 C 0 km/h
420 10-03-2003 07:50:13 4.8 C 5.03 g/m*3 4.8 C 0 km/h
421 10-03-2003 08:02:13 4.5 C 4.93 g/m*3 4.5 C 0 km/h
422 10-03-2003 08:14:13 4.5 C 5 g/m*3 4.5 C 0 km/h
423 10-03-2003 08:26:13 4.5 C 5 g/m*3 4.5 C 0 km/h
424 10-03-2003 08:38:13 5.1 C 5.06 g/m*3 5.1 C 0 km/h
425 10-03-2003 08:50:13 5.4 C 5.09 g/m*3 5.4 C 0 km/h
Sensor: Nr:Datum:Temp:Abs-Feuchte:Windchill:Wind:
Aussen-T/F 426 10-03-2003 09:02:13 5.5 C 5.13 g/m*3 5.5 C 0 km/h
427 10-03-2003 09:14:13 5.6 C 5.23 g/m*3 5.6 C 0 km/h
428 10-03-2003 09:26:13 6 C 5.3 g/m*3 6 C 0 km/h
429 10-03-2003 09:38:13 7.5 C 5.6 g/m*3 7.5 C 0 km/h
430 10-03-2003 09:50:13 8.4 C 5.51 g/m*3 8.4 C 0 km/h
431 10-03-2003 10:02:12 9.2 C 5.45 g/m*3 9.2 C 0 km/h
432 10-03-2003 10:14:12 9.7 C 5.62 g/m*3 9.7 C 0 km/h
433 10-03-2003 10:26:12 10 C 5.64 g/m*3 10 C 0 km/h
434 10-03-2003 10:38:12 10.9 C 5.97 g/m*3 10.9 C 0 km/h
435 10-03-2003 10:50:12 11.4 C 6.06 g/m*3 11.4 C 0 km/h
436 10-03-2003 11:02:13 11.7 C 5.86 g/m*3 11.7 C 0 km/h
437 10-03-2003 11:14:13 12.4 C 5.79 g/m*3 12.4 C 0 km/h
438 10-03-2003 11:26:13 13 C 5.9 g/m*3 13 C 0 km/h
439 10-03-2003 11:38:13 13.5 C 5.73 g/m*3 13.5 C 0 km/h
440 10-03-2003 11:50:13 14.1 C 5.7 g/m*3 14.1 C 0 km/h
441 10-03-2003 12:02:13 14.6 C 5.63 g/m*3 14.6 C 0 km/h
442 10-03-2003 12:14:13 15.1 C 5.68 g/m*3 15.1 C 0 km/h
443 10-03-2003 12:26:13 15.6 C 5.72 g/m*3 15.6 C 0 km/h
444 10-03-2003 12:38:13 15.7 C 5.49 g/m*3 15.7 C 0 km/h
445 10-03-2003 12:50:13 15.8 C 5.52 g/m*3 15.8 C 0 km/h
446 10-03-2003 13:02:12 15.9 C 5.55 g/m*3 15.9 C 0 km/h
447 10-03-2003 13:14:12 16.2 C 5.65 g/m*3 16.2 C 0 km/h
448 10-03-2003 13:26:12 16.9 C 5.9 g/m*3 16.9 C 0 km/h
449 10-03-2003 13:38:12 16.6 C 5.65 g/m*3 16.6 C 0 km/h
450 10-03-2003 13:50:12 16.8 C 5.72 g/m*3 16.8 C 0 km/h
Sensor: Nr:Datum:Temp:Abs-Feuchte:Windchill:Wind:
Aussen-T/F 451 10-03-2003 14:02:12 17.5 C 5.96 g/m*3 17.5 C 0 km/h
452 10-03-2003 14:14:12 17.7 C 5.88 g/m*3 17.7 C 0 km/h
453 10-03-2003 14:26:12 17.2 C 5.86 g/m*3 17.2 C 0 km/h
454 10-03-2003 14:38:12 16.9 C 6.04 g/m*3 16.9 C 0 km/h
455 10-03-2003 14:50:12 16.8 C 6 g/m*3 16.8 C 0 km/h
456 10-03-2003 15:02:12 16.7 C 5.97 g/m*3 16.7 C 0 km/h
457 10-03-2003 15:14:12 16.8 C 6 g/m*3 16.8 C 0 km/h
458 10-03-2003 15:26:12 16.8 C 6 g/m*3 16.8 C 0 km/h
459 10-03-2003 15:38:12 16.7 C 5.97 g/m*3 16.7 C 0 km/h
460 10-03-2003 15:50:12 16.8 C 6 g/m*3 16.8 C 0 km/h
461 10-03-2003 16:02:12 16.8 C 6 g/m*3 16.8 C 0 km/h
462 10-03-2003 16:14:12 16.7 C 5.97 g/m*3 16.7 C 0 km/h
463 10-03-2003 16:26:12 16.7 C 6.11 g/m*3 16.7 C 0 km/h
464 10-03-2003 16:38:12 16.8 C 6.15 g/m*3 16.8 C 0 km/h
465 10-03-2003 16:50:12 16.5 C 6.04 g/m*3 16.5 C 0 km/h
466 10-03-2003 17:02:12 16.7 C 6.11 g/m*3 16.7 C 0 km/h
467 10-03-2003 17:14:12 16.4 C 6.14 g/m*3 16.4 C 0 km/h
468 10-03-2003 17:26:12 16.3 C 6.24 g/m*3 16.3 C 0 km/h
469 10-03-2003 17:38:12 16.2 C 6.21 g/m*3 16.2 C 0 km/h
470 10-03-2003 17:50:12 15.7 C 6.29 g/m*3 15.7 C 0 km/h
471 10-03-2003 18:02:12 15.3 C 6.4 g/m*3 15.3 C 0 km/h
472 10-03-2003 18:14:12 14.8 C 6.46 g/m*3 14.8 C 0 km/h
473 10-03-2003 18:26:12 14.6 C 6.51 g/m*3 14.6 C 0 km/h
474 10-03-2003 18:38:12 13.8 C 6.67 g/m*3 13.8 C 0 km/h
475 10-03-2003 18:50:12 13.4 C 6.74 g/m*3 13.4 C 0 km/h
Sensor: Nr:Datum:Temp:Abs-Feuchte:Windchill:Wind:
Aussen-T/F 476 10-03-2003 19:03:13 13.3 C 6.82 g/m*3 13.3 C 0 km/h
477 10-03-2003 19:15:13 13.2 C 6.77 g/m*3 13.2 C 0 km/h
478 10-03-2003 19:27:13 13 C 6.8 g/m*3 13 C 0 km/h
479 10-03-2003 19:39:13 12.8 C 6.94 g/m*3 12.8 C 0 km/h
480 10-03-2003 19:51:13 12.7 C 6.9 g/m*3 12.7 C 0 km/h
481 10-03-2003 20:03:13 12.7 C 6.9 g/m*3 12.7 C 0 km/h
482 10-03-2003 20:15:13 12.4 C 6.99 g/m*3 12.4 C 0 km/h
483 10-03-2003 20:27:13 12.3 C 6.95 g/m*3 12.3 C 0 km/h
484 10-03-2003 20:39:13 12.3 C 6.95 g/m*3 12.3 C 0 km/h
485 10-03-2003 20:51:13 12.2 C 7.01 g/m*3 12.2 C 0 km/h
486 10-03-2003 21:03:13 11.8 C 6.95 g/m*3 11.8 C 0 km/h
487 10-03-2003 21:15:13 11.6 C 7.07 g/m*3 11.6 C 0 km/h
488 10-03-2003 21:27:13 11.5 C 7.02 g/m*3 11.5 C 0 km/h
489 10-03-2003 21:39:13 11.5 C 7.02 g/m*3 11.5 C 0 km/h
490 10-03-2003 21:51:13 11.8 C 7.05 g/m*3 11.8 C 0 km/h
491 10-03-2003 22:03:13 11.9 C 7.1 g/m*3 11.9 C 0 km/h
492 10-03-2003 22:15:13 11.3 C 6.94 g/m*3 11.3 C 0 km/h
493 10-03-2003 22:27:13 10.8 C 6.92 g/m*3 10.8 C 0 km/h
494 10-03-2003 22:39:13 10.7 C 6.97 g/m*3 10.7 C 0 km/h
495 10-03-2003 22:51:13 10.5 C 6.89 g/m*3 10.5 C 0 km/h
496 10-03-2003 23:03:13 10.5 C 6.98 g/m*3 10.5 C 0 km/h
497 10-03-2003 23:15:13 11 C 7.11 g/m*3 11 C 0 km/h
498 10-03-2003 23:27:13 10.8 C 7.02 g/m*3 10.8 C 0 km/h
499 10-03-2003 23:39:13 10.8 C 7.12 g/m*3 10.8 C 0 km/h
500 10-03-2003 23:51:13 10.8 C 7.12 g/m*3 10.8 C 0 km/h
Sensor: Nr:Datum:Temp:Abs-Feuchte:Windchill:Wind:
Aussen-T/F 501 11-03-2003 00:03:13 10.6 C 7.03 g/m*3 10.6 C 0 km/h
502 11-03-2003 00:15:13 10.7 C 7.07 g/m*3 10.7 C 0 km/h
503 11-03-2003 00:27:13 10.6 C 7.12 g/m*3 10.6 C 0 km/h
504 11-03-2003 00:39:13 10.5 C 6.98 g/m*3 10.5 C 0 km/h
505 11-03-2003 00:51:13 10.3 C 6.9 g/m*3 10.3 C 0 km/h
506 11-03-2003 01:03:13 10 C 6.86 g/m*3 10 C 0 km/h
507 11-03-2003 01:15:13 10.1 C 7 g/m*3 10.1 C 0 km/h
508 11-03-2003 01:27:13 10.1 C 7 g/m*3 10.1 C 0 km/h
509 11-03-2003 01:39:13 9.9 C 7 g/m*3 9.9 C 0 km/h
510 11-03-2003 01:51:13 9.8 C 6.96 g/m*3 9.8 C 0 km/h
511 11-03-2003 02:03:13 9.8 C 7.05 g/m*3 9.8 C 0 km/h
512 11-03-2003 02:15:13 9.9 C 7.19 g/m*3 9.9 C 0 km/h
513 11-03-2003 02:27:13 9.7 C 7.01 g/m*3 9.7 C 0 km/h
514 11-03-2003 02:39:13 9.5 C 6.92 g/m*3 9.5 C 0 km/h
515 11-03-2003 02:51:13 9.4 C 6.87 g/m*3 9.4 C 0 km/h
516 11-03-2003 03:03:13 9.2 C 6.79 g/m*3 9.2 C 0 km/h
517 11-03-2003 03:15:13 9.2 C 6.88 g/m*3 9.2 C 0 km/h
518 11-03-2003 03:27:13 9.1 C 6.83 g/m*3 9.1 C 0 km/h
519 11-03-2003 03:39:13 9.1 C 6.83 g/m*3 9.1 C 0 km/h
520 11-03-2003 03:51:13 9 C 6.79 g/m*3 9 C 0 km/h
521 11-03-2003 04:03:13 9 C 6.79 g/m*3 9 C 0 km/h
522 11-03-2003 04:15:13 8.9 C 6.83 g/m*3 8.9 C 0 km/h
523 11-03-2003 04:27:13 8.9 C 6.92 g/m*3 8.9 C 0 km/h
524 11-03-2003 04:39:13 8.9 C 6.92 g/m*3 8.9 C 0 km/h
525 11-03-2003 04:51:13 9 C 6.88 g/m*3 9 C 0 km/h
Sensor: Nr:Datum:Temp:Abs-Feuchte:Windchill:Wind:
Aussen-T/F 526 11-03-2003 05:03:13 9 C 6.88 g/m*3 9 C 0 km/h
527 11-03-2003 05:15:13 8.9 C 6.92 g/m*3 8.9 C 0 km/h
528 11-03-2003 05:27:13 9 C 6.96 g/m*3 9 C 0 km/h
529 11-03-2003 05:39:13 9.3 C 7.1 g/m*3 9.3 C 0 km/h
530 11-03-2003 05:51:13 9.5 C 7.1 g/m*3 9.5 C 0 km/h
531 11-03-2003 06:03:13 9.5 C 7.1 g/m*3 9.5 C 0 km/h
532 11-03-2003 06:15:13 9.3 C 7.01 g/m*3 9.3 C 0 km/h
533 11-03-2003 06:27:13 9.6 C 7.15 g/m*3 9.6 C 0 km/h
534 11-03-2003 06:39:13 9.6 C 7.15 g/m*3 9.6 C 0 km/h
535 11-03-2003 06:51:13 9.3 C 6.92 g/m*3 9.3 C 0 km/h
536 11-03-2003 07:03:13 8.9 C 7.01 g/m*3 8.9 C 0 km/h
537 11-03-2003 07:15:13 8.8 C 7.05 g/m*3 8.8 C 0 km/h
538 11-03-2003 07:27:13 8.9 C 7.18 g/m*3 8.9 C 0 km/h
539 11-03-2003 07:39:13 9 C 7.05 g/m*3 9 C 0 km/h
540 11-03-2003 07:51:13 9.2 C 7.14 g/m*3 9.2 C 0 km/h
541 11-03-2003 08:03:13 9.3 C 7.1 g/m*3 9.3 C 0 km/h
542 11-03-2003 08:15:13 9.5 C 7.1 g/m*3 9.5 C 0 km/h
543 11-03-2003 08:27:13 9.6 C 7.15 g/m*3 9.6 C 0 km/h
544 11-03-2003 08:39:13 9.7 C 7.1 g/m*3 9.7 C 0 km/h
545 11-03-2003 08:51:13 9.9 C 7.19 g/m*3 9.9 C 0 km/h
546 11-03-2003 09:03:12 9.8 C 7.05 g/m*3 9.8 C 0 km/h
547 11-03-2003 09:15:12 10.3 C 7.09 g/m*3 10.3 C 0 km/h
548 11-03-2003 09:27:12 10.7 C 7.27 g/m*3 10.7 C 0 km/h
549 11-03-2003 09:39:12 10.7 C 7.17 g/m*3 10.7 C 0 km/h
550 11-03-2003 09:51:12 11 C 7.21 g/m*3 11 C 0 km/h
Sensor: Nr:Datum:Temp:Abs-Feuchte:Windchill:Wind:
Aussen-T/F 551 11-03-2003 10:03:12 11.4 C 7.29 g/m*3 11.4 C 0 km/h
552 11-03-2003 10:15:12 11.6 C 7.17 g/m*3 11.6 C 0 km/h
553 11-03-2003 10:27:12 12.6 C 7.41 g/m*3 12.6 C 0 km/h
554 11-03-2003 10:39:12 13 C 7.03 g/m*3 13 C 0 km/h
555 11-03-2003 10:51:12 13.3 C 6.93 g/m*3 13.3 C 0 km/h
556 11-03-2003 11:03:13 13.9 C 6.35 g/m*3 13.9 C 0 km/h
557 11-03-2003 11:15:13 14.2 C 6.11 g/m*3 14.2 C 0 km/h
558 11-03-2003 11:27:13 14.8 C 5.83 g/m*3 14.8 C 0 km/h
559 11-03-2003 11:39:13 15.5 C 5.29 g/m*3 15.5 C 0 km/h
560 11-03-2003 11:51:13 16 C 5.04 g/m*3 16 C 0 km/h
561 11-03-2003 12:03:13 16 C 5.18 g/m*3 16 C 0 km/h
562 11-03-2003 12:15:13 16.2 C 5.1 g/m*3 16.2 C 0 km/h
563 11-03-2003 12:27:13 16.2 C 5.1 g/m*3 16.2 C 0 km/h
564 11-03-2003 12:39:13 16.2 C 5.1 g/m*3 16.2 C 0 km/h
565 11-03-2003 12:51:13 16.2 C 5.24 g/m*3 16.2 C 0 km/h
566 11-03-2003 13:03:51 16.4 C 5.3 g/m*3 16.4 C 0 km/h
567 11-03-2003 13:15:51 16.7 C 5.54 g/m*3 16.7 C 0 km/h
568 11-03-2003 13:27:51 16.7 C 5.54 g/m*3 16.7 C 0 km/h
569 11-03-2003 13:39:51 16.7 C 5.68 g/m*3 16.7 C 0 km/h
570 11-03-2003 13:51:51 16.5 C 5.76 g/m*3 16.5 C 0 km/h
571 11-03-2003 14:03:13 16.5 C 5.76 g/m*3 16.5 C 0 km/h
572 11-03-2003 14:15:13 16.3 C 5.97 g/m*3 16.3 C 0 km/h
573 11-03-2003 14:27:13 16.2 C 6.21 g/m*3 16.2 C 0 km/h
574 11-03-2003 14:39:13 16.2 C 6.34 g/m*3 16.2 C 0 km/h
575 11-03-2003 14:51:13 16.4 C 6.56 g/m*3 16.4 C 0 km/h
Sensor: Nr:Datum:Temp:Abs-Feuchte:Windchill:Wind:
Aussen-T/F 576 11-03-2003 15:03:12 16.3 C 6.38 g/m*3 16.3 C 0 km/h
577 11-03-2003 15:15:12 16.3 C 6.38 g/m*3 16.3 C 0 km/h
578 11-03-2003 15:27:12 16.4 C 6.28 g/m*3 16.4 C 0 km/h
579 11-03-2003 15:39:12 16.2 C 6.48 g/m*3 16.2 C 0 km/h
580 11-03-2003 15:51:12 16 C 6.4 g/m*3 16 C 0 km/h
581 11-03-2003 16:03:12 16 C 6.4 g/m*3 16 C 0 km/h
582 11-03-2003 16:15:12 15.7 C 6.56 g/m*3 15.7 C 0 km/h
583 11-03-2003 16:27:12 15.6 C 6.65 g/m*3 15.6 C 0 km/h
584 11-03-2003 16:39:12 15.8 C 6.6 g/m*3 15.8 C 0 km/h
585 11-03-2003 16:51:12 15.6 C 6.78 g/m*3 15.6 C 0 km/h
586 11-03-2003 17:03:13 15.2 C 7.01 g/m*3 15.2 C 0 km/h
587 11-03-2003 17:15:13 14.7 C 7.3 g/m*3 14.7 C 0 km/h
588 11-03-2003 17:27:13 14.5 C 7.34 g/m*3 14.5 C 0 km/h
589 11-03-2003 17:39:13 13.9 C 7.67 g/m*3 13.9 C 0 km/h
590 11-03-2003 17:51:13 13.2 C 7.69 g/m*3 13.2 C 0 km/h
591 11-03-2003 18:03:13 12.7 C 7.68 g/m*3 12.7 C 0 km/h
592 11-03-2003 18:15:13 12.9 C 7.78 g/m*3 12.9 C 0 km/h
593 11-03-2003 18:27:13 13.3 C 7.39 g/m*3 13.3 C 0 km/h
594 11-03-2003 18:39:13 13.9 C 7.31 g/m*3 13.9 C 0 km/h
595 11-03-2003 18:51:13 13.9 C 7.19 g/m*3 13.9 C 0 km/h
596 11-03-2003 19:03:13 13.8 C 7.27 g/m*3 13.8 C 0 km/h
597 11-03-2003 19:15:13 13.4 C 7.21 g/m*3 13.4 C 0 km/h
598 11-03-2003 19:27:13 13.2 C 7.23 g/m*3 13.2 C 0 km/h
599 11-03-2003 19:39:13 13 C 7.26 g/m*3 13 C 0 km/h
600 11-03-2003 19:51:13 12.7 C 7.46 g/m*3 12.7 C 0 km/h
Sensor: Nr:Datum:Temp:Abs-Feuchte:Windchill:Wind:
Aussen-T/F 601 11-03-2003 20:03:12 12.5 C 7.37 g/m*3 12.5 C 0 km/h
602 11-03-2003 20:15:12 12.4 C 7.32 g/m*3 12.4 C 0 km/h
603 11-03-2003 20:27:12 12.3 C 7.38 g/m*3 12.3 C 0 km/h
604 11-03-2003 20:39:12 12.1 C 7.29 g/m*3 12.1 C 0 km/h
605 11-03-2003 20:51:12 12 C 7.25 g/m*3 12 C 0 km/h
606 11-03-2003 21:03:13 11.8 C 7.26 g/m*3 11.8 C 0 km/h
607 11-03-2003 21:15:13 11.8 C 7.26 g/m*3 11.8 C 0 km/h
608 11-03-2003 21:27:13 11.8 C 7.26 g/m*3 11.8 C 0 km/h
609 11-03-2003 21:39:13 12 C 7.03 g/m*3 12 C 0 km/h
610 11-03-2003 21:51:13 12 C 6.93 g/m*3 12 C 0 km/h
611 11-03-2003 22:04:12 12.6 C 6.86 g/m*3 12.6 C 0 km/h
612 11-03-2003 22:16:12 12.7 C 6.9 g/m*3 12.7 C 0 km/h
613 11-03-2003 22:28:12 13.2 C 6.66 g/m*3 13.2 C 0 km/h
614 11-03-2003 22:40:12 13.6 C 6.59 g/m*3 13.6 C 0 km/h
615 11-03-2003 22:52:12 13.6 C 6.47 g/m*3 13.6 C 0 km/h
616 11-03-2003 23:04:12 13.4 C 6.51 g/m*3 13.4 C 0 km/h
617 11-03-2003 23:16:12 13.3 C 6.47 g/m*3 13.3 C 0 km/h
618 11-03-2003 23:28:12 13.2 C 6.54 g/m*3 13.2 C 0 km/h
619 11-03-2003 23:40:12 13 C 6.46 g/m*3 13 C 0 km/h
620 11-03-2003 23:52:12 12.7 C 6.68 g/m*3 12.7 C 0 km/h
621 12-03-2003 00:04:12 12.5 C 7.15 g/m*3 12.5 C 0 km/h
622 12-03-2003 00:16:12 12.4 C 7.76 g/m*3 12.4 C 0 km/h
623 12-03-2003 00:28:12 12 C 7.78 g/m*3 12 C 0 km/h
624 12-03-2003 00:40:12 11.8 C 7.79 g/m*3 11.8 C 0 km/h
625 12-03-2003 00:52:12 11.5 C 7.54 g/m*3 11.5 C 0 km/h
Sensor: Nr:Datum:Temp:Abs-Feuchte:Windchill:Wind:
Aussen-T/F 626 12-03-2003 01:04:12 10.8 C 7.51 g/m*3 10.8 C 0 km/h
627 12-03-2003 01:16:12 9.7 C 7.38 g/m*3 9.7 C 0 km/h
628 12-03-2003 01:28:12 9.3 C 7.37 g/m*3 9.3 C 0 km/h
629 12-03-2003 01:40:12 9.3 C 7.46 g/m*3 9.3 C 0 km/h
630 12-03-2003 02:04:12 9 C 7.23 g/m*3 9 C 0 km/h
631 12-03-2003 02:16:12 8.9 C 7.27 g/m*3 8.9 C 0 km/h
632 12-03-2003 02:28:12 8.6 C 6.7 g/m*3 8.6 C 0 km/h
633 12-03-2003 02:40:12 8.3 C 6.57 g/m*3 8.3 C 0 km/h
634 12-03-2003 02:52:12 8.2 C 6.62 g/m*3 8.2 C 0 km/h
635 12-03-2003 03:04:12 8.2 C 6.62 g/m*3 8.2 C 0 km/h
636 12-03-2003 03:16:12 8.3 C 6.41 g/m*3 8.3 C 0 km/h
637 12-03-2003 03:28:12 8.8 C 6.35 g/m*3 8.8 C 0 km/h
638 12-03-2003 03:40:12 9.1 C 6.12 g/m*3 9.1 C 0 km/h
639 12-03-2003 03:52:12 9 C 5.91 g/m*3 9 C 0 km/h
640 12-03-2003 04:04:12 9.2 C 5.8 g/m*3 9.2 C 0 km/h
641 12-03-2003 04:16:12 9.1 C 5.86 g/m*3 9.1 C 0 km/h
642 12-03-2003 04:28:12 9 C 5.91 g/m*3 9 C 0 km/h
643 12-03-2003 04:40:12 9 C 5.82 g/m*3 9 C 0 km/h
644 12-03-2003 04:52:12 9.2 C 5.89 g/m*3 9.2 C 0 km/h
645 12-03-2003 05:04:12 9.1 C 5.86 g/m*3 9.1 C 0 km/h
646 12-03-2003 05:16:12 9.1 C 5.86 g/m*3 9.1 C 0 km/h
647 12-03-2003 05:28:12 8.9 C 5.96 g/m*3 8.9 C 0 km/h
648 12-03-2003 05:40:12 8.7 C 6.05 g/m*3 8.7 C 0 km/h
649 12-03-2003 05:52:12 8.7 C 6.05 g/m*3 8.7 C 0 km/h
650 12-03-2003 06:04:12 8.7 C 6.05 g/m*3 8.7 C 0 km/h
Sensor: Nr:Datum:Temp:Abs-Feuchte:Windchill:Wind:
Aussen-T/F 651 12-03-2003 06:16:12 8.7 C 6.05 g/m*3 8.7 C 0 km/h
652 12-03-2003 06:28:12 8.6 C 6.1 g/m*3 8.6 C 0 km/h
653 12-03-2003 06:40:12 8.6 C 6.1 g/m*3 8.6 C 0 km/h
654 12-03-2003 06:52:12 8.6 C 6.1 g/m*3 8.6 C 0 km/h
655 12-03-2003 07:04:12 8.6 C 6.19 g/m*3 8.6 C 0 km/h
656 12-03-2003 07:16:12 8.6 C 6.19 g/m*3 8.6 C 0 km/h
657 12-03-2003 07:28:12 8.6 C 6.19 g/m*3 8.6 C 0 km/h
658 12-03-2003 07:40:12 8.7 C 6.23 g/m*3 8.7 C 0 km/h
659 12-03-2003 07:52:12 8.8 C 6.27 g/m*3 8.8 C 0 km/h
660 12-03-2003 08:04:12 8.9 C 6.31 g/m*3 8.9 C 0 km/h
661 12-03-2003 08:16:12 9 C 6.26 g/m*3 9 C 0 km/h
662 12-03-2003 08:28:12 9 C 6.17 g/m*3 9 C 0 km/h
663 12-03-2003 08:40:12 9 C 6.17 g/m*3 9 C 0 km/h
664 12-03-2003 08:52:12 9 C 6.17 g/m*3 9 C 0 km/h
665 12-03-2003 09:04:13 9.2 C 6.16 g/m*3 9.2 C 0 km/h
666 12-03-2003 09:16:13 9.6 C 6.23 g/m*3 9.6 C 0 km/h
667 12-03-2003 09:28:13 9.9 C 5.88 g/m*3 9.9 C 0 km/h
668 12-03-2003 09:40:13 9.9 C 5.42 g/m*3 9.9 C 0 km/h
669 12-03-2003 09:52:13 9.8 C 5.38 g/m*3 9.8 C 0 km/h
670 12-03-2003 10:04:12 9.8 C 5.29 g/m*3 9.8 C 0 km/h
671 12-03-2003 10:16:12 10 C 5.36 g/m*3 10 C 0 km/h
672 12-03-2003 10:28:12 10 C 5.26 g/m*3 10 C 0 km/h
673 12-03-2003 10:40:12 10 C 5.36 g/m*3 10 C 0 km/h
674 12-03-2003 10:52:12 9.8 C 5.38 g/m*3 9.8 C 0 km/h
675 12-03-2003 11:04:12 9.8 C 5.75 g/m*3 9.8 C 0 km/h
Sensor: Nr:Datum:Temp:Abs-Feuchte:Windchill:Wind:
Aussen-T/F 676 12-03-2003 11:16:12 9.9 C 5.6 g/m*3 9.9 C 0 km/h
677 12-03-2003 11:28:12 10.1 C 5.48 g/m*3 10.1 C 0 km/h
678 12-03-2003 11:40:12 10.1 C 5.67 g/m*3 10.1 C 0 km/h
679 12-03-2003 11:52:12 10.1 C 5.67 g/m*3 10.1 C 0 km/h
680 12-03-2003 12:04:13 9.9 C 5.88 g/m*3 9.9 C 0 km/h
681 12-03-2003 12:16:13 9.9 C 5.79 g/m*3 9.9 C 0 km/h
682 12-03-2003 12:28:13 9.9 C 5.51 g/m*3 9.9 C 0 km/h
683 12-03-2003 12:40:13 9.9 C 5.6 g/m*3 9.9 C 0 km/h
684 12-03-2003 12:52:13 9.7 C 5.44 g/m*3 9.7 C 0 km/h
685 12-03-2003 13:04:13 9.7 C 5.44 g/m*3 9.7 C 0 km/h
686 12-03-2003 13:16:13 9.9 C 5.51 g/m*3 9.9 C 0 km/h
687 12-03-2003 13:28:13 9.6 C 5.31 g/m*3 9.6 C 0 km/h
688 12-03-2003 13:40:13 9.6 C 5.4 g/m*3 9.6 C 0 km/h
689 12-03-2003 13:52:13 9.6 C 5.4 g/m*3 9.6 C 0 km/h
690 12-03-2003 14:04:12 9.8 C 5.38 g/m*3 9.8 C 0 km/h
691 12-03-2003 14:16:12 9.9 C 5.42 g/m*3 9.9 C 0 km/h
692 12-03-2003 14:28:12 10 C 5.26 g/m*3 10 C 0 km/h
693 12-03-2003 14:40:12 9.7 C 5.16 g/m*3 9.7 C 0 km/h
694 12-03-2003 14:52:12 10.1 C 5.11 g/m*3 10.1 C 0 km/h
695 12-03-2003 15:04:13 10 C 5.07 g/m*3 10 C 0 km/h
696 12-03-2003 15:16:13 9.8 C 5.01 g/m*3 9.8 C 0 km/h
697 12-03-2003 15:28:13 10 C 4.98 g/m*3 10 C 0 km/h
698 12-03-2003 15:40:13 10 C 4.89 g/m*3 10 C 0 km/h
699 12-03-2003 15:52:13 9.9 C 5.04 g/m*3 9.9 C 0 km/h
700 12-03-2003 16:04:12 9.8 C 5.1 g/m*3 9.8 C 0 km/h
Sensor: Nr:Datum:Temp:Abs-Feuchte:Windchill:Wind:
Aussen-T/F 701 12-03-2003 16:16:12 9.5 C 5.19 g/m*3 9.5 C 0 km/h
702 12-03-2003 16:28:12 9.1 C 5.5 g/m*3 9.1 C 0 km/h
703 12-03-2003 16:40:12 9.1 C 5.5 g/m*3 9.1 C 0 km/h
704 12-03-2003 16:52:12 9.2 C 5.54 g/m*3 9.2 C 0 km/h
705 12-03-2003 18:31:51 8.9 C 5.87 g/m*3 8.9 C 0 km/h
706 12-03-2003 18:43:11 8.8 C 5.83 g/m*3 8.8 C 0 km/h
707 12-03-2003 18:55:11 8.7 C 5.88 g/m*3 8.7 C 0 km/h
708 12-03-2003 19:26:45 8.4 C 6.02 g/m*3 8.4 C 0 km/h
709 12-03-2003 19:38:12 8.4 C 6.11 g/m*3 8.4 C 0 km/h
710 12-03-2003 19:50:12 8.3 C 6.07 g/m*3 8.3 C 0 km/h
711 12-03-2003 20:02:13 8.4 C 6.11 g/m*3 8.4 C 0 km/h
712 12-03-2003 20:14:13 8.4 C 6.11 g/m*3 8.4 C 0 km/h
713 12-03-2003 20:26:13 8.3 C 6.07 g/m*3 8.3 C 0 km/h
714 12-03-2003 20:38:13 8.1 C 6.07 g/m*3 8.1 C 0 km/h
715 12-03-2003 20:50:13 8.2 C 6.03 g/m*3 8.2 C 0 km/h
716 12-03-2003 21:03:12 8.3 C 5.65 g/m*3 8.3 C 0 km/h
717 12-03-2003 21:15:12 8.3 C 5.56 g/m*3 8.3 C 0 km/h
718 12-03-2003 21:27:12 8.2 C 5.53 g/m*3 8.2 C 0 km/h
719 12-03-2003 21:39:12 8.1 C 5.49 g/m*3 8.1 C 0 km/h
720 12-03-2003 21:51:12 8.1 C 5.49 g/m*3 8.1 C 0 km/h
721 12-03-2003 22:03:12 8 C 5.46 g/m*3 8 C 0 km/h
722 12-03-2003 22:15:12 7.9 C 5.5 g/m*3 7.9 C 0 km/h
723 12-03-2003 22:27:12 7.9 C 5.5 g/m*3 7.9 C 0 km/h
724 12-03-2003 22:51:12 7.8 C 5.47 g/m*3 7.8 C 0 km/h
725 12-03-2003 23:03:12 7.8 C 5.47 g/m*3 7.8 C 0 km/h
Sensor: Nr:Datum:Temp:Abs-Feuchte:Windchill:Wind:
Aussen-T/F 726 12-03-2003 23:15:12 7.7 C 5.43 g/m*3 7.7 C 0 km/h
727 12-03-2003 23:27:12 7.6 C 5.4 g/m*3 7.6 C 0 km/h
728 12-03-2003 23:39:12 7.6 C 5.48 g/m*3 7.6 C 0 km/h
729 12-03-2003 23:51:12 7.6 C 5.48 g/m*3 7.6 C 0 km/h
730 13-03-2003 00:03:12 7.5 C 5.44 g/m*3 7.5 C 0 km/h
731 13-03-2003 00:15:12 7.5 C 5.44 g/m*3 7.5 C 0 km/h
732 13-03-2003 00:27:12 7.5 C 5.44 g/m*3 7.5 C 0 km/h
733 13-03-2003 00:39:12 7.5 C 5.44 g/m*3 7.5 C 0 km/h
734 13-03-2003 00:51:12 7.5 C 5.52 g/m*3 7.5 C 0 km/h
735 13-03-2003 01:03:12 7.4 C 5.57 g/m*3 7.4 C 0 km/h
736 13-03-2003 01:15:12 7.4 C 5.57 g/m*3 7.4 C 0 km/h
737 13-03-2003 01:27:12 7.4 C 5.65 g/m*3 7.4 C 0 km/h
738 13-03-2003 01:39:12 7.3 C 5.69 g/m*3 7.3 C 0 km/h
739 13-03-2003 01:51:12 7.1 C 5.62 g/m*3 7.1 C 0 km/h
740 13-03-2003 02:03:12 7.1 C 5.69 g/m*3 7.1 C 0 km/h
741 13-03-2003 02:15:12 7.1 C 5.69 g/m*3 7.1 C 0 km/h
742 13-03-2003 02:27:12 7.1 C 5.69 g/m*3 7.1 C 0 km/h
743 13-03-2003 02:39:12 7 C 5.66 g/m*3 7 C 0 km/h
744 13-03-2003 02:51:12 7 C 5.66 g/m*3 7 C 0 km/h
745 13-03-2003 03:03:12 7 C 5.66 g/m*3 7 C 0 km/h
746 13-03-2003 03:15:12 6.9 C 5.7 g/m*3 6.9 C 0 km/h
747 13-03-2003 03:27:12 6.9 C 5.7 g/m*3 6.9 C 0 km/h
748 13-03-2003 03:39:12 6.8 C 5.66 g/m*3 6.8 C 0 km/h
749 13-03-2003 03:51:12 6.6 C 5.59 g/m*3 6.6 C 0 km/h
750 13-03-2003 04:03:12 6.7 C 5.62 g/m*3 6.7 C 0 km/h
Sensor: Nr:Datum:Temp:Abs-Feuchte:Windchill:Wind:
Aussen-T/F 751 13-03-2003 04:15:12 6 C 5.44 g/m*3 6 C 0 km/h
752 13-03-2003 04:27:12 5.4 C 5.37 g/m*3 5.4 C 0 km/h
753 13-03-2003 04:39:12 5 C 5.3 g/m*3 5 C 0 km/h
754 13-03-2003 04:51:12 4.8 C 5.36 g/m*3 4.8 C 0 km/h
755 13-03-2003 05:03:12 4.6 C 5.36 g/m*3 4.6 C 0 km/h
756 13-03-2003 05:15:12 4.7 C 5.46 g/m*3 4.7 C 0 km/h
757 13-03-2003 05:27:12 4.5 C 5.32 g/m*3 4.5 C 0 km/h
758 13-03-2003 05:39:12 4.5 C 5.39 g/m*3 4.5 C 0 km/h
759 13-03-2003 05:51:12 4.2 C 5.28 g/m*3 4.2 C 0 km/h
760 13-03-2003 06:03:12 4 C 5.21 g/m*3 4 C 0 km/h
761 13-03-2003 06:15:12 3.7 C 5.17 g/m*3 3.7 C 0 km/h
762 13-03-2003 06:27:12 3.7 C 5.17 g/m*3 3.7 C 0 km/h
763 13-03-2003 06:39:12 3.4 C 5.01 g/m*3 3.4 C 0 km/h
764 13-03-2003 06:51:12 3.1 C 4.91 g/m*3 3.1 C 0 km/h
765 13-03-2003 07:03:12 2.9 C 4.9 g/m*3 2.9 C 0 km/h
766 13-03-2003 07:15:12 2.8 C 4.87 g/m*3 2.8 C 0 km/h
767 13-03-2003 07:27:12 2.8 C 4.87 g/m*3 2.8 C 0 km/h
768 13-03-2003 07:39:12 2.8 C 4.87 g/m*3 2.8 C 0 km/h
769 13-03-2003 07:51:12 2.8 C 4.87 g/m*3 2.8 C 0 km/h
770 13-03-2003 08:03:12 2.7 C 4.84 g/m*3 2.7 C 0 km/h
771 13-03-2003 08:15:12 2.8 C 4.87 g/m*3 2.8 C 0 km/h
772 13-03-2003 08:27:12 3.3 C 4.73 g/m*3 3.3 C 0 km/h
773 13-03-2003 08:39:12 3.4 C 4.58 g/m*3 3.4 C 0 km/h
774 13-03-2003 08:51:12 3.5 C 4.49 g/m*3 3.5 C 0 km/h
775 13-03-2003 09:03:13 3.8 C 4.45 g/m*3 3.8 C 0 km/h
Sensor: Nr:Datum:Temp:Abs-Feuchte:Windchill:Wind:
Aussen-T/F 776 13-03-2003 09:15:13 4.5 C 4.4 g/m*3 4.5 C 0 km/h
777 13-03-2003 09:27:13 4.9 C 4.19 g/m*3 4.9 C 0 km/h
778 13-03-2003 09:39:13 5.3 C 3.81 g/m*3 5.3 C 0 km/h
779 13-03-2003 09:51:13 5.7 C 3.84 g/m*3 5.7 C 0 km/h
780 13-03-2003 10:03:13 6 C 3.63 g/m*3 6 C 0 km/h
781 13-03-2003 10:15:13 6.4 C 3.65 g/m*3 6.4 C 0 km/h
782 13-03-2003 10:27:13 6.7 C 3.65 g/m*3 6.7 C 0 km/h
783 13-03-2003 10:39:13 6.7 C 3.42 g/m*3 6.7 C 0 km/h
784 13-03-2003 10:51:13 7.1 C 3.43 g/m*3 7.1 C 0 km/h
785 13-03-2003 11:03:13 7.2 C 3.38 g/m*3 7.2 C 0 km/h
786 13-03-2003 11:15:13 7.6 C 3.46 g/m*3 7.6 C 0 km/h
787 13-03-2003 11:27:13 8.1 C 3.58 g/m*3 8.1 C 0 km/h
788 13-03-2003 11:39:13 8.5 C 3.42 g/m*3 8.5 C 0 km/h
789 13-03-2003 11:51:13 9 C 3.53 g/m*3 9 C 0 km/h
790 13-03-2003 12:03:13 9.2 C 3.3 g/m*3 9.2 C 0 km/h
791 13-03-2003 12:15:13 9 C 3.17 g/m*3 9 C 0 km/h
792 13-03-2003 12:27:13 10.3 C 3.45 g/m*3 10.3 C 0 km/h
793 13-03-2003 12:39:13 10.5 C 3.3 g/m*3 10.5 C 0 km/h
794 13-03-2003 12:51:13 10.4 C 3.08 g/m*3 10.4 C 0 km/h
795 13-03-2003 13:03:13 10.7 C 3.14 g/m*3 10.7 C 0 km/h
796 13-03-2003 13:15:13 11 C 3.2 g/m*3 11 C 0 km/h
797 13-03-2003 13:27:13 11.1 C 3.12 g/m*3 11.1 C 0 km/h
798 13-03-2003 13:39:13 11.5 C 3.2 g/m*3 11.5 C 0 km/h
799 13-03-2003 13:51:13 12.2 C 3.13 g/m*3 12.2 C 0 km/h
800 13-03-2003 14:03:13 12.3 C 3.04 g/m*3 12.3 C 0 km/h
Sensor: Nr:Datum:Temp:Abs-Feuchte:Windchill:Wind:
Aussen-T/F 801 13-03-2003 14:15:13 13 C 2.95 g/m*3 13 C 0 km/h
802 13-03-2003 14:27:13 12.7 C 2.78 g/m*3 12.7 C 0 km/h
803 13-03-2003 14:39:13 12.6 C 2.88 g/m*3 12.6 C 0 km/h
804 13-03-2003 14:51:13 13.1 C 2.85 g/m*3 13.1 C 0 km/h
805 13-03-2003 15:03:13 13 C 2.49 g/m*3 13 C 0 km/h
806 13-03-2003 15:15:13 13.6 C 2.71 g/m*3 13.6 C 0 km/h
807 13-03-2003 15:27:13 13.7 C 2.37 g/m*3 13.7 C 0 km/h
808 13-03-2003 15:39:13 14.2 C 2.56 g/m*3 14.2 C 0 km/h
809 13-03-2003 15:51:13 14.4 C 2.72 g/m*3 14.4 C 0 km/h
810 13-03-2003 16:03:13 14.8 C 2.66 g/m*3 14.8 C 0 km/h
811 13-03-2003 16:15:13 13.9 C 2.4 g/m*3 13.9 C 0 km/h
812 13-03-2003 16:27:13 14.7 C 2.52 g/m*3 14.7 C 0 km/h
813 13-03-2003 16:39:13 14.7 C 2.52 g/m*3 14.7 C 0 km/h
814 13-03-2003 16:51:13 15.1 C 2.58 g/m*3 15.1 C 0 km/h
815 13-03-2003 17:03:14 14.9 C 2.55 g/m*3 14.9 C 0 km/h
816 13-03-2003 17:15:14 14.7 C 2.52 g/m*3 14.7 C 0 km/h
817 13-03-2003 17:27:14 14.2 C 2.44 g/m*3 14.2 C 0 km/h
818 13-03-2003 17:39:14 13.8 C 2.38 g/m*3 13.8 C 0 km/h
819 13-03-2003 17:51:14 13.2 C 2.3 g/m*3 13.2 C 0 km/h
820 13-03-2003 18:03:13 12.1 C 2.57 g/m*3 12.1 C 0 km/h
821 13-03-2003 18:15:13 11.2 C 2.64 g/m*3 11.2 C 0 km/h
822 13-03-2003 18:27:13 10.2 C 2.85 g/m*3 10.2 C 0 km/h
823 13-03-2003 18:39:13 9.3 C 2.97 g/m*3 9.3 C 0 km/h
824 13-03-2003 18:51:13 8.5 C 3.16 g/m*3 8.5 C 0 km/h
825 13-03-2003 19:03:13 7.9 C 3.45 g/m*3 7.9 C 0 km/h
Sensor: Nr:Datum:Temp:Abs-Feuchte:Windchill:Wind:
Aussen-T/F 826 13-03-2003 19:15:13 7.3 C 3.4 g/m*3 7.3 C 0 km/h
827 13-03-2003 19:27:13 7.1 C 3.51 g/m*3 7.1 C 0 km/h
828 13-03-2003 19:39:13 6.7 C 3.5 g/m*3 6.7 C 0 km/h
829 13-03-2003 19:51:13 6.4 C 3.5 g/m*3 6.4 C 0 km/h
830 13-03-2003 20:03:14 6 C 3.56 g/m*3 6 C 0 km/h
831 13-03-2003 20:15:14 5.8 C 3.65 g/m*3 5.8 C 0 km/h
832 13-03-2003 20:27:14 5.6 C 3.75 g/m*3 5.6 C 0 km/h
833 13-03-2003 20:39:14 5.5 C 3.72 g/m*3 5.5 C 0 km/h
834 13-03-2003 20:51:14 5.3 C 3.74 g/m*3 5.3 C 0 km/h
835 13-03-2003 21:04:13 5 C 3.6 g/m*3 5 C 0 km/h
836 13-03-2003 21:16:13 4.9 C 3.78 g/m*3 4.9 C 0 km/h
837 13-03-2003 21:28:13 4.8 C 3.69 g/m*3 4.8 C 0 km/h
838 13-03-2003 21:40:13 4.5 C 3.68 g/m*3 4.5 C 0 km/h
839 13-03-2003 21:52:13 4.4 C 3.72 g/m*3 4.4 C 0 km/h
840 13-03-2003 22:04:13 3.9 C 3.73 g/m*3 3.9 C 0 km/h
841 13-03-2003 22:16:13 3.9 C 3.73 g/m*3 3.9 C 0 km/h
842 13-03-2003 22:28:13 3.7 C 3.61 g/m*3 3.7 C 0 km/h
843 13-03-2003 22:40:13 3.4 C 3.66 g/m*3 3.4 C 0 km/h
844 13-03-2003 22:52:13 3.2 C 3.62 g/m*3 3.2 C 0 km/h
845 13-03-2003 23:04:13 3.1 C 3.71 g/m*3 3.1 C 0 km/h
846 13-03-2003 23:16:13 2.9 C 3.84 g/m*3 2.9 C 0 km/h
847 13-03-2003 23:28:13 2.7 C 3.85 g/m*3 2.7 C 0 km/h
848 13-03-2003 23:40:13 2.4 C 3.71 g/m*3 2.4 C 0 km/h
849 13-03-2003 23:52:13 2.1 C 3.69 g/m*3 2.1 C 0 km/h
850 14-03-2003 00:04:13 2 C 3.72 g/m*3 2 C 0 km/h
Sensor: Nr:Datum:Temp:Abs-Feuchte:Windchill:Wind:
Aussen-T/F 851 14-03-2003 00:16:13 2 C 3.72 g/m*3 2 C 0 km/h
852 14-03-2003 00:28:13 1.9 C 3.7 g/m*3 1.9 C 0 km/h
853 14-03-2003 00:40:13 1.6 C 3.62 g/m*3 1.6 C 0 km/h
854 14-03-2003 00:52:13 1.5 C 3.65 g/m*3 1.5 C 0 km/h
855 14-03-2003 01:04:13 1.5 C 3.6 g/m*3 1.5 C 0 km/h
856 14-03-2003 01:16:13 1.3 C 3.44 g/m*3 1.3 C 0 km/h
857 14-03-2003 01:28:13 1.4 C 3.36 g/m*3 1.4 C 0 km/h
858 14-03-2003 01:40:13 1.3 C 3.23 g/m*3 1.3 C 0 km/h
859 14-03-2003 01:52:13 1.4 C 3.15 g/m*3 1.4 C 0 km/h
860 14-03-2003 02:04:13 1.3 C 3.07 g/m*3 1.3 C 0 km/h
861 14-03-2003 02:16:13 1.2 C 3.05 g/m*3 1.2 C 0 km/h
862 14-03-2003 02:28:13 1.1 C 2.98 g/m*3 1.1 C 0 km/h
863 14-03-2003 02:40:13 1 C 3.01 g/m*3 1 C 0 km/h
864 14-03-2003 02:52:13 0.8 C 3.07 g/m*3 0.8 C 0 km/h
865 14-03-2003 03:04:13 0.7 C 3.1 g/m*3 0.7 C 0 km/h
866 14-03-2003 03:16:13 0.5 C 3.11 g/m*3 0.5 C 0 km/h
867 14-03-2003 03:28:13 0.3 C 3.17 g/m*3 0.3 C 0 km/h
868 14-03-2003 03:40:13 0.3 C 3.26 g/m*3 0.3 C 0 km/h
869 14-03-2003 03:52:13 0.1 C 3.27 g/m*3 0.1 C 0 km/h
870 14-03-2003 04:04:13 0.1 C 3.32 g/m*3 0.1 C 0 km/h
871 14-03-2003 04:16:13 -0.2 C 3.3 g/m*3 -0.2 C 0 km/h
872 14-03-2003 04:28:13 -0.2 C 3.25 g/m*3 -0.2 C 0 km/h
873 14-03-2003 04:40:13 -0.4 C 3.25 g/m*3 -0.4 C 0 km/h
874 14-03-2003 04:52:13 -0.5 C 3.18 g/m*3 -0.5 C 0 km/h
875 14-03-2003 05:04:13 -0.7 C 3.23 g/m*3 -0.7 C 0 km/h
Sensor: Nr:Datum:Temp:Abs-Feuchte:Windchill:Wind:
Aussen-T/F 876 14-03-2003 05:16:13 -0.9 C 3.19 g/m*3 -0.9 C 0 km/h
877 14-03-2003 05:28:13 -1 C 3.16 g/m*3 -1 C 0 km/h
878 14-03-2003 05:40:13 -1.2 C 3.12 g/m*3 -1.2 C 0 km/h
879 14-03-2003 05:52:13 -1.3 C 3.14 g/m*3 -1.3 C 0 km/h
880 14-03-2003 06:04:13 -1.3 C 3.14 g/m*3 -1.3 C 0 km/h
881 14-03-2003 06:16:13 -1.3 C 3.14 g/m*3 -1.3 C 0 km/h
882 14-03-2003 06:28:13 -1.7 C 3.1 g/m*3 -1.7 C 0 km/h
883 14-03-2003 06:40:13 -1.7 C 3.19 g/m*3 -1.7 C 0 km/h
884 14-03-2003 06:52:13 -1.7 C 3.14 g/m*3 -1.7 C 0 km/h
885 14-03-2003 07:04:13 -2 C 3.12 g/m*3 -2 C 0 km/h
886 14-03-2003 07:16:13 -2 C 3.16 g/m*3 -2 C 0 km/h
887 14-03-2003 07:28:13 -2.1 C 3.18 g/m*3 -2.1 C 0 km/h
888 14-03-2003 07:40:13 -2 C 3.25 g/m*3 -2 C 0 km/h
889 14-03-2003 07:52:13 -1.9 C 3.27 g/m*3 -1.9 C 0 km/h
890 14-03-2003 08:04:14 -1.7 C 3.31 g/m*3 -1.7 C 0 km/h
891 14-03-2003 08:16:14 -1.6 C 3.34 g/m*3 -1.6 C 0 km/h
892 14-03-2003 08:28:14 -1.3 C 3.28 g/m*3 -1.3 C 0 km/h
893 14-03-2003 08:40:14 -1 C 3.25 g/m*3 -1 C 0 km/h
894 14-03-2003 08:52:14 -0.7 C 3.28 g/m*3 -0.7 C 0 km/h
895 14-03-2003 09:04:13 -0.4 C 3.25 g/m*3 -0.4 C 0 km/h
896 14-03-2003 09:16:13 0.3 C 3.31 g/m*3 0.3 C 0 km/h
897 14-03-2003 09:28:13 0.8 C 3.38 g/m*3 0.8 C 0 km/h
898 14-03-2003 09:40:13 1.6 C 3.41 g/m*3 1.6 C 0 km/h
899 14-03-2003 09:52:13 2.3 C 3.4 g/m*3 2.3 C 0 km/h
900 14-03-2003 10:04:12 3 C 3.33 g/m*3 3 C 0 km/h
Sensor: Nr:Datum:Temp:Abs-Feuchte:Windchill:Wind:
Aussen-T/F 901 14-03-2003 10:16:12 3.8 C 3.26 g/m*3 3.8 C 0 km/h
902 14-03-2003 10:28:12 4.6 C 3.24 g/m*3 4.6 C 0 km/h
903 14-03-2003 10:40:12 5.2 C 3.31 g/m*3 5.2 C 0 km/h
904 14-03-2003 10:52:12 5.9 C 3.39 g/m*3 5.9 C 0 km/h
905 14-03-2003 11:04:13 6.4 C 3.28 g/m*3 6.4 C 0 km/h
906 14-03-2003 11:16:13 7.2 C 3.14 g/m*3 7.2 C 0 km/h
907 14-03-2003 11:28:13 7.9 C 3.12 g/m*3 7.9 C 0 km/h
908 14-03-2003 11:40:13 8.3 C 3.03 g/m*3 8.3 C 0 km/h
909 14-03-2003 11:52:13 8.7 C 3.03 g/m*3 8.7 C 0 km/h
910 14-03-2003 12:04:13 9.6 C 3.21 g/m*3 9.6 C 0 km/h
911 14-03-2003 12:16:13 10.1 C 3.03 g/m*3 10.1 C 0 km/h
912 14-03-2003 12:28:13 10.3 C 2.87 g/m*3 10.3 C 0 km/h
913 14-03-2003 12:40:13 10.6 C 2.93 g/m*3 10.6 C 0 km/h
914 14-03-2003 12:52:13 10.7 C 2.95 g/m*3 10.7 C 0 km/h
915 14-03-2003 13:04:13 10.8 C 3.06 g/m*3 10.8 C 0 km/h
916 14-03-2003 13:16:13 11.1 C 3.12 g/m*3 11.1 C 0 km/h
917 14-03-2003 13:28:13 11.5 C 3 g/m*3 11.5 C 0 km/h
918 14-03-2003 13:40:13 11.8 C 3.05 g/m*3 11.8 C 0 km/h
919 14-03-2003 13:52:13 12.2 C 3.13 g/m*3 12.2 C 0 km/h
920 14-03-2003 14:04:13 12.5 C 3.08 g/m*3 12.5 C 0 km/h
921 14-03-2003 14:16:13 12.6 C 2.88 g/m*3 12.6 C 0 km/h
922 14-03-2003 14:28:13 13.1 C 2.97 g/m*3 13.1 C 0 km/h
923 14-03-2003 14:40:13 13.3 C 3 g/m*3 13.3 C 0 km/h
924 14-03-2003 14:52:13 13.5 C 3.04 g/m*3 13.5 C 0 km/h
925 14-03-2003 15:04:13 13.6 C 2.94 g/m*3 13.6 C 0 km/h
Sensor: Nr:Datum:Temp:Abs-Feuchte:Windchill:Wind:
Aussen-T/F 926 14-03-2003 15:16:13 13.6 C 2.94 g/m*3 13.6 C 0 km/h
927 14-03-2003 15:28:13 13.9 C 2.76 g/m*3 13.9 C 0 km/h
928 14-03-2003 15:40:13 13.5 C 2.69 g/m*3 13.5 C 0 km/h
929 14-03-2003 15:52:13 13.8 C 2.98 g/m*3 13.8 C 0 km/h
930 14-03-2003 16:04:13 13.2 C 2.76 g/m*3 13.2 C 0 km/h
931 14-03-2003 16:16:13 13.3 C 2.89 g/m*3 13.3 C 0 km/h
932 14-03-2003 16:28:13 13.2 C 2.99 g/m*3 13.2 C 0 km/h
933 14-03-2003 16:40:13 13.1 C 2.97 g/m*3 13.1 C 0 km/h
934 14-03-2003 16:52:13 13 C 2.95 g/m*3 13 C 0 km/h
935 14-03-2003 17:04:14 12.7 C 3.12 g/m*3 12.7 C 0 km/h
936 14-03-2003 17:16:14 11.9 C 3.18 g/m*3 11.9 C 0 km/h
937 14-03-2003 17:28:14 11.6 C 3.22 g/m*3 11.6 C 0 km/h
938 14-03-2003 17:40:14 10.8 C 3.16 g/m*3 10.8 C 0 km/h
939 14-03-2003 17:52:14 10.4 C 3.18 g/m*3 10.4 C 0 km/h
940 14-03-2003 18:04:13 9.8 C 3.34 g/m*3 9.8 C 0 km/h
941 14-03-2003 18:16:13 9.3 C 3.33 g/m*3 9.3 C 0 km/h
942 14-03-2003 18:28:13 8.2 C 3.35 g/m*3 8.2 C 0 km/h
943 14-03-2003 18:40:13 7.4 C 3.34 g/m*3 7.4 C 0 km/h
944 14-03-2003 18:52:13 7 C 3.49 g/m*3 7 C 0 km/h
945 14-03-2003 19:04:14 6.6 C 3.47 g/m*3 6.6 C 0 km/h
946 14-03-2003 19:16:14 6.2 C 3.53 g/m*3 6.2 C 0 km/h
947 14-03-2003 19:28:14 6 C 3.56 g/m*3 6 C 0 km/h
948 14-03-2003 19:40:14 5.4 C 3.56 g/m*3 5.4 C 0 km/h
949 14-03-2003 19:52:14 5 C 3.53 g/m*3 5 C 0 km/h
950 14-03-2003 20:04:13 4.7 C 3.6 g/m*3 4.7 C 0 km/h
Sensor: Nr:Datum:Temp:Abs-Feuchte:Windchill:Wind:
Aussen-T/F 951 14-03-2003 20:16:13 4.5 C 3.62 g/m*3 4.5 C 0 km/h
952 14-03-2003 20:28:13 4.1 C 3.52 g/m*3 4.1 C 0 km/h
953 14-03-2003 20:40:13 3.8 C 3.58 g/m*3 3.8 C 0 km/h
954 14-03-2003 20:52:13 3.7 C 3.61 g/m*3 3.7 C 0 km/h
955 14-03-2003 21:05:37 3.5 C 3.63 g/m*3 3.5 C 0 km/h
956 14-03-2003 21:17:37 3.5 C 3.63 g/m*3 3.5 C 0 km/h
957 14-03-2003 21:29:37 3.6 C 3.59 g/m*3 3.6 C 0 km/h
958 14-03-2003 21:41:37 3.7 C 3.61 g/m*3 3.7 C 0 km/h
959 14-03-2003 21:53:37 3.7 C 3.61 g/m*3 3.7 C 0 km/h
960 14-03-2003 22:05:37 3.9 C 3.6 g/m*3 3.9 C 0 km/h
961 14-03-2003 22:17:37 4 C 3.5 g/m*3 4 C 0 km/h
962 14-03-2003 22:29:37 3.8 C 3.51 g/m*3 3.8 C 0 km/h
963 14-03-2003 22:41:37 3.8 C 3.45 g/m*3 3.8 C 0 km/h
964 14-03-2003 22:53:37 3.6 C 3.47 g/m*3 3.6 C 0 km/h
965 14-03-2003 23:05:37 3.6 C 3.4 g/m*3 3.6 C 0 km/h
966 14-03-2003 23:17:37 3.4 C 3.42 g/m*3 3.4 C 0 km/h
967 14-03-2003 23:29:37 3.3 C 3.4 g/m*3 3.3 C 0 km/h
968 14-03-2003 23:41:37 3.4 C 3.36 g/m*3 3.4 C 0 km/h
969 14-03-2003 23:53:37 3 C 3.33 g/m*3 3 C 0 km/h
970 15-03-2003 00:05:37 2.4 C 3.43 g/m*3 2.4 C 0 km/h
971 15-03-2003 00:17:37 2 C 3.33 g/m*3 2 C 0 km/h
972 15-03-2003 00:29:37 1.7 C 3.38 g/m*3 1.7 C 0 km/h
973 15-03-2003 00:41:37 1.8 C 3.4 g/m*3 1.8 C 0 km/h
974 15-03-2003 00:53:37 1.8 C 3.4 g/m*3 1.8 C 0 km/h
975 15-03-2003 01:05:37 1.6 C 3.41 g/m*3 1.6 C 0 km/h
Sensor: Nr:Datum:Temp:Abs-Feuchte:Windchill:Wind:
Aussen-T/F 976 15-03-2003 01:17:37 1.5 C 3.44 g/m*3 1.5 C 0 km/h
977 15-03-2003 01:29:37 1.3 C 3.44 g/m*3 1.3 C 0 km/h
978 15-03-2003 01:41:37 1.2 C 3.47 g/m*3 1.2 C 0 km/h
979 15-03-2003 02:05:37 1.1 C 3.5 g/m*3 1.1 C 0 km/h
980 15-03-2003 02:17:37 1 C 3.53 g/m*3 1 C 0 km/h
981 15-03-2003 02:29:37 1 C 3.53 g/m*3 1 C 0 km/h
982 15-03-2003 02:41:37 0.9 C 3.61 g/m*3 0.9 C 0 km/h
983 15-03-2003 02:53:37 0.8 C 3.58 g/m*3 0.8 C 0 km/h
984 15-03-2003 03:05:37 0.7 C 3.61 g/m*3 0.7 C 0 km/h
985 15-03-2003 03:17:37 0.4 C 3.54 g/m*3 0.4 C 0 km/h
986 15-03-2003 03:29:37 0.4 C 3.54 g/m*3 0.4 C 0 km/h
987 15-03-2003 03:41:37 0.3 C 3.56 g/m*3 0.3 C 0 km/h
988 15-03-2003 03:53:37 0.3 C 3.56 g/m*3 0.3 C 0 km/h
989 15-03-2003 04:05:37 0.1 C 3.51 g/m*3 0.1 C 0 km/h
990 15-03-2003 04:17:37 0.1 C 3.51 g/m*3 0.1 C 0 km/h
991 15-03-2003 04:29:37 -0.1 C 3.51 g/m*3 -0.1 C 0 km/h
992 15-03-2003 04:41:37 -0.2 C 3.49 g/m*3 -0.2 C 0 km/h
993 15-03-2003 04:53:37 -0.2 C 3.49 g/m*3 -0.2 C 0 km/h
994 15-03-2003 05:05:37 -0.3 C 3.46 g/m*3 -0.3 C 0 km/h
995 15-03-2003 05:17:37 -0.4 C 3.44 g/m*3 -0.4 C 0 km/h
996 15-03-2003 05:29:37 -0.4 C 3.44 g/m*3 -0.4 C 0 km/h
997 15-03-2003 05:41:37 -0.5 C 3.42 g/m*3 -0.5 C 0 km/h
998 15-03-2003 05:53:37 -0.5 C 3.42 g/m*3 -0.5 C 0 km/h
999 15-03-2003 06:05:37 -0.5 C 3.42 g/m*3 -0.5 C 0 km/h
1000 15-03-2003 06:17:37 -0.2 C 3.44 g/m*3 -0.2 C 0 km/h
Sensor: Nr:Datum:Temp:Abs-Feuchte:Windchill:Wind:
Aussen-T/F 1001 15-03-2003 06:29:37 -0.2 C 3.39 g/m*3 -0.2 C 0 km/h
1002 15-03-2003 06:41:37 -0.3 C 3.37 g/m*3 -0.3 C 0 km/h
1003 15-03-2003 06:53:37 -0.3 C 3.37 g/m*3 -0.3 C 0 km/h
1004 15-03-2003 07:05:37 -0.3 C 3.37 g/m*3 -0.3 C 0 km/h
1005 15-03-2003 07:17:37 -0.3 C 3.37 g/m*3 -0.3 C 0 km/h
1006 15-03-2003 07:29:37 -0.3 C 3.42 g/m*3 -0.3 C 0 km/h
1007 15-03-2003 07:41:37 -0.2 C 3.44 g/m*3 -0.2 C 0 km/h
1008 15-03-2003 07:53:37 -0.2 C 3.49 g/m*3 -0.2 C 0 km/h
1009 15-03-2003 08:05:37 0.1 C 3.51 g/m*3 0.1 C 0 km/h
1010 15-03-2003 08:17:37 0.3 C 3.56 g/m*3 0.3 C 0 km/h
1011 15-03-2003 08:29:37 0.5 C 3.56 g/m*3 0.5 C 0 km/h
1012 15-03-2003 08:41:14 0.7 C 3.66 g/m*3 0.7 C 0 km/h
1013 15-03-2003 08:53:14 0.9 C 3.71 g/m*3 0.9 C 0 km/h
1014 15-03-2003 09:05:14 1.3 C 3.71 g/m*3 1.3 C 0 km/h
1015 15-03-2003 09:17:14 2 C 3.72 g/m*3 2 C 0 km/h
1016 15-03-2003 09:29:14 3.1 C 3.71 g/m*3 3.1 C 0 km/h
1017 15-03-2003 09:41:14 3.7 C 3.74 g/m*3 3.7 C 0 km/h
1018 15-03-2003 09:53:14 3.9 C 3.79 g/m*3 3.9 C 0 km/h
1019 15-03-2003 10:05:13 4.1 C 3.71 g/m*3 4.1 C 0 km/h
1020 15-03-2003 10:17:13 4.6 C 3.77 g/m*3 4.6 C 0 km/h
1021 15-03-2003 10:29:13 5.3 C 3.67 g/m*3 5.3 C 0 km/h
1022 15-03-2003 10:41:13 5.4 C 3.63 g/m*3 5.4 C 0 km/h
1023 15-03-2003 10:53:13 5.9 C 3.68 g/m*3 5.9 C 0 km/h
1024 15-03-2003 11:05:14 6.6 C 3.7 g/m*3 6.6 C 0 km/h
1025 15-03-2003 11:17:14 7.5 C 3.68 g/m*3 7.5 C 0 km/h
Sensor: Nr:Datum:Temp:Abs-Feuchte:Windchill:Wind:
Aussen-T/F 1026 15-03-2003 11:29:14 8.3 C 3.71 g/m*3 8.3 C 0 km/h
1027 15-03-2003 11:41:14 8.8 C 3.57 g/m*3 8.8 C 0 km/h
1028 15-03-2003 11:53:14 9.2 C 3.48 g/m*3 9.2 C 0 km/h
1029 15-03-2003 12:05:14 8.9 C 3.33 g/m*3 8.9 C 0 km/h
1030 15-03-2003 12:17:14 10.6 C 3.42 g/m*3 10.6 C 0 km/h
1031 15-03-2003 12:29:14 10.8 C 3.36 g/m*3 10.8 C 0 km/h
1032 15-03-2003 12:41:14 10.4 C 3.28 g/m*3 10.4 C 0 km/h
1033 15-03-2003 12:53:14 10.3 C 3.35 g/m*3 10.3 C 0 km/h
1034 15-03-2003 13:05:14 10.1 C 3.4 g/m*3 10.1 C 0 km/h
1035 15-03-2003 13:17:14 10.2 C 3.43 g/m*3 10.2 C 0 km/h
1036 15-03-2003 13:29:14 10.1 C 3.4 g/m*3 10.1 C 0 km/h
1037 15-03-2003 13:41:14 10.7 C 3.63 g/m*3 10.7 C 0 km/h
1038 15-03-2003 13:53:14 10.9 C 3.48 g/m*3 10.9 C 0 km/h
1039 15-03-2003 14:05:14 11.5 C 3.72 g/m*3 11.5 C 0 km/h
1040 15-03-2003 14:17:14 11.6 C 3.64 g/m*3 11.6 C 0 km/h
1041 15-03-2003 14:29:14 12 C 3.41 g/m*3 12 C 0 km/h
1042 15-03-2003 14:41:14 12.3 C 3.47 g/m*3 12.3 C 0 km/h
1043 15-03-2003 14:53:14 12.6 C 3.43 g/m*3 12.6 C 0 km/h
1044 15-03-2003 15:05:13 13.2 C 3.56 g/m*3 13.2 C 0 km/h
1045 15-03-2003 15:17:13 13.5 C 3.51 g/m*3 13.5 C 0 km/h
1046 15-03-2003 15:29:13 13 C 3.29 g/m*3 13 C 0 km/h
1047 15-03-2003 15:41:13 13.3 C 3.47 g/m*3 13.3 C 0 km/h
1048 15-03-2003 15:53:13 13.5 C 3.39 g/m*3 13.5 C 0 km/h
1049 15-03-2003 16:05:13 13.1 C 3.2 g/m*3 13.1 C 0 km/h
1050 15-03-2003 16:17:13 13.4 C 3.37 g/m*3 13.4 C 0 km/h
Sensor: Nr:Datum:Temp:Abs-Feuchte:Windchill:Wind:
Aussen-T/F 1051 15-03-2003 16:29:13 13.2 C 3.33 g/m*3 13.2 C 0 km/h
1052 15-03-2003 16:41:13 13.1 C 3.42 g/m*3 13.1 C 0 km/h
1053 15-03-2003 16:53:13 13.3 C 3.47 g/m*3 13.3 C 0 km/h
1054 15-03-2003 17:05:14 12.7 C 3.56 g/m*3 12.7 C 0 km/h
1055 15-03-2003 17:17:14 12.4 C 3.61 g/m*3 12.4 C 0 km/h
1056 15-03-2003 17:29:14 12.1 C 3.43 g/m*3 12.1 C 0 km/h
1057 15-03-2003 17:41:14 11.5 C 3.51 g/m*3 11.5 C 0 km/h
1058 15-03-2003 17:53:14 11.1 C 3.53 g/m*3 11.1 C 0 km/h
1059 15-03-2003 18:05:13 10.5 C 3.69 g/m*3 10.5 C 0 km/h
1060 15-03-2003 18:17:13 9.7 C 3.78 g/m*3 9.7 C 0 km/h
1061 15-03-2003 18:29:13 9 C 3.88 g/m*3 9 C 0 km/h
1062 15-03-2003 18:41:13 8.3 C 3.88 g/m*3 8.3 C 0 km/h
1063 15-03-2003 18:53:13 7.7 C 3.97 g/m*3 7.7 C 0 km/h
1064 15-03-2003 19:05:14 7.3 C 3.95 g/m*3 7.3 C 0 km/h
1065 15-03-2003 19:17:14 6.9 C 4 g/m*3 6.9 C 0 km/h
1066 15-03-2003 19:29:14 6.5 C 3.97 g/m*3 6.5 C 0 km/h
1067 15-03-2003 19:41:14 6.2 C 4.04 g/m*3 6.2 C 0 km/h
1068 15-03-2003 19:53:14 6 C 4.06 g/m*3 6 C 0 km/h
1069 15-03-2003 20:05:14 5.6 C 4.1 g/m*3 5.6 C 0 km/h
1070 15-03-2003 20:17:14 5.6 C 4.17 g/m*3 5.6 C 0 km/h
1071 15-03-2003 20:29:14 5.3 C 4.09 g/m*3 5.3 C 0 km/h
1072 15-03-2003 20:41:14 5.1 C 4.04 g/m*3 5.1 C 0 km/h
1073 15-03-2003 20:53:14 5 C 4.08 g/m*3 5 C 0 km/h
1074 15-03-2003 21:06:12 4.7 C 4.06 g/m*3 4.7 C 0 km/h
1075 15-03-2003 21:18:12 4.5 C 4.01 g/m*3 4.5 C 0 km/h
Sensor: Nr:Datum:Temp:Abs-Feuchte:Windchill:Wind:
Aussen-T/F 1076 15-03-2003 21:30:12 4.4 C 4.05 g/m*3 4.4 C 0 km/h
1077 15-03-2003 21:42:12 4.2 C 3.99 g/m*3 4.2 C 0 km/h
1078 15-03-2003 21:54:12 3.9 C 3.98 g/m*3 3.9 C 0 km/h
1079 15-03-2003 22:06:12 3.6 C 3.96 g/m*3 3.6 C 0 km/h
1080 15-03-2003 22:18:12 3.4 C 3.97 g/m*3 3.4 C 0 km/h
1081 15-03-2003 22:30:12 3.1 C 3.83 g/m*3 3.1 C 0 km/h
1082 15-03-2003 22:42:12 3.1 C 3.77 g/m*3 3.1 C 0 km/h
1083 15-03-2003 22:54:12 3 C 3.75 g/m*3 3 C 0 km/h
1084 15-03-2003 23:06:12 2.6 C 3.7 g/m*3 2.6 C 0 km/h
1085 15-03-2003 23:18:12 2.4 C 3.71 g/m*3 2.4 C 0 km/h
1086 15-03-2003 23:30:12 2.2 C 3.66 g/m*3 2.2 C 0 km/h
1087 15-03-2003 23:42:12 2 C 3.61 g/m*3 2 C 0 km/h
1088 15-03-2003 23:54:12 2 C 3.61 g/m*3 2 C 0 km/h
1089 16-03-2003 00:06:12 2 C 3.61 g/m*3 2 C 0 km/h
1090 16-03-2003 00:18:12 1.9 C 3.64 g/m*3 1.9 C 0 km/h
1091 16-03-2003 00:30:12 1.8 C 3.62 g/m*3 1.8 C 0 km/h
1092 16-03-2003 00:42:12 2 C 3.61 g/m*3 2 C 0 km/h
1093 16-03-2003 00:54:12 2 C 3.61 g/m*3 2 C 0 km/h
1094 16-03-2003 01:06:12 1.7 C 3.65 g/m*3 1.7 C 0 km/h
1095 16-03-2003 01:18:12 1.5 C 3.6 g/m*3 1.5 C 0 km/h
1096 16-03-2003 01:30:12 1.1 C 3.61 g/m*3 1.1 C 0 km/h
1097 16-03-2003 01:42:12 0.9 C 3.66 g/m*3 0.9 C 0 km/h
1098 16-03-2003 01:54:12 0.6 C 3.64 g/m*3 0.6 C 0 km/h
1099 16-03-2003 02:06:12 0.3 C 3.56 g/m*3 0.3 C 0 km/h
1100 16-03-2003 02:18:12 0.2 C 3.64 g/m*3 0.2 C 0 km/h
Sensor: Nr:Datum:Temp:Abs-Feuchte:Windchill:Wind:
Aussen-T/F 1101 16-03-2003 02:30:12 0.1 C 3.61 g/m*3 0.1 C 0 km/h
1102 16-03-2003 02:42:12 -0.2 C 3.54 g/m*3 -0.2 C 0 km/h
1103 16-03-2003 02:54:12 -0.3 C 3.56 g/m*3 -0.3 C 0 km/h
1104 16-03-2003 03:06:12 -0.5 C 3.51 g/m*3 -0.5 C 0 km/h
1105 16-03-2003 03:18:12 -0.4 C 3.53 g/m*3 -0.4 C 0 km/h
1106 16-03-2003 03:30:12 -0.5 C 3.51 g/m*3 -0.5 C 0 km/h
1107 16-03-2003 03:42:12 -0.7 C 3.51 g/m*3 -0.7 C 0 km/h
1108 16-03-2003 03:54:12 -0.9 C 3.46 g/m*3 -0.9 C 0 km/h
1109 16-03-2003 04:06:12 -1.1 C 3.46 g/m*3 -1.1 C 0 km/h
1110 16-03-2003 04:18:12 -1.4 C 3.39 g/m*3 -1.4 C 0 km/h
1111 16-03-2003 04:30:12 -1.5 C 3.32 g/m*3 -1.5 C 0 km/h
1112 16-03-2003 04:42:12 -1.5 C 3.36 g/m*3 -1.5 C 0 km/h
1113 16-03-2003 04:54:12 -1.6 C 3.34 g/m*3 -1.6 C 0 km/h
1114 16-03-2003 05:06:12 -1.6 C 3.38 g/m*3 -1.6 C 0 km/h
1115 16-03-2003 05:18:12 -1.7 C 3.4 g/m*3 -1.7 C 0 km/h
1116 16-03-2003 05:30:12 -1.9 C 3.31 g/m*3 -1.9 C 0 km/h
1117 16-03-2003 05:42:12 -1.9 C 3.35 g/m*3 -1.9 C 0 km/h
1118 16-03-2003 05:54:12 -2 C 3.37 g/m*3 -2 C 0 km/h
1119 16-03-2003 06:06:12 -1.9 C 3.4 g/m*3 -1.9 C 0 km/h
1120 16-03-2003 06:18:12 -2 C 3.37 g/m*3 -2 C 0 km/h
1121 16-03-2003 06:30:12 -1.9 C 3.44 g/m*3 -1.9 C 0 km/h
1122 16-03-2003 06:42:12 -2 C 3.41 g/m*3 -2 C 0 km/h
1123 16-03-2003 06:54:12 -2.1 C 3.39 g/m*3 -2.1 C 0 km/h
1124 16-03-2003 07:06:12 -2.1 C 3.39 g/m*3 -2.1 C 0 km/h
1125 16-03-2003 07:18:12 -2.1 C 3.39 g/m*3 -2.1 C 0 km/h
Sensor: Nr:Datum:Temp:Abs-Feuchte:Windchill:Wind:
Aussen-T/F 1126 16-03-2003 07:30:12 -2 C 3.46 g/m*3 -2 C 0 km/h
1127 16-03-2003 07:42:12 -2.1 C 3.39 g/m*3 -2.1 C 0 km/h
1128 16-03-2003 07:54:12 -1.9 C 3.48 g/m*3 -1.9 C 0 km/h
1129 16-03-2003 08:06:12 -1.9 C 3.48 g/m*3 -1.9 C 0 km/h
1130 16-03-2003 08:18:12 -1.7 C 3.53 g/m*3 -1.7 C 0 km/h
1131 16-03-2003 08:30:12 -1.5 C 3.58 g/m*3 -1.5 C 0 km/h
1132 16-03-2003 08:42:12 -1.4 C 3.6 g/m*3 -1.4 C 0 km/h
1133 16-03-2003 08:54:12 -1.1 C 3.68 g/m*3 -1.1 C 0 km/h
1134 16-03-2003 09:06:12 -0.8 C 3.71 g/m*3 -0.8 C 0 km/h
1135 16-03-2003 09:18:12 0.1 C 3.9 g/m*3 0.1 C 0 km/h
1136 16-03-2003 09:30:12 0.8 C 3.94 g/m*3 0.8 C 0 km/h
1137 16-03-2003 09:42:12 1.8 C 4.11 g/m*3 1.8 C 0 km/h
1138 16-03-2003 09:54:12 2.7 C 4.08 g/m*3 2.7 C 0 km/h
1139 16-03-2003 10:06:14 3.4 C 4.03 g/m*3 3.4 C 0 km/h
1140 16-03-2003 10:18:14 4.3 C 4.15 g/m*3 4.3 C 0 km/h
1141 16-03-2003 10:30:14 4.9 C 4.12 g/m*3 4.9 C 0 km/h
1142 16-03-2003 10:42:14 5.7 C 3.91 g/m*3 5.7 C 0 km/h
1143 16-03-2003 10:54:14 6.5 C 3.75 g/m*3 6.5 C 0 km/h
1144 16-03-2003 11:06:13 7.2 C 3.69 g/m*3 7.2 C 0 km/h
1145 16-03-2003 11:18:13 7.8 C 3.51 g/m*3 7.8 C 0 km/h
1146 16-03-2003 11:30:13 8.2 C 3.43 g/m*3 8.2 C 0 km/h
1147 16-03-2003 11:42:13 8.8 C 3.57 g/m*3 8.8 C 0 km/h
1148 16-03-2003 11:54:13 9.2 C 3.39 g/m*3 9.2 C 0 km/h
1149 16-03-2003 12:06:13 9.8 C 3.34 g/m*3 9.8 C 0 km/h
1150 16-03-2003 12:18:13 10.7 C 3.44 g/m*3 10.7 C 0 km/h
Sensor: Nr:Datum:Temp:Abs-Feuchte:Windchill:Wind:
Aussen-T/F 1151 16-03-2003 12:30:13 11.2 C 3.34 g/m*3 11.2 C 0 km/h
1152 16-03-2003 12:42:13 11 C 3.1 g/m*3 11 C 0 km/h
1153 16-03-2003 12:54:13 11.7 C 3.35 g/m*3 11.7 C 0 km/h
1154 16-03-2003 13:06:13 11.8 C 3.47 g/m*3 11.8 C 0 km/h
1155 16-03-2003 13:18:13 12 C 3.52 g/m*3 12 C 0 km/h
1156 16-03-2003 13:30:13 12 C 3.41 g/m*3 12 C 0 km/h
1157 16-03-2003 13:42:13 12.5 C 3.63 g/m*3 12.5 C 0 km/h
1158 16-03-2003 13:54:13 13 C 3.52 g/m*3 13 C 0 km/h
1159 16-03-2003 14:06:13 13.4 C 3.49 g/m*3 13.4 C 0 km/h
1160 16-03-2003 14:18:13 13.9 C 3.48 g/m*3 13.9 C 0 km/h
1161 16-03-2003 14:30:13 14.2 C 3.42 g/m*3 14.2 C 0 km/h
1162 16-03-2003 14:42:13 14.4 C 3.46 g/m*3 14.4 C 0 km/h
1163 16-03-2003 14:54:13 14.8 C 3.42 g/m*3 14.8 C 0 km/h
1164 16-03-2003 15:06:14 15.2 C 3.24 g/m*3 15.2 C 0 km/h
1165 16-03-2003 15:18:14 15.9 C 3.39 g/m*3 15.9 C 0 km/h
1166 16-03-2003 15:30:14 16 C 3.41 g/m*3 16 C 0 km/h
1167 16-03-2003 15:42:14 16 C 3.27 g/m*3 16 C 0 km/h
1168 16-03-2003 15:54:14 16.4 C 3.49 g/m*3 16.4 C 0 km/h
1169 16-03-2003 16:06:13 16.2 C 3.03 g/m*3 16.2 C 0 km/h
1170 16-03-2003 16:18:13 16.4 C 3.35 g/m*3 16.4 C 0 km/h
1171 16-03-2003 16:30:13 16.5 C 3.23 g/m*3 16.5 C 0 km/h
1172 16-03-2003 16:42:13 16.1 C 3.02 g/m*3 16.1 C 0 km/h
1173 16-03-2003 16:54:13 16.4 C 3.49 g/m*3 16.4 C 0 km/h
1174 16-03-2003 17:06:13 16.1 C 3.43 g/m*3 16.1 C 0 km/h
1175 16-03-2003 17:18:13 16 C 3.41 g/m*3 16 C 0 km/h
Sensor: Nr:Datum:Temp:Abs-Feuchte:Windchill:Wind:
Aussen-T/F 1176 16-03-2003 17:30:13 16 C 3.81 g/m*3 16 C 0 km/h
1177 16-03-2003 17:42:13 15.3 C 3.4 g/m*3 15.3 C 0 km/h
1178 16-03-2003 17:54:13 14.8 C 3.8 g/m*3 14.8 C 0 km/h
1179 16-03-2003 18:06:13 13.8 C 3.93 g/m*3 13.8 C 0 km/h
1180 16-03-2003 18:18:13 13 C 3.97 g/m*3 13 C 0 km/h
1181 16-03-2003 18:30:13 11.4 C 4.11 g/m*3 11.4 C 0 km/h
1182 16-03-2003 18:42:13 10.1 C 3.97 g/m*3 10.1 C 0 km/h
1183 16-03-2003 18:54:13 9.7 C 3.96 g/m*3 9.7 C 0 km/h
1184 16-03-2003 19:06:13 9.2 C 4.02 g/m*3 9.2 C 0 km/h
1185 16-03-2003 19:18:13 8.5 C 4.1 g/m*3 8.5 C 0 km/h
1186 16-03-2003 19:30:13 8.1 C 3.99 g/m*3 8.1 C 0 km/h
1187 16-03-2003 19:43:14 7.6 C 4.11 g/m*3 7.6 C 0 km/h
1188 16-03-2003 19:55:14 7.3 C 4.11 g/m*3 7.3 C 0 km/h
1189 16-03-2003 20:07:14 7 C 4.26 g/m*3 7 C 0 km/h
1190 16-03-2003 20:19:14 6.7 C 4.26 g/m*3 6.7 C 0 km/h
1191 16-03-2003 20:31:14 6.5 C 4.2 g/m*3 6.5 C 0 km/h
1192 16-03-2003 20:43:14 6.3 C 4.22 g/m*3 6.3 C 0 km/h
1193 16-03-2003 20:55:14 6 C 4.21 g/m*3 6 C 0 km/h
1194 16-03-2003 21:07:14 5.8 C 4.3 g/m*3 5.8 C 0 km/h
1195 16-03-2003 21:19:14 5.4 C 4.19 g/m*3 5.4 C 0 km/h
1196 16-03-2003 21:31:14 5.1 C 4.24 g/m*3 5.1 C 0 km/h
1197 16-03-2003 21:43:14 4.9 C 4.25 g/m*3 4.9 C 0 km/h
1198 16-03-2003 21:55:14 4.5 C 4.21 g/m*3 4.5 C 0 km/h
1199 16-03-2003 22:07:14 4.2 C 4.19 g/m*3 4.2 C 0 km/h
1200 16-03-2003 22:19:14 3.7 C 4.18 g/m*3 3.7 C 0 km/h
Sensor: Nr:Datum:Temp:Abs-Feuchte:Windchill:Wind:
Aussen-T/F 1201 16-03-2003 22:31:14 3.8 C 4.33 g/m*3 3.8 C 0 km/h
1202 16-03-2003 22:43:14 3.6 C 4.27 g/m*3 3.6 C 0 km/h
1203 16-03-2003 22:55:14 3.4 C 4.28 g/m*3 3.4 C 0 km/h
1204 16-03-2003 23:07:14 3.4 C 4.28 g/m*3 3.4 C 0 km/h
1205 16-03-2003 23:19:14 3.2 C 4.22 g/m*3 3.2 C 0 km/h
1206 16-03-2003 23:31:14 3 C 4.22 g/m*3 3 C 0 km/h
1207 16-03-2003 23:43:14 3 C 4.16 g/m*3 3 C 0 km/h
1208 16-03-2003 23:55:14 2.7 C 4.14 g/m*3 2.7 C 0 km/h
1209 17-03-2003 00:07:14 2.5 C 4.14 g/m*3 2.5 C 0 km/h
1210 17-03-2003 00:19:14 2.3 C 4.14 g/m*3 2.3 C 0 km/h
1211 17-03-2003 00:31:14 2.2 C 4.11 g/m*3 2.2 C 0 km/h
1212 17-03-2003 00:43:14 1.9 C 4.14 g/m*3 1.9 C 0 km/h
1213 17-03-2003 00:55:14 1.6 C 4.06 g/m*3 1.6 C 0 km/h
1214 17-03-2003 01:07:14 1.4 C 4.05 g/m*3 1.4 C 0 km/h
1215 17-03-2003 01:19:14 1.2 C 4.05 g/m*3 1.2 C 0 km/h
1216 17-03-2003 01:31:14 1.1 C 4.08 g/m*3 1.1 C 0 km/h
1217 17-03-2003 01:43:14 0.9 C 4.07 g/m*3 0.9 C 0 km/h
1218 17-03-2003 01:55:14 0.8 C 4.04 g/m*3 0.8 C 0 km/h
1219 17-03-2003 02:07:14 0.7 C 4.02 g/m*3 0.7 C 0 km/h
1220 17-03-2003 02:19:14 0.6 C 4.04 g/m*3 0.6 C 0 km/h
1221 17-03-2003 02:31:14 0.5 C 4.11 g/m*3 0.5 C 0 km/h
1222 17-03-2003 02:43:14 0.2 C 4.03 g/m*3 0.2 C 0 km/h
1223 17-03-2003 02:55:14 0.1 C 4 g/m*3 0.1 C 0 km/h
1224 17-03-2003 03:07:14 -0.1 C 3.95 g/m*3 -0.1 C 0 km/h
1225 17-03-2003 03:19:14 0.1 C 4.05 g/m*3 0.1 C 0 km/h
Sensor: Nr:Datum:Temp:Abs-Feuchte:Windchill:Wind:
Aussen-T/F 1226 17-03-2003 03:31:14 -0.4 C 3.91 g/m*3 -0.4 C 0 km/h
1227 17-03-2003 03:43:14 -0.3 C 3.94 g/m*3 -0.3 C 0 km/h
1228 17-03-2003 03:55:14 -0.3 C 3.94 g/m*3 -0.3 C 0 km/h
1229 17-03-2003 04:07:14 -0.2 C 4.01 g/m*3 -0.2 C 0 km/h
1230 17-03-2003 04:19:14 -0.3 C 3.99 g/m*3 -0.3 C 0 km/h
1231 17-03-2003 04:31:14 -0.3 C 3.99 g/m*3 -0.3 C 0 km/h
1232 17-03-2003 04:43:14 -0.5 C 3.88 g/m*3 -0.5 C 0 km/h
1233 17-03-2003 04:55:14 -0.6 C 3.9 g/m*3 -0.6 C 0 km/h
1234 17-03-2003 05:19:14 -0.6 C 3.95 g/m*3 -0.6 C 0 km/h
1235 17-03-2003 05:31:14 -0.9 C 3.87 g/m*3 -0.9 C 0 km/h
1236 17-03-2003 05:43:14 -1 C 3.8 g/m*3 -1 C 0 km/h
1237 17-03-2003 05:55:14 -1.1 C 3.82 g/m*3 -1.1 C 0 km/h
1238 17-03-2003 06:07:14 -1.2 C 3.83 g/m*3 -1.2 C 0 km/h
1239 17-03-2003 06:19:14 -1.2 C 3.79 g/m*3 -1.2 C 0 km/h
1240 17-03-2003 06:31:14 -1.2 C 3.83 g/m*3 -1.2 C 0 km/h
1241 17-03-2003 06:43:14 -1.1 C 3.86 g/m*3 -1.1 C 0 km/h
1242 17-03-2003 06:55:14 -1 C 3.93 g/m*3 -1 C 0 km/h
1243 17-03-2003 07:07:14 -1.1 C 3.91 g/m*3 -1.1 C 0 km/h
1244 17-03-2003 07:19:14 -1.1 C 3.91 g/m*3 -1.1 C 0 km/h
1245 17-03-2003 07:31:14 -0.9 C 3.91 g/m*3 -0.9 C 0 km/h
1246 17-03-2003 07:43:14 -0.7 C 3.97 g/m*3 -0.7 C 0 km/h
1247 17-03-2003 07:55:14 -0.5 C 3.98 g/m*3 -0.5 C 0 km/h
1248 17-03-2003 08:07:14 -0.3 C 3.99 g/m*3 -0.3 C 0 km/h
1249 17-03-2003 08:19:14 -0.1 C 4.04 g/m*3 -0.1 C 0 km/h
1250 17-03-2003 08:31:14 0.2 C 4.03 g/m*3 0.2 C 0 km/h
Sensor: Nr:Datum:Temp:Abs-Feuchte:Windchill:Wind:
Aussen-T/F 1251 17-03-2003 08:43:14 0.3 C 4.06 g/m*3 0.3 C 0 km/h
1252 17-03-2003 08:55:14 0.5 C 4.11 g/m*3 0.5 C 0 km/h
1253 17-03-2003 09:07:15 0.8 C 4.15 g/m*3 0.8 C 0 km/h
1254 17-03-2003 09:19:15 1.1 C 4.13 g/m*3 1.1 C 0 km/h
1255 17-03-2003 09:31:15 1.6 C 4.22 g/m*3 1.6 C 0 km/h
1256 17-03-2003 09:43:14 1.6 C 4.16 g/m*3 1.6 C 0 km/h
1257 17-03-2003 09:55:14 2.6 C 4.4 g/m*3 2.6 C 0 km/h
1258 17-03-2003 10:07:15 3.5 C 4.43 g/m*3 3.5 C 0 km/h
1259 17-03-2003 10:19:15 4.2 C 4.38 g/m*3 4.2 C 0 km/h
1260 17-03-2003 10:31:15 4.7 C 4.46 g/m*3 4.7 C 0 km/h
1261 17-03-2003 10:43:14 5.2 C 4.41 g/m*3 5.2 C 0 km/h
1262 17-03-2003 10:55:14 6 C 4.5 g/m*3 6 C 0 km/h
1263 17-03-2003 11:07:15 6.5 C 4.35 g/m*3 6.5 C 0 km/h
1264 17-03-2003 11:19:15 6.5 C 4.35 g/m*3 6.5 C 0 km/h
1265 17-03-2003 11:31:15 7.2 C 4.47 g/m*3 7.2 C 0 km/h
1266 17-03-2003 11:43:15 8.5 C 4.61 g/m*3 8.5 C 0 km/h
1267 17-03-2003 11:55:15 9 C 4.41 g/m*3 9 C 0 km/h
1268 17-03-2003 11:56:15 9 C 4.41 g/m*3 9 C 0 km/h
1269 17-03-2003 12:07:14 10.2 C 4.28 g/m*3 10.2 C 0 km/h
1270 17-03-2003 12:08:15 10.2 C 4.28 g/m*3 10.2 C 0 km/h
1271 17-03-2003 12:19:14 10.4 C 4.24 g/m*3 10.4 C 0 km/h
1272 17-03-2003 12:20:15 10.4 C 4.24 g/m*3 10.4 C 0 km/h
1273 17-03-2003 12:31:14 11.2 C 4.16 g/m*3 11.2 C 0 km/h
1274 17-03-2003 12:32:15 11.2 C 4.16 g/m*3 11.2 C 0 km/h
1275 17-03-2003 12:43:14 11.3 C 4.08 g/m*3 11.3 C 0 km/h
Sensor: Nr:Datum:Temp:Abs-Feuchte:Windchill:Wind:
Aussen-T/F 1276 17-03-2003 12:44:15 11.3 C 4.08 g/m*3 11.3 C 0 km/h
1277 17-03-2003 12:55:14 11.5 C 4.03 g/m*3 11.5 C 0 km/h
1278 17-03-2003 12:56:15 11.5 C 4.03 g/m*3 11.5 C 0 km/h
1279 17-03-2003 13:07:14 10.8 C 3.95 g/m*3 10.8 C 0 km/h
1280 17-03-2003 13:08:15 10.8 C 3.95 g/m*3 10.8 C 0 km/h
1281 17-03-2003 13:19:14 11.4 C 3.9 g/m*3 11.4 C 0 km/h
1282 17-03-2003 13:20:15 11.4 C 3.9 g/m*3 11.4 C 0 km/h
1283 17-03-2003 13:31:14 11.8 C 3.68 g/m*3 11.8 C 0 km/h
1284 17-03-2003 13:32:15 11.8 C 3.68 g/m*3 11.8 C 0 km/h
1285 17-03-2003 13:43:13 12.4 C 3.71 g/m*3 12.4 C 0 km/h
1286 17-03-2003 13:44:15 12.4 C 3.71 g/m*3 12.4 C 0 km/h
1287 17-03-2003 13:55:13 13.1 C 3.65 g/m*3 13.1 C 0 km/h
1288 17-03-2003 13:56:15 13.1 C 3.65 g/m*3 13.1 C 0 km/h
1289 17-03-2003 14:07:14 13.2 C 2.99 g/m*3 13.2 C 0 km/h
1290 17-03-2003 14:08:15 13.2 C 2.99 g/m*3 13.2 C 0 km/h
1291 17-03-2003 14:19:14 13.7 C 3.08 g/m*3 13.7 C 0 km/h
1292 17-03-2003 14:20:15 13.7 C 3.08 g/m*3 13.7 C 0 km/h
1293 17-03-2003 14:31:14 14.2 C 3.17 g/m*3 14.2 C 0 km/h
1294 17-03-2003 14:32:15 14.2 C 3.17 g/m*3 14.2 C 0 km/h
1295 17-03-2003 14:43:14 14.7 C 3.27 g/m*3 14.7 C 0 km/h
1296 17-03-2003 14:44:15 14.7 C 3.27 g/m*3 14.7 C 0 km/h
1297 17-03-2003 14:55:14 14.2 C 3.17 g/m*3 14.2 C 0 km/h
1298 17-03-2003 14:56:15 14.2 C 3.17 g/m*3 14.2 C 0 km/h
1299 17-03-2003 15:07:14 14.5 C 3.23 g/m*3 14.5 C 0 km/h
1300 17-03-2003 15:08:15 14.5 C 3.23 g/m*3 14.5 C 0 km/h
Sensor: Nr:Datum:Temp:Abs-Feuchte:Windchill:Wind:
Aussen-T/F 1301 17-03-2003 15:19:14 14.7 C 3.27 g/m*3 14.7 C 0 km/h
1302 17-03-2003 15:20:15 14.7 C 3.27 g/m*3 14.7 C 0 km/h
1303 17-03-2003 15:31:14 15 C 2.95 g/m*3 15 C 0 km/h
1304 17-03-2003 15:32:15 15 C 2.95 g/m*3 15 C 0 km/h
1305 17-03-2003 15:43:14 14.5 C 2.61 g/m*3 14.5 C 0 km/h
1306 17-03-2003 15:44:15 14.5 C 2.61 g/m*3 14.5 C 0 km/h
1307 17-03-2003 15:55:14 15 C 2.82 g/m*3 15 C 0 km/h
1308 17-03-2003 15:56:15 15 C 2.82 g/m*3 15 C 0 km/h
1309 17-03-2003 16:07:13 14.5 C 2.98 g/m*3 14.5 C 0 km/h
1310 17-03-2003 16:08:15 14.5 C 2.98 g/m*3 14.5 C 0 km/h
1311 17-03-2003 16:19:13 14.3 C 2.95 g/m*3 14.3 C 0 km/h
1312 17-03-2003 16:20:15 14.3 C 2.95 g/m*3 14.3 C 0 km/h
1313 17-03-2003 16:31:13 14.4 C 3.09 g/m*3 14.4 C 0 km/h
1314 17-03-2003 16:32:15 14.4 C 3.09 g/m*3 14.4 C 0 km/h
1315 17-03-2003 16:43:14 14.4 C 3.09 g/m*3 14.4 C 0 km/h
1316 17-03-2003 16:44:15 14.4 C 3.09 g/m*3 14.4 C 0 km/h
1317 17-03-2003 16:55:14 14.3 C 3.07 g/m*3 14.3 C 0 km/h
1318 17-03-2003 16:56:15 14.3 C 3.07 g/m*3 14.3 C 0 km/h
1319 17-03-2003 17:07:15 13.5 C 3.16 g/m*3 13.5 C 0 km/h
1320 17-03-2003 17:08:15 13.5 C 3.16 g/m*3 13.5 C 0 km/h
1321 17-03-2003 17:19:15 13.5 C 3.04 g/m*3 13.5 C 0 km/h
1322 17-03-2003 17:20:15 13.5 C 3.04 g/m*3 13.5 C 0 km/h
1323 17-03-2003 17:31:15 13.1 C 2.97 g/m*3 13.1 C 0 km/h
1324 17-03-2003 17:32:15 13.1 C 2.97 g/m*3 13.1 C 0 km/h
1325 17-03-2003 17:43:15 12.7 C 3.34 g/m*3 12.7 C 0 km/h
Sensor: Nr:Datum:Temp:Abs-Feuchte:Windchill:Wind:
Aussen-T/F 1326 17-03-2003 17:44:15 12.7 C 3.34 g/m*3 12.7 C 0 km/h
1327 17-03-2003 17:55:15 11.7 C 3.87 g/m*3 11.7 C 0 km/h
1328 17-03-2003 17:56:15 11.7 C 3.87 g/m*3 11.7 C 0 km/h
1329 17-03-2003 18:07:14 10.8 C 4.15 g/m*3 10.8 C 0 km/h
1330 17-03-2003 18:08:15 10.8 C 4.15 g/m*3 10.8 C 0 km/h
1331 17-03-2003 18:19:14 10.2 C 4 g/m*3 10.2 C 0 km/h
1332 17-03-2003 18:20:15 10.2 C 4 g/m*3 10.2 C 0 km/h
1333 17-03-2003 18:31:14 9.7 C 4.15 g/m*3 9.7 C 0 km/h
1334 17-03-2003 18:32:15 9.7 C 4.15 g/m*3 9.7 C 0 km/h
1335 17-03-2003 18:43:15 9.2 C 4.02 g/m*3 9.2 C 0 km/h
1336 17-03-2003 18:44:15 9.2 C 4.02 g/m*3 9.2 C 0 km/h
1337 17-03-2003 18:55:15 8.9 C 4.29 g/m*3 8.9 C 0 km/h
1338 17-03-2003 18:56:15 8.9 C 4.29 g/m*3 8.9 C 0 km/h
1339 17-03-2003 19:07:14 8.4 C 4.24 g/m*3 8.4 C 0 km/h
1340 17-03-2003 19:08:15 8.4 C 4.24 g/m*3 8.4 C 0 km/h
1341 17-03-2003 19:19:14 7.9 C 4.52 g/m*3 7.9 C 0 km/h
1342 17-03-2003 19:20:15 7.9 C 4.52 g/m*3 7.9 C 0 km/h
1343 17-03-2003 19:31:14 7.4 C 4.45 g/m*3 7.4 C 0 km/h
1344 17-03-2003 19:32:15 7.4 C 4.45 g/m*3 7.4 C 0 km/h
1345 17-03-2003 19:43:14 7.1 C 4.45 g/m*3 7.1 C 0 km/h
1346 17-03-2003 19:44:15 7.1 C 4.45 g/m*3 7.1 C 0 km/h
1347 17-03-2003 19:55:14 6.8 C 4.44 g/m*3 6.8 C 0 km/h
1348 17-03-2003 19:56:15 6.8 C 4.44 g/m*3 6.8 C 0 km/h
1349 17-03-2003 20:07:14 6.2 C 4.41 g/m*3 6.2 C 0 km/h
1350 17-03-2003 20:08:15 6.2 C 4.41 g/m*3 6.2 C 0 km/h
Sensor: Nr:Datum:Temp:Abs-Feuchte:Windchill:Wind:
Aussen-T/F 1351 17-03-2003 20:19:14 5.5 C 4.21 g/m*3 5.5 C 0 km/h
1352 17-03-2003 20:20:15 5.5 C 4.21 g/m*3 5.5 C 0 km/h
1353 17-03-2003 20:31:14 4.9 C 4.25 g/m*3 4.9 C 0 km/h
1354 17-03-2003 20:32:15 4.9 C 4.25 g/m*3 4.9 C 0 km/h
1355 17-03-2003 20:44:14 4.5 C 4.21 g/m*3 4.5 C 0 km/h
1356 17-03-2003 20:44:15 4.5 C 4.21 g/m*3 4.5 C 0 km/h
1357 17-03-2003 20:56:14 4.1 C 4.16 g/m*3 4.1 C 0 km/h
1358 17-03-2003 20:56:15 4.1 C 4.16 g/m*3 4.1 C 0 km/h
1359 17-03-2003 21:08:14 3.9 C 4.17 g/m*3 3.9 C 0 km/h
1360 17-03-2003 21:08:15 3.9 C 4.17 g/m*3 3.9 C 0 km/h
1361 17-03-2003 21:20:14 3.6 C 4.09 g/m*3 3.6 C 0 km/h
1362 17-03-2003 21:20:15 3.6 C 4.09 g/m*3 3.6 C 0 km/h
1363 17-03-2003 21:32:14 3.3 C 4.13 g/m*3 3.3 C 0 km/h
1364 17-03-2003 21:32:15 3.3 C 4.13 g/m*3 3.3 C 0 km/h
1365 17-03-2003 21:44:14 3.4 C 4.15 g/m*3 3.4 C 0 km/h
1366 17-03-2003 21:44:15 3.4 C 4.15 g/m*3 3.4 C 0 km/h
1367 17-03-2003 21:56:14 3.4 C 4.09 g/m*3 3.4 C 0 km/h
1368 17-03-2003 21:56:15 3.4 C 4.09 g/m*3 3.4 C 0 km/h
1369 17-03-2003 22:08:14 3.3 C 4.13 g/m*3 3.3 C 0 km/h
1370 17-03-2003 22:08:15 3.3 C 4.13 g/m*3 3.3 C 0 km/h
1371 17-03-2003 22:20:14 3.5 C 4.18 g/m*3 3.5 C 0 km/h
1372 17-03-2003 22:20:15 3.5 C 4.18 g/m*3 3.5 C 0 km/h
1373 17-03-2003 22:32:14 3.8 C 4.2 g/m*3 3.8 C 0 km/h
1374 17-03-2003 22:32:15 3.8 C 4.2 g/m*3 3.8 C 0 km/h
1375 17-03-2003 22:44:14 3.7 C 4.18 g/m*3 3.7 C 0 km/h
Sensor: Nr:Datum:Temp:Abs-Feuchte:Windchill:Wind:
Aussen-T/F 1376 17-03-2003 22:44:15 3.7 C 4.18 g/m*3 3.7 C 0 km/h
1377 17-03-2003 22:56:14 2.9 C 4.02 g/m*3 2.9 C 0 km/h
1378 17-03-2003 22:56:15 2.9 C 4.02 g/m*3 2.9 C 0 km/h
1379 17-03-2003 23:08:14 2.7 C 4.08 g/m*3 2.7 C 0 km/h
1380 17-03-2003 23:08:15 2.7 C 4.08 g/m*3 2.7 C 0 km/h
1381 17-03-2003 23:20:14 2.8 C 4.16 g/m*3 2.8 C 0 km/h
1382 17-03-2003 23:20:15 2.8 C 4.16 g/m*3 2.8 C 0 km/h
1383 17-03-2003 23:32:14 2.7 C 4.14 g/m*3 2.7 C 0 km/h
1384 17-03-2003 23:32:15 2.7 C 4.14 g/m*3 2.7 C 0 km/h
1385 17-03-2003 23:44:14 2.4 C 4.05 g/m*3 2.4 C 0 km/h
1386 17-03-2003 23:44:15 2.4 C 4.05 g/m*3 2.4 C 0 km/h
1387 17-03-2003 23:56:14 2.2 C 4.06 g/m*3 2.2 C 0 km/h
1388 17-03-2003 23:56:15 2.2 C 4.06 g/m*3 2.2 C 0 km/h
1389 18-03-2003 00:08:14 2 C 4.06 g/m*3 2 C 0 km/h
1390 18-03-2003 00:08:15 2 C 4.06 g/m*3 2 C 0 km/h
1391 18-03-2003 00:20:14 1.7 C 4.03 g/m*3 1.7 C 0 km/h
1392 18-03-2003 00:20:15 1.7 C 4.03 g/m*3 1.7 C 0 km/h
1393 18-03-2003 00:32:14 1.2 C 3.95 g/m*3 1.2 C 0 km/h
1394 18-03-2003 00:32:15 1.2 C 3.95 g/m*3 1.2 C 0 km/h
1395 18-03-2003 00:44:14 1.2 C 4 g/m*3 1.2 C 0 km/h
1396 18-03-2003 00:44:15 1.2 C 4 g/m*3 1.2 C 0 km/h
1397 18-03-2003 00:56:14 1.2 C 4 g/m*3 1.2 C 0 km/h
1398 18-03-2003 00:56:15 1.2 C 4 g/m*3 1.2 C 0 km/h
1399 18-03-2003 01:08:14 0.9 C 3.97 g/m*3 0.9 C 0 km/h
1400 18-03-2003 01:08:15 0.9 C 3.97 g/m*3 0.9 C 0 km/h
Sensor: Nr:Datum:Temp:Abs-Feuchte:Windchill:Wind:
Aussen-T/F 1401 18-03-2003 01:20:14 0.7 C 3.97 g/m*3 0.7 C 0 km/h
1402 18-03-2003 01:20:15 0.7 C 3.97 g/m*3 0.7 C 0 km/h
1403 18-03-2003 01:32:14 0.5 C 3.96 g/m*3 0.5 C 0 km/h
1404 18-03-2003 01:32:15 0.5 C 3.96 g/m*3 0.5 C 0 km/h
1405 18-03-2003 01:44:14 0.5 C 4.01 g/m*3 0.5 C 0 km/h
1406 18-03-2003 01:44:15 0.5 C 4.01 g/m*3 0.5 C 0 km/h
1407 18-03-2003 01:56:14 0.3 C 3.96 g/m*3 0.3 C 0 km/h
1408 18-03-2003 01:56:15 0.3 C 3.96 g/m*3 0.3 C 0 km/h
1409 18-03-2003 02:08:14 0.2 C 3.93 g/m*3 0.2 C 0 km/h
1410 18-03-2003 02:08:15 0.2 C 3.93 g/m*3 0.2 C 0 km/h
1411 18-03-2003 02:20:14 0.2 C 3.98 g/m*3 0.2 C 0 km/h
1412 18-03-2003 02:20:15 0.2 C 3.98 g/m*3 0.2 C 0 km/h
1413 18-03-2003 02:32:14 0 C 3.92 g/m*3 0 C 0 km/h
1414 18-03-2003 02:32:15 0 C 3.92 g/m*3 0 C 0 km/h
1415 18-03-2003 02:44:14 0 C 3.97 g/m*3 0 C 0 km/h
1416 18-03-2003 02:44:15 0 C 3.97 g/m*3 0 C 0 km/h
1417 18-03-2003 02:56:14 -0.3 C 3.89 g/m*3 -0.3 C 0 km/h
1418 18-03-2003 02:56:15 -0.3 C 3.89 g/m*3 -0.3 C 0 km/h
1419 18-03-2003 03:08:14 -0.5 C 3.84 g/m*3 -0.5 C 0 km/h
1420 18-03-2003 03:08:15 -0.5 C 3.84 g/m*3 -0.5 C 0 km/h
1421 18-03-2003 03:20:14 -0.4 C 3.91 g/m*3 -0.4 C 0 km/h
1422 18-03-2003 03:20:15 -0.4 C 3.91 g/m*3 -0.4 C 0 km/h
1423 18-03-2003 03:32:14 -0.4 C 3.96 g/m*3 -0.4 C 0 km/h
1424 18-03-2003 03:32:15 -0.4 C 3.96 g/m*3 -0.4 C 0 km/h
1425 18-03-2003 03:44:14 -0.6 C 3.9 g/m*3 -0.6 C 0 km/h
Sensor: Nr:Datum:Temp:Abs-Feuchte:Windchill:Wind:
Aussen-T/F 1426 18-03-2003 03:44:15 -0.6 C 3.9 g/m*3 -0.6 C 0 km/h
1427 18-03-2003 03:56:14 -0.6 C 3.9 g/m*3 -0.6 C 0 km/h
1428 18-03-2003 03:56:15 -0.6 C 3.9 g/m*3 -0.6 C 0 km/h
1429 18-03-2003 04:08:14 -0.7 C 3.88 g/m*3 -0.7 C 0 km/h
1430 18-03-2003 04:08:15 -0.7 C 3.88 g/m*3 -0.7 C 0 km/h
1431 18-03-2003 04:20:14 -1 C 3.8 g/m*3 -1 C 0 km/h
1432 18-03-2003 04:20:15 -1 C 3.8 g/m*3 -1 C 0 km/h
1433 18-03-2003 04:32:14 -1.1 C 3.82 g/m*3 -1.1 C 0 km/h
1434 18-03-2003 04:32:15 -1.1 C 3.82 g/m*3 -1.1 C 0 km/h
1435 18-03-2003 04:44:14 -1.3 C 3.76 g/m*3 -1.3 C 0 km/h
1436 18-03-2003 04:44:15 -1.3 C 3.76 g/m*3 -1.3 C 0 km/h
1437 18-03-2003 04:56:14 -1.5 C 3.71 g/m*3 -1.5 C 0 km/h
1438 18-03-2003 04:56:15 -1.5 C 3.71 g/m*3 -1.5 C 0 km/h
1439 18-03-2003 05:08:14 -1.8 C 3.63 g/m*3 -1.8 C 0 km/h
1440 18-03-2003 05:08:15 -1.8 C 3.63 g/m*3 -1.8 C 0 km/h
1441 18-03-2003 05:20:14 -1.7 C 3.66 g/m*3 -1.7 C 0 km/h
1442 18-03-2003 05:32:14 -1.7 C 3.7 g/m*3 -1.7 C 0 km/h
1443 18-03-2003 05:44:14 -1.6 C 3.73 g/m*3 -1.6 C 0 km/h
1444 18-03-2003 05:56:14 -1.8 C 3.68 g/m*3 -1.8 C 0 km/h
1445 18-03-2003 06:08:14 -1.8 C 3.68 g/m*3 -1.8 C 0 km/h
1446 18-03-2003 06:20:14 -1.8 C 3.72 g/m*3 -1.8 C 0 km/h
1447 18-03-2003 06:32:14 -1.8 C 3.72 g/m*3 -1.8 C 0 km/h
1448 18-03-2003 06:44:14 -1.8 C 3.72 g/m*3 -1.8 C 0 km/h
1449 18-03-2003 06:56:14 -1.8 C 3.72 g/m*3 -1.8 C 0 km/h
1450 18-03-2003 07:08:14 -1.9 C 3.69 g/m*3 -1.9 C 0 km/h
Sensor: Nr:Datum:Temp:Abs-Feuchte:Windchill:Wind:
Aussen-T/F 1451 18-03-2003 07:20:14 -1.7 C 3.79 g/m*3 -1.7 C 0 km/h
1452 18-03-2003 07:32:14 -1.6 C 3.81 g/m*3 -1.6 C 0 km/h
1453 18-03-2003 07:44:14 -1.5 C 3.84 g/m*3 -1.5 C 0 km/h
1454 18-03-2003 07:56:14 -1.4 C 3.87 g/m*3 -1.4 C 0 km/h
1455 18-03-2003 08:08:14 -1.2 C 3.92 g/m*3 -1.2 C 0 km/h
1456 18-03-2003 08:20:14 -1 C 3.98 g/m*3 -1 C 0 km/h
1457 18-03-2003 08:32:15 -0.8 C 4.03 g/m*3 -0.8 C 0 km/h
1458 18-03-2003 08:44:15 -0.6 C 4.09 g/m*3 -0.6 C 0 km/h
1459 18-03-2003 08:56:15 -0.3 C 4.18 g/m*3 -0.3 C 0 km/h
1460 18-03-2003 09:08:14 0.2 C 4.32 g/m*3 0.2 C 0 km/h
1461 18-03-2003 09:20:14 0.7 C 4.42 g/m*3 0.7 C 0 km/h
1462 18-03-2003 09:32:14 1.3 C 4.5 g/m*3 1.3 C 0 km/h
1463 18-03-2003 09:44:14 1.9 C 4.69 g/m*3 1.9 C 0 km/h
1464 18-03-2003 09:56:14 2.6 C 4.8 g/m*3 2.6 C 0 km/h
1465 18-03-2003 10:08:14 3.5 C 4.86 g/m*3 3.5 C 0 km/h
1466 18-03-2003 10:20:14 4.1 C 4.74 g/m*3 4.1 C 0 km/h
1467 18-03-2003 10:32:14 4.8 C 4.76 g/m*3 4.8 C 0 km/h
1468 18-03-2003 10:44:14 5.6 C 4.81 g/m*3 5.6 C 0 km/h
1469 18-03-2003 10:56:14 6.4 C 4.77 g/m*3 6.4 C 0 km/h
1470 18-03-2003 11:08:14 7 C 4.65 g/m*3 7 C 0 km/h
1471 18-03-2003 11:20:14 7.8 C 4.65 g/m*3 7.8 C 0 km/h
1472 18-03-2003 11:32:15 8.4 C 4.58 g/m*3 8.4 C 0 km/h
1473 18-03-2003 11:44:15 8.9 C 4.56 g/m*3 8.9 C 0 km/h
1474 18-03-2003 11:56:15 9.4 C 4.43 g/m*3 9.4 C 0 km/h
1475 18-03-2003 12:08:14 10.1 C 4.35 g/m*3 10.1 C 0 km/h
Sensor: Nr:Datum:Temp:Abs-Feuchte:Windchill:Wind:
Aussen-T/F 1476 18-03-2003 12:20:14 11.1 C 4.33 g/m*3 11.1 C 0 km/h
1477 18-03-2003 12:32:14 11.5 C 4.23 g/m*3 11.5 C 0 km/h
1478 18-03-2003 12:44:14 11.7 C 4.18 g/m*3 11.7 C 0 km/h
1479 18-03-2003 12:56:14 12.2 C 4.1 g/m*3 12.2 C 0 km/h
1480 18-03-2003 13:08:14 12.4 C 4.04 g/m*3 12.4 C 0 km/h
1481 18-03-2003 13:20:14 12.9 C 4.06 g/m*3 12.9 C 0 km/h
1482 18-03-2003 13:32:14 13.5 C 4.09 g/m*3 13.5 C 0 km/h
1483 18-03-2003 13:44:14 13.7 C 4.03 g/m*3 13.7 C 0 km/h
1484 18-03-2003 13:56:14 14.2 C 3.91 g/m*3 14.2 C 0 km/h
1485 18-03-2003 14:08:14 14.8 C 3.93 g/m*3 14.8 C 0 km/h
1486 18-03-2003 14:20:14 15.3 C 3.92 g/m*3 15.3 C 0 km/h
1487 18-03-2003 14:32:14 15.7 C 3.88 g/m*3 15.7 C 0 km/h
1488 18-03-2003 14:44:14 16.1 C 3.7 g/m*3 16.1 C 0 km/h
1489 18-03-2003 14:56:14 16.5 C 3.65 g/m*3 16.5 C 0 km/h
1490 18-03-2003 15:08:14 16.1 C 3.02 g/m*3 16.1 C 0 km/h
1491 18-03-2003 15:20:14 16.9 C 3.31 g/m*3 16.9 C 0 km/h
1492 18-03-2003 15:32:15 17.3 C 3.24 g/m*3 17.3 C 0 km/h
1493 18-03-2003 15:44:15 17.4 C 2.96 g/m*3 17.4 C 0 km/h
1494 18-03-2003 15:56:15 17.6 C 3 g/m*3 17.6 C 0 km/h
1495 18-03-2003 16:08:14 18.1 C 3.09 g/m*3 18.1 C 0 km/h
1496 18-03-2003 16:20:14 17.7 C 3.02 g/m*3 17.7 C 0 km/h
1497 18-03-2003 16:32:15 18.3 C 3.13 g/m*3 18.3 C 0 km/h
1498 18-03-2003 16:44:15 18.3 C 3.28 g/m*3 18.3 C 0 km/h
1499 18-03-2003 16:56:15 18.3 C 3.28 g/m*3 18.3 C 0 km/h
1500 18-03-2003 17:08:14 18.1 C 3.09 g/m*3 18.1 C 0 km/h
Sensor: Nr:Datum:Temp:Abs-Feuchte:Windchill:Wind:
Aussen-T/F 1501 18-03-2003 17:20:14 17.4 C 3.41 g/m*3 17.4 C 0 km/h
1502 18-03-2003 17:32:14 17.4 C 3.71 g/m*3 17.4 C 0 km/h
1503 18-03-2003 17:44:14 16.9 C 3.74 g/m*3 16.9 C 0 km/h
1504 18-03-2003 17:56:14 16.3 C 3.75 g/m*3 16.3 C 0 km/h
1505 18-03-2003 18:44:15 11.7 C 4.18 g/m*3 11.7 C 0 km/h
1506 18-03-2003 18:56:15 10.5 C 4.07 g/m*3 10.5 C 0 km/h
1507 18-03-2003 19:08:14 9.8 C 4.18 g/m*3 9.8 C 0 km/h
1508 18-03-2003 19:20:14 9.3 C 4.13 g/m*3 9.3 C 0 km/h
1509 18-03-2003 19:32:15 8.7 C 4.24 g/m*3 8.7 C 0 km/h
1510 18-03-2003 19:44:15 8.5 C 4.27 g/m*3 8.5 C 0 km/h
1511 18-03-2003 19:56:15 8.1 C 4.24 g/m*3 8.1 C 0 km/h
1512 18-03-2003 20:09:15 7.9 C 4.27 g/m*3 7.9 C 0 km/h
1513 18-03-2003 20:21:15 7.5 C 4.32 g/m*3 7.5 C 0 km/h
1514 18-03-2003 20:33:15 7.1 C 4.21 g/m*3 7.1 C 0 km/h
1515 18-03-2003 20:57:15 6.8 C 4.36 g/m*3 6.8 C 0 km/h
1516 18-03-2003 21:09:15 6.5 C 4.27 g/m*3 6.5 C 0 km/h
1517 18-03-2003 21:21:15 6.4 C 4.25 g/m*3 6.4 C 0 km/h
1518 18-03-2003 21:33:15 6.1 C 4.16 g/m*3 6.1 C 0 km/h
1519 18-03-2003 21:45:15 5.8 C 4.15 g/m*3 5.8 C 0 km/h
1520 18-03-2003 21:57:15 5.4 C 4.33 g/m*3 5.4 C 0 km/h
1521 18-03-2003 22:09:15 5.2 C 4.34 g/m*3 5.2 C 0 km/h
1522 18-03-2003 22:21:15 5.1 C 4.24 g/m*3 5.1 C 0 km/h
1523 18-03-2003 22:33:15 5 C 4.21 g/m*3 5 C 0 km/h
1524 18-03-2003 22:45:15 4.7 C 4.26 g/m*3 4.7 C 0 km/h
1525 18-03-2003 22:57:15 4.4 C 4.24 g/m*3 4.4 C 0 km/h
Sensor: Nr:Datum:Temp:Abs-Feuchte:Windchill:Wind:
Aussen-T/F 1526 18-03-2003 23:09:15 4.3 C 4.22 g/m*3 4.3 C 0 km/h
1527 18-03-2003 23:21:15 4.1 C 4.22 g/m*3 4.1 C 0 km/h
1528 18-03-2003 23:33:15 3.9 C 4.29 g/m*3 3.9 C 0 km/h
1529 18-03-2003 23:45:15 3.7 C 4.36 g/m*3 3.7 C 0 km/h
1530 18-03-2003 23:57:15 3.3 C 4.19 g/m*3 3.3 C 0 km/h
1531 19-03-2003 00:09:15 3.1 C 4.25 g/m*3 3.1 C 0 km/h
1532 19-03-2003 00:21:15 3 C 4.28 g/m*3 3 C 0 km/h
1533 19-03-2003 00:33:15 2.8 C 4.28 g/m*3 2.8 C 0 km/h
1534 19-03-2003 00:45:15 2.6 C 4.28 g/m*3 2.6 C 0 km/h
1535 19-03-2003 00:57:15 2.1 C 4.08 g/m*3 2.1 C 0 km/h
1536 19-03-2003 01:09:15 2 C 4.11 g/m*3 2 C 0 km/h
1537 19-03-2003 01:21:15 1.9 C 4.19 g/m*3 1.9 C 0 km/h
1538 19-03-2003 01:33:15 1.9 C 4.25 g/m*3 1.9 C 0 km/h
1539 19-03-2003 01:45:15 1.8 C 4.28 g/m*3 1.8 C 0 km/h
1540 19-03-2003 01:57:15 1.6 C 4.22 g/m*3 1.6 C 0 km/h
1541 19-03-2003 02:09:15 1.5 C 4.24 g/m*3 1.5 C 0 km/h
1542 19-03-2003 02:21:15 1.3 C 4.19 g/m*3 1.3 C 0 km/h
1543 19-03-2003 02:33:15 1.1 C 4.13 g/m*3 1.1 C 0 km/h
1544 19-03-2003 02:45:15 0.9 C 4.18 g/m*3 0.9 C 0 km/h
1545 19-03-2003 02:57:15 0.9 C 4.23 g/m*3 0.9 C 0 km/h
1546 19-03-2003 03:09:15 0.9 C 4.23 g/m*3 0.9 C 0 km/h
1547 19-03-2003 03:21:15 0.8 C 4.2 g/m*3 0.8 C 0 km/h
1548 19-03-2003 03:33:15 0.6 C 4.14 g/m*3 0.6 C 0 km/h
1549 19-03-2003 03:45:15 0.3 C 4.01 g/m*3 0.3 C 0 km/h
1550 19-03-2003 03:57:15 0.1 C 4.05 g/m*3 0.1 C 0 km/h
Sensor: Nr:Datum:Temp:Abs-Feuchte:Windchill:Wind:
Aussen-T/F 1551 19-03-2003 04:09:15 0 C 4.02 g/m*3 0 C 0 km/h
1552 19-03-2003 04:21:15 0 C 4.07 g/m*3 0 C 0 km/h
1553 19-03-2003 04:33:15 -0.2 C 4.01 g/m*3 -0.2 C 0 km/h
1554 19-03-2003 04:45:15 -0.2 C 4.06 g/m*3 -0.2 C 0 km/h
1555 19-03-2003 04:57:15 -0.3 C 4.03 g/m*3 -0.3 C 0 km/h
1556 19-03-2003 05:09:15 -0.4 C 4.01 g/m*3 -0.4 C 0 km/h
1557 19-03-2003 05:21:15 -0.7 C 3.92 g/m*3 -0.7 C 0 km/h
1558 19-03-2003 05:33:15 -0.7 C 3.97 g/m*3 -0.7 C 0 km/h
1559 19-03-2003 05:45:15 -0.7 C 3.97 g/m*3 -0.7 C 0 km/h
1560 19-03-2003 05:57:15 -1 C 3.89 g/m*3 -1 C 0 km/h
1561 19-03-2003 06:09:15 -1 C 3.93 g/m*3 -1 C 0 km/h
1562 19-03-2003 06:21:15 -1 C 3.93 g/m*3 -1 C 0 km/h
1563 19-03-2003 06:33:15 -1.1 C 3.91 g/m*3 -1.1 C 0 km/h
1564 19-03-2003 06:45:15 -1.2 C 3.92 g/m*3 -1.2 C 0 km/h
1565 19-03-2003 06:57:15 -1.2 C 3.92 g/m*3 -1.2 C 0 km/h
1566 19-03-2003 07:09:15 -1.1 C 3.95 g/m*3 -1.1 C 0 km/h
1567 19-03-2003 07:21:15 -1 C 3.98 g/m*3 -1 C 0 km/h
1568 19-03-2003 07:33:15 -0.8 C 4.03 g/m*3 -0.8 C 0 km/h
1569 19-03-2003 07:45:15 -0.8 C 4.03 g/m*3 -0.8 C 0 km/h
1570 19-03-2003 07:57:15 -0.9 C 4.01 g/m*3 -0.9 C 0 km/h
1571 19-03-2003 08:09:14 -0.7 C 4.06 g/m*3 -0.7 C 0 km/h
1572 19-03-2003 08:33:14 -0.3 C 4.18 g/m*3 -0.3 C 0 km/h
1573 19-03-2003 08:45:14 0.1 C 4.34 g/m*3 0.1 C 0 km/h
1574 19-03-2003 08:57:14 0.4 C 4.43 g/m*3 0.4 C 0 km/h
1575 19-03-2003 09:09:14 1.3 C 4.66 g/m*3 1.3 C 0 km/h
Sensor: Nr:Datum:Temp:Abs-Feuchte:Windchill:Wind:
Aussen-T/F 1576 19-03-2003 09:21:14 2.1 C 4.81 g/m*3 2.1 C 0 km/h
1577 19-03-2003 09:33:15 2.7 C 4.78 g/m*3 2.7 C 0 km/h
1578 19-03-2003 09:45:15 3.6 C 4.89 g/m*3 3.6 C 0 km/h
1579 19-03-2003 09:57:15 4.6 C 4.96 g/m*3 4.6 C 0 km/h
1580 19-03-2003 10:09:59 5.1 C 4.92 g/m*3 5.1 C 0 km/h
1581 19-03-2003 10:21:03 5.9 C 5.05 g/m*3 5.9 C 0 km/h
1582 19-03-2003 10:33:14 6.6 C 5.06 g/m*3 6.6 C 0 km/h
1583 19-03-2003 10:45:14 7.1 C 4.91 g/m*3 7.1 C 0 km/h
1584 19-03-2003 10:57:14 7.6 C 4.91 g/m*3 7.6 C 0 km/h
1585 19-03-2003 11:09:14 8.3 C 4.89 g/m*3 8.3 C 0 km/h
1586 19-03-2003 11:21:14 9 C 4.85 g/m*3 9 C 0 km/h
1587 19-03-2003 11:33:15 10 C 4.89 g/m*3 10 C 0 km/h
1588 19-03-2003 11:45:15 10.7 C 4.81 g/m*3 10.7 C 0 km/h
1589 19-03-2003 11:57:15 11.6 C 4.68 g/m*3 11.6 C 0 km/h
1590 19-03-2003 12:09:14 12.9 C 4.73 g/m*3 12.9 C 0 km/h
1591 19-03-2003 12:21:14 12.8 C 4.59 g/m*3 12.8 C 0 km/h
1592 19-03-2003 12:33:14 12.9 C 4.28 g/m*3 12.9 C 0 km/h
1593 19-03-2003 12:45:14 13.3 C 4.39 g/m*3 13.3 C 0 km/h
1594 19-03-2003 12:57:14 13.6 C 4.35 g/m*3 13.6 C 0 km/h
1595 19-03-2003 13:09:14 13.7 C 4.5 g/m*3 13.7 C 0 km/h
1596 19-03-2003 13:21:14 14 C 4.34 g/m*3 14 C 0 km/h
1597 19-03-2003 13:33:15 14.3 C 4.55 g/m*3 14.3 C 0 km/h
1598 19-03-2003 13:45:15 14.6 C 4.5 g/m*3 14.6 C 0 km/h
1599 19-03-2003 13:57:15 14.3 C 4.3 g/m*3 14.3 C 0 km/h
1600 19-03-2003 14:09:13 15 C 3.98 g/m*3 15 C 0 km/h
Sensor: Nr:Datum:Temp:Abs-Feuchte:Windchill:Wind:
Aussen-T/F 1601 19-03-2003 14:21:13 14.5 C 3.98 g/m*3 14.5 C 0 km/h
1602 19-03-2003 14:33:14 15.4 C 4.07 g/m*3 15.4 C 0 km/h
1603 19-03-2003 14:45:14 15.6 C 3.86 g/m*3 15.6 C 0 km/h
1604 19-03-2003 14:57:14 15.2 C 3.76 g/m*3 15.2 C 0 km/h
1605 19-03-2003 15:09:14 16.1 C 3.84 g/m*3 16.1 C 0 km/h
1606 19-03-2003 15:21:14 16.2 C 3.72 g/m*3 16.2 C 0 km/h
1607 19-03-2003 15:33:13 16.2 C 3.72 g/m*3 16.2 C 0 km/h
1608 19-03-2003 15:45:13 16 C 3.68 g/m*3 16 C 0 km/h
1609 19-03-2003 15:57:13 16.3 C 3.88 g/m*3 16.3 C 0 km/h
1610 19-03-2003 16:09:13 16 C 3.68 g/m*3 16 C 0 km/h
1611 19-03-2003 16:21:13 15.8 C 4.04 g/m*3 15.8 C 0 km/h
1612 19-03-2003 16:33:14 15.7 C 4.01 g/m*3 15.7 C 0 km/h
1613 19-03-2003 16:45:14 15.6 C 3.99 g/m*3 15.6 C 0 km/h
1614 19-03-2003 16:57:14 15.3 C 3.79 g/m*3 15.3 C 0 km/h
1615 19-03-2003 17:09:13 14.8 C 3.67 g/m*3 14.8 C 0 km/h
1616 19-03-2003 17:21:13 14.4 C 3.71 g/m*3 14.4 C 0 km/h
1617 19-03-2003 17:33:14 14.3 C 3.81 g/m*3 14.3 C 0 km/h
1618 19-03-2003 17:45:14 13.9 C 4.08 g/m*3 13.9 C 0 km/h
1619 19-03-2003 17:57:14 13.8 C 4.05 g/m*3 13.8 C 0 km/h
1620 19-03-2003 18:09:14 13.4 C 4.07 g/m*3 13.4 C 0 km/h
1621 19-03-2003 18:21:14 12.8 C 4.03 g/m*3 12.8 C 0 km/h
1622 19-03-2003 18:33:13 12.2 C 3.99 g/m*3 12.2 C 0 km/h
1623 19-03-2003 18:45:13 11.7 C 4.08 g/m*3 11.7 C 0 km/h
1624 19-03-2003 18:57:13 11.3 C 4.08 g/m*3 11.3 C 0 km/h
1625 19-03-2003 19:09:13 10.8 C 4.15 g/m*3 10.8 C 0 km/h
Sensor: Nr:Datum:Temp:Abs-Feuchte:Windchill:Wind:
Aussen-T/F 1626 19-03-2003 19:21:13 10.5 C 4.17 g/m*3 10.5 C 0 km/h
1627 19-03-2003 19:33:13 10.1 C 4.16 g/m*3 10.1 C 0 km/h
1628 19-03-2003 19:45:13 9.6 C 4.31 g/m*3 9.6 C 0 km/h
1629 19-03-2003 19:57:13 9.3 C 4.04 g/m*3 9.3 C 0 km/h
1630 19-03-2003 20:09:14 9.2 C 4.02 g/m*3 9.2 C 0 km/h
1631 19-03-2003 20:21:14 8.7 C 4.06 g/m*3 8.7 C 0 km/h
1632 19-03-2003 20:33:14 8.2 C 4.02 g/m*3 8.2 C 0 km/h
1633 19-03-2003 20:45:14 8 C 4.13 g/m*3 8 C 0 km/h
1634 19-03-2003 20:57:14 7.8 C 4.33 g/m*3 7.8 C 0 km/h
1635 19-03-2003 21:10:15 7.4 C 4.37 g/m*3 7.4 C 0 km/h
1636 19-03-2003 21:22:15 7.5 C 4.48 g/m*3 7.5 C 0 km/h
1637 19-03-2003 21:34:15 7.5 C 4.56 g/m*3 7.5 C 0 km/h
1638 19-03-2003 21:46:15 7.2 C 4.47 g/m*3 7.2 C 0 km/h
1639 19-03-2003 21:58:15 7.2 C 4.55 g/m*3 7.2 C 0 km/h
1640 19-03-2003 22:10:15 6.6 C 4.53 g/m*3 6.6 C 0 km/h
1641 19-03-2003 22:22:15 6.3 C 4.66 g/m*3 6.3 C 0 km/h
1642 19-03-2003 22:34:15 6 C 4.65 g/m*3 6 C 0 km/h
1643 19-03-2003 22:46:15 5.8 C 4.73 g/m*3 5.8 C 0 km/h
1644 19-03-2003 22:58:15 5.5 C 4.71 g/m*3 5.5 C 0 km/h
1645 19-03-2003 23:10:15 5.3 C 4.71 g/m*3 5.3 C 0 km/h
1646 19-03-2003 23:22:15 5.2 C 4.75 g/m*3 5.2 C 0 km/h
1647 19-03-2003 23:34:15 4.8 C 4.76 g/m*3 4.8 C 0 km/h
1648 19-03-2003 23:46:15 4.8 C 4.83 g/m*3 4.8 C 0 km/h
1649 19-03-2003 23:58:15 4.4 C 4.77 g/m*3 4.4 C 0 km/h
1650 20-03-2003 00:10:15 4.6 C 4.83 g/m*3 4.6 C 0 km/h
Sensor: Nr:Datum:Temp:Abs-Feuchte:Windchill:Wind:
Aussen-T/F 1651 20-03-2003 00:22:15 4.4 C 4.83 g/m*3 4.4 C 0 km/h
1652 20-03-2003 00:34:15 4.2 C 4.77 g/m*3 4.2 C 0 km/h
1653 20-03-2003 00:46:15 3.7 C 4.74 g/m*3 3.7 C 0 km/h
1654 20-03-2003 00:58:15 3.4 C 4.76 g/m*3 3.4 C 0 km/h
1655 20-03-2003 01:10:15 3.2 C 4.7 g/m*3 3.2 C 0 km/h
1656 20-03-2003 01:22:15 3 C 4.7 g/m*3 3 C 0 km/h
1657 20-03-2003 01:34:15 2.7 C 4.72 g/m*3 2.7 C 0 km/h
1658 20-03-2003 01:46:15 2.5 C 4.71 g/m*3 2.5 C 0 km/h
1659 20-03-2003 01:58:15 2.7 C 4.78 g/m*3 2.7 C 0 km/h
1660 20-03-2003 02:10:15 3 C 4.76 g/m*3 3 C 0 km/h
1661 20-03-2003 02:22:15 3.2 C 4.76 g/m*3 3.2 C 0 km/h
1662 20-03-2003 02:34:15 3.2 C 4.76 g/m*3 3.2 C 0 km/h
1663 20-03-2003 02:46:15 3.2 C 4.76 g/m*3 3.2 C 0 km/h
1664 20-03-2003 02:58:15 3.3 C 4.79 g/m*3 3.3 C 0 km/h
1665 20-03-2003 03:10:15 3.3 C 4.73 g/m*3 3.3 C 0 km/h
1666 20-03-2003 03:22:15 3.2 C 4.7 g/m*3 3.2 C 0 km/h
1667 20-03-2003 03:34:15 3.3 C 4.73 g/m*3 3.3 C 0 km/h
1668 20-03-2003 03:46:15 3.3 C 4.73 g/m*3 3.3 C 0 km/h
1669 20-03-2003 03:58:15 3.3 C 4.73 g/m*3 3.3 C 0 km/h
1670 20-03-2003 04:10:15 3.4 C 4.76 g/m*3 3.4 C 0 km/h
1671 20-03-2003 04:22:15 3.3 C 4.73 g/m*3 3.3 C 0 km/h
1672 20-03-2003 04:34:15 3.5 C 4.86 g/m*3 3.5 C 0 km/h
1673 20-03-2003 04:46:15 3.7 C 4.92 g/m*3 3.7 C 0 km/h
1674 20-03-2003 04:58:15 4 C 4.96 g/m*3 4 C 0 km/h
1675 20-03-2003 05:10:15 4.1 C 4.99 g/m*3 4.1 C 0 km/h
Sensor: Nr:Datum:Temp:Abs-Feuchte:Windchill:Wind:
Aussen-T/F 1676 20-03-2003 05:22:15 4.2 C 4.96 g/m*3 4.2 C 0 km/h
1677 20-03-2003 05:34:15 4.2 C 4.96 g/m*3 4.2 C 0 km/h
1678 20-03-2003 05:46:15 4.2 C 4.9 g/m*3 4.2 C 0 km/h
1679 20-03-2003 05:58:15 4.2 C 4.9 g/m*3 4.2 C 0 km/h
1680 20-03-2003 06:10:15 4.1 C 4.8 g/m*3 4.1 C 0 km/h
1681 20-03-2003 06:22:15 4 C 4.77 g/m*3 4 C 0 km/h
1682 20-03-2003 06:34:15 4.1 C 4.8 g/m*3 4.1 C 0 km/h
1683 20-03-2003 06:46:15 4 C 4.7 g/m*3 4 C 0 km/h
1684 20-03-2003 06:58:15 4 C 4.77 g/m*3 4 C 0 km/h
1685 20-03-2003 07:10:15 3.9 C 4.74 g/m*3 3.9 C 0 km/h
1686 20-03-2003 07:22:15 3.9 C 4.74 g/m*3 3.9 C 0 km/h
1687 20-03-2003 07:34:15 4.1 C 4.8 g/m*3 4.1 C 0 km/h
1688 20-03-2003 07:46:15 4 C 4.77 g/m*3 4 C 0 km/h
1689 20-03-2003 07:58:15 4.2 C 4.83 g/m*3 4.2 C 0 km/h
1690 20-03-2003 08:10:15 4 C 4.77 g/m*3 4 C 0 km/h
1691 20-03-2003 08:22:15 4.1 C 4.74 g/m*3 4.1 C 0 km/h
1692 20-03-2003 08:34:14 4.2 C 4.7 g/m*3 4.2 C 0 km/h
1693 20-03-2003 08:46:14 4.1 C 4.67 g/m*3 4.1 C 0 km/h
1694 20-03-2003 08:58:14 4 C 4.64 g/m*3 4 C 0 km/h
1695 20-03-2003 09:10:15 4.1 C 4.61 g/m*3 4.1 C 0 km/h
1696 20-03-2003 09:22:15 4.1 C 4.61 g/m*3 4.1 C 0 km/h
1697 20-03-2003 09:34:14 4.1 C 4.61 g/m*3 4.1 C 0 km/h
1698 20-03-2003 09:46:14 4.2 C 4.64 g/m*3 4.2 C 0 km/h
1699 20-03-2003 09:58:14 4.5 C 4.6 g/m*3 4.5 C 0 km/h
1700 20-03-2003 10:10:14 4.4 C 4.57 g/m*3 4.4 C 0 km/h
Sensor: Nr:Datum:Temp:Abs-Feuchte:Windchill:Wind:
Aussen-T/F 1701 20-03-2003 10:22:14 4.6 C 4.5 g/m*3 4.6 C 0 km/h
1702 20-03-2003 10:34:15 4.9 C 4.46 g/m*3 4.9 C 0 km/h
1703 20-03-2003 10:46:15 5.3 C 4.44 g/m*3 5.3 C 0 km/h
1704 20-03-2003 10:58:15 5.9 C 4.47 g/m*3 5.9 C 0 km/h
1705 20-03-2003 11:10:14 5.7 C 4.34 g/m*3 5.7 C 0 km/h
1706 20-03-2003 11:22:14 5.6 C 4.38 g/m*3 5.6 C 0 km/h
1707 20-03-2003 11:34:14 6.5 C 4.27 g/m*3 6.5 C 0 km/h
1708 20-03-2003 11:46:14 5.9 C 4.25 g/m*3 5.9 C 0 km/h
1709 20-03-2003 11:58:14 6.1 C 4.24 g/m*3 6.1 C 0 km/h
1710 20-03-2003 12:10:14 6.3 C 4.22 g/m*3 6.3 C 0 km/h
1711 20-03-2003 12:22:14 7.5 C 4.16 g/m*3 7.5 C 0 km/h
1712 20-03-2003 12:34:14 7.3 C 4.03 g/m*3 7.3 C 0 km/h
1713 20-03-2003 12:46:14 7.8 C 4.24 g/m*3 7.8 C 0 km/h
1714 20-03-2003 12:58:14 7.9 C 4.27 g/m*3 7.9 C 0 km/h
1715 20-03-2003 13:10:14 8.1 C 4.24 g/m*3 8.1 C 0 km/h
1716 20-03-2003 13:22:14 8.8 C 4.35 g/m*3 8.8 C 0 km/h
1717 20-03-2003 13:34:14 8.7 C 4.41 g/m*3 8.7 C 0 km/h
1718 20-03-2003 13:46:14 9.7 C 4.61 g/m*3 9.7 C 0 km/h
1719 20-03-2003 13:58:14 9.9 C 4.39 g/m*3 9.9 C 0 km/h
1720 20-03-2003 14:10:14 10.2 C 4.28 g/m*3 10.2 C 0 km/h
1721 20-03-2003 14:22:14 11.4 C 4.52 g/m*3 11.4 C 0 km/h
1722 20-03-2003 14:34:14 12 C 4.37 g/m*3 12 C 0 km/h
1723 20-03-2003 14:46:14 12.3 C 4.34 g/m*3 12.3 C 0 km/h
1724 20-03-2003 14:58:14 13 C 4.42 g/m*3 13 C 0 km/h
1725 20-03-2003 15:10:14 13.5 C 4.33 g/m*3 13.5 C 0 km/h
Sensor: Nr:Datum:Temp:Abs-Feuchte:Windchill:Wind:
Aussen-T/F 1726 20-03-2003 15:22:14 12.4 C 4.15 g/m*3 12.4 C 0 km/h
1727 20-03-2003 15:34:14 12.4 C 4.15 g/m*3 12.4 C 0 km/h
1728 20-03-2003 15:46:14 12.5 C 4.18 g/m*3 12.5 C 0 km/h
1729 20-03-2003 15:58:14 12.3 C 4.02 g/m*3 12.3 C 0 km/h
1730 20-03-2003 16:10:14 12.6 C 3.76 g/m*3 12.6 C 0 km/h
1731 20-03-2003 16:22:14 12.4 C 3.93 g/m*3 12.4 C 0 km/h
1732 20-03-2003 16:34:15 11.6 C 3.74 g/m*3 11.6 C 0 km/h
1733 20-03-2003 16:46:15 10.8 C 4.05 g/m*3 10.8 C 0 km/h
1734 20-03-2003 16:58:15 11.6 C 4.26 g/m*3 11.6 C 0 km/h
1735 20-03-2003 17:10:26 11 C 4.2 g/m*3 11 C 0 km/h
1736 20-03-2003 17:22:13 10.5 C 4.07 g/m*3 10.5 C 0 km/h
1737 20-03-2003 17:34:13 10 C 4.13 g/m*3 10 C 0 km/h
1738 20-03-2003 17:46:13 9.4 C 4.25 g/m*3 9.4 C 0 km/h
1739 20-03-2003 17:58:13 9.1 C 4.26 g/m*3 9.1 C 0 km/h
1740 20-03-2003 18:10:14 8.5 C 4.27 g/m*3 8.5 C 0 km/h
1741 20-03-2003 18:22:14 7.9 C 4.35 g/m*3 7.9 C 0 km/h
1742 20-03-2003 18:34:14 7.6 C 4.43 g/m*3 7.6 C 0 km/h
1743 20-03-2003 18:46:14 7.2 C 4.47 g/m*3 7.2 C 0 km/h
1744 20-03-2003 18:58:14 6.8 C 4.51 g/m*3 6.8 C 0 km/h
1745 20-03-2003 19:10:14 6.6 C 4.53 g/m*3 6.6 C 0 km/h
1746 20-03-2003 19:22:14 6.1 C 4.53 g/m*3 6.1 C 0 km/h
1747 20-03-2003 19:34:13 6.1 C 4.53 g/m*3 6.1 C 0 km/h
1748 20-03-2003 19:46:13 5.8 C 4.58 g/m*3 5.8 C 0 km/h
1749 20-03-2003 19:58:13 5.5 C 4.57 g/m*3 5.5 C 0 km/h
1750 20-03-2003 20:10:14 5.4 C 4.6 g/m*3 5.4 C 0 km/h
Sensor: Nr:Datum:Temp:Abs-Feuchte:Windchill:Wind:
Aussen-T/F 1751 20-03-2003 20:22:14 5.5 C 4.71 g/m*3 5.5 C 0 km/h
1752 20-03-2003 20:34:14 5.4 C 4.67 g/m*3 5.4 C 0 km/h
1753 20-03-2003 20:46:14 5.3 C 4.71 g/m*3 5.3 C 0 km/h
1754 20-03-2003 20:58:14 5.2 C 4.68 g/m*3 5.2 C 0 km/h
1755 20-03-2003 21:10:13 4.9 C 4.73 g/m*3 4.9 C 0 km/h
1756 20-03-2003 21:22:13 4.7 C 4.73 g/m*3 4.7 C 0 km/h
1757 20-03-2003 21:34:14 4.4 C 4.7 g/m*3 4.4 C 0 km/h
1758 20-03-2003 21:46:14 4.3 C 4.74 g/m*3 4.3 C 0 km/h
1759 20-03-2003 21:58:14 3.9 C 4.74 g/m*3 3.9 C 0 km/h
1760 20-03-2003 22:10:14 3.7 C 4.74 g/m*3 3.7 C 0 km/h
1761 20-03-2003 22:22:14 3.5 C 4.67 g/m*3 3.5 C 0 km/h
1762 20-03-2003 22:35:15 3.3 C 4.73 g/m*3 3.3 C 0 km/h
1763 20-03-2003 22:47:15 3.2 C 4.7 g/m*3 3.2 C 0 km/h
1764 20-03-2003 22:59:15 2.9 C 4.67 g/m*3 2.9 C 0 km/h
1765 20-03-2003 23:11:15 2.5 C 4.54 g/m*3 2.5 C 0 km/h
1766 20-03-2003 23:23:15 2.2 C 4.51 g/m*3 2.2 C 0 km/h
1767 20-03-2003 23:35:15 2 C 4.5 g/m*3 2 C 0 km/h
1768 20-03-2003 23:47:15 2 C 4.5 g/m*3 2 C 0 km/h
1769 20-03-2003 23:59:15 2.2 C 4.34 g/m*3 2.2 C 0 km/h
1770 21-03-2003 00:11:15 2.1 C 4.2 g/m*3 2.1 C 0 km/h
1771 21-03-2003 00:23:15 2.2 C 4.11 g/m*3 2.2 C 0 km/h
1772 21-03-2003 00:35:15 2.1 C 4.08 g/m*3 2.1 C 0 km/h
1773 21-03-2003 00:47:15 2 C 4 g/m*3 2 C 0 km/h
1774 21-03-2003 00:59:15 1.6 C 4.06 g/m*3 1.6 C 0 km/h
1775 21-03-2003 01:11:15 1.2 C 4.05 g/m*3 1.2 C 0 km/h
Sensor: Nr:Datum:Temp:Abs-Feuchte:Windchill:Wind:
Aussen-T/F 1776 21-03-2003 01:23:15 0.9 C 4.07 g/m*3 0.9 C 0 km/h
1777 21-03-2003 01:35:15 0.7 C 4.02 g/m*3 0.7 C 0 km/h
1778 21-03-2003 01:47:15 0.6 C 4.04 g/m*3 0.6 C 0 km/h
1779 21-03-2003 01:59:15 0.5 C 4.01 g/m*3 0.5 C 0 km/h
1780 21-03-2003 02:11:15 0.6 C 4.09 g/m*3 0.6 C 0 km/h
1781 21-03-2003 02:23:15 0.3 C 4.01 g/m*3 0.3 C 0 km/h
1782 21-03-2003 02:35:15 0.1 C 3.95 g/m*3 0.1 C 0 km/h
1783 21-03-2003 02:47:15 0.1 C 3.95 g/m*3 0.1 C 0 km/h
1784 21-03-2003 02:59:15 0.1 C 4 g/m*3 0.1 C 0 km/h
1785 21-03-2003 03:11:15 0.1 C 4 g/m*3 0.1 C 0 km/h
1786 21-03-2003 03:23:15 0 C 3.97 g/m*3 0 C 0 km/h
1787 21-03-2003 03:35:15 -0.2 C 3.97 g/m*3 -0.2 C 0 km/h
1788 21-03-2003 03:47:15 0.1 C 4.05 g/m*3 0.1 C 0 km/h
1789 21-03-2003 03:59:15 0.1 C 4.05 g/m*3 0.1 C 0 km/h
1790 21-03-2003 04:11:15 0.3 C 4.06 g/m*3 0.3 C 0 km/h
1791 21-03-2003 04:23:15 0.5 C 4.06 g/m*3 0.5 C 0 km/h
1792 21-03-2003 04:35:15 0.6 C 4.04 g/m*3 0.6 C 0 km/h
1793 21-03-2003 04:47:15 0.7 C 4.02 g/m*3 0.7 C 0 km/h
1794 21-03-2003 04:59:15 0.8 C 3.99 g/m*3 0.8 C 0 km/h
1795 21-03-2003 05:11:15 0.8 C 3.99 g/m*3 0.8 C 0 km/h
1796 21-03-2003 05:23:15 0.8 C 3.99 g/m*3 0.8 C 0 km/h
1797 21-03-2003 05:35:15 0.7 C 3.97 g/m*3 0.7 C 0 km/h
1798 21-03-2003 05:47:15 0.7 C 4.02 g/m*3 0.7 C 0 km/h
1799 21-03-2003 05:59:15 0.8 C 3.99 g/m*3 0.8 C 0 km/h
1800 21-03-2003 06:11:15 0.7 C 3.97 g/m*3 0.7 C 0 km/h
Sensor: Nr:Datum:Temp:Abs-Feuchte:Windchill:Wind:
Aussen-T/F 1801 21-03-2003 06:23:15 0.5 C 3.91 g/m*3 0.5 C 0 km/h
1802 21-03-2003 06:35:15 0.7 C 4.02 g/m*3 0.7 C 0 km/h
1803 21-03-2003 06:47:15 0.9 C 4.02 g/m*3 0.9 C 0 km/h
1804 21-03-2003 06:59:15 0.9 C 4.02 g/m*3 0.9 C 0 km/h
1805 21-03-2003 07:11:15 1 C 4 g/m*3 1 C 0 km/h
1806 21-03-2003 07:23:15 1.1 C 4.02 g/m*3 1.1 C 0 km/h
1807 21-03-2003 07:35:15 1.2 C 4 g/m*3 1.2 C 0 km/h
1808 21-03-2003 07:47:15 1.3 C 4.03 g/m*3 1.3 C 0 km/h
1809 21-03-2003 07:59:15 1.5 C 4.03 g/m*3 1.5 C 0 km/h
1810 21-03-2003 08:11:14 1.5 C 4.03 g/m*3 1.5 C 0 km/h
1811 21-03-2003 08:23:14 1.9 C 4.03 g/m*3 1.9 C 0 km/h
1812 21-03-2003 08:35:14 2 C 3.95 g/m*3 2 C 0 km/h
1813 21-03-2003 08:47:14 2.3 C 3.97 g/m*3 2.3 C 0 km/h
1814 21-03-2003 08:59:14 2.4 C 3.94 g/m*3 2.4 C 0 km/h
1815 21-03-2003 09:11:14 2.2 C 3.94 g/m*3 2.2 C 0 km/h
1816 21-03-2003 09:23:14 2.4 C 3.94 g/m*3 2.4 C 0 km/h
1817 21-03-2003 09:35:15 3.1 C 3.95 g/m*3 3.1 C 0 km/h
1818 21-03-2003 09:47:15 3.7 C 4.05 g/m*3 3.7 C 0 km/h
1819 21-03-2003 09:59:15 4.5 C 4.01 g/m*3 4.5 C 0 km/h
1820 21-03-2003 10:11:14 4.7 C 3.93 g/m*3 4.7 C 0 km/h
1821 21-03-2003 10:23:14 5.2 C 3.86 g/m*3 5.2 C 0 km/h
1822 21-03-2003 10:35:14 5.4 C 3.77 g/m*3 5.4 C 0 km/h
1823 21-03-2003 10:47:14 5.7 C 3.84 g/m*3 5.7 C 0 km/h
1824 21-03-2003 10:59:14 6.5 C 3.75 g/m*3 6.5 C 0 km/h
1825 21-03-2003 11:11:15 6.9 C 3.7 g/m*3 6.9 C 0 km/h
Sensor: Nr:Datum:Temp:Abs-Feuchte:Windchill:Wind:
Aussen-T/F 1826 21-03-2003 11:23:15 7.4 C 3.66 g/m*3 7.4 C 0 km/h
1827 21-03-2003 11:47:14 8.2 C 3.68 g/m*3 8.2 C 0 km/h
1828 21-03-2003 11:59:14 8.5 C 3.59 g/m*3 8.5 C 0 km/h
1829 21-03-2003 12:11:14 9.4 C 3.71 g/m*3 9.4 C 0 km/h
1830 21-03-2003 12:23:14 10.2 C 3.81 g/m*3 10.2 C 0 km/h
1831 21-03-2003 12:35:14 10 C 3.48 g/m*3 10 C 0 km/h
1832 21-03-2003 12:47:14 10.4 C 3.57 g/m*3 10.4 C 0 km/h
1833 21-03-2003 12:59:14 10.4 C 3.66 g/m*3 10.4 C 0 km/h
1834 21-03-2003 13:11:14 10.6 C 3.71 g/m*3 10.6 C 0 km/h
1835 21-03-2003 13:23:14 11 C 3.7 g/m*3 11 C 0 km/h
1836 21-03-2003 13:35:13 11.2 C 3.65 g/m*3 11.2 C 0 km/h
1837 21-03-2003 13:47:13 11.9 C 3.81 g/m*3 11.9 C 0 km/h
1838 21-03-2003 13:59:13 12.3 C 3.69 g/m*3 12.3 C 0 km/h
1839 21-03-2003 14:11:14 12.2 C 3.45 g/m*3 12.2 C 0 km/h
1840 21-03-2003 14:23:14 12.8 C 3.7 g/m*3 12.8 C 0 km/h
1841 21-03-2003 14:35:15 13.1 C 3.65 g/m*3 13.1 C 0 km/h
1842 21-03-2003 14:47:15 13.3 C 3.58 g/m*3 13.3 C 0 km/h
1843 21-03-2003 14:59:15 13.2 C 3.56 g/m*3 13.2 C 0 km/h
1844 21-03-2003 15:11:14 13.5 C 3.51 g/m*3 13.5 C 0 km/h
1845 21-03-2003 15:23:14 13.5 C 3.51 g/m*3 13.5 C 0 km/h
1846 21-03-2003 15:35:15 13.4 C 3.49 g/m*3 13.4 C 0 km/h
1847 21-03-2003 15:47:15 14 C 3.62 g/m*3 14 C 0 km/h
1848 21-03-2003 15:59:15 13.6 C 3.53 g/m*3 13.6 C 0 km/h
1849 21-03-2003 16:11:14 13.1 C 3.42 g/m*3 13.1 C 0 km/h
1850 21-03-2003 16:23:14 13.4 C 3.6 g/m*3 13.4 C 0 km/h
Sensor: Nr:Datum:Temp:Abs-Feuchte:Windchill:Wind:
Aussen-T/F 1851 21-03-2003 16:35:13 13.7 C 3.55 g/m*3 13.7 C 0 km/h
1852 21-03-2003 16:47:13 13.2 C 3.44 g/m*3 13.2 C 0 km/h
1853 21-03-2003 16:59:13 13 C 3.63 g/m*3 13 C 0 km/h
1854 21-03-2003 17:11:14 12.7 C 3.67 g/m*3 12.7 C 0 km/h
1855 21-03-2003 17:23:14 12.5 C 3.63 g/m*3 12.5 C 0 km/h
1856 21-03-2003 17:35:13 12.4 C 3.5 g/m*3 12.4 C 0 km/h
1857 21-03-2003 17:47:13 11.6 C 3.53 g/m*3 11.6 C 0 km/h
1858 21-03-2003 17:59:13 11.1 C 3.53 g/m*3 11.1 C 0 km/h
1859 21-03-2003 18:11:14 10.5 C 3.49 g/m*3 10.5 C 0 km/h
1860 21-03-2003 18:23:14 10.1 C 3.69 g/m*3 10.1 C 0 km/h
1861 21-03-2003 18:35:14 9.3 C 3.68 g/m*3 9.3 C 0 km/h
1862 21-03-2003 18:47:14 8.2 C 3.68 g/m*3 8.2 C 0 km/h
1863 21-03-2003 18:59:14 7.5 C 3.68 g/m*3 7.5 C 0 km/h
1864 21-03-2003 19:11:13 6.9 C 3.77 g/m*3 6.9 C 0 km/h
1865 21-03-2003 19:23:13 6.5 C 3.75 g/m*3 6.5 C 0 km/h
1866 21-03-2003 19:35:13 6.3 C 3.7 g/m*3 6.3 C 0 km/h
1867 21-03-2003 19:47:13 5.9 C 3.75 g/m*3 5.9 C 0 km/h
1868 21-03-2003 19:59:13 5.7 C 3.84 g/m*3 5.7 C 0 km/h
1869 21-03-2003 20:11:14 5.2 C 3.79 g/m*3 5.2 C 0 km/h
1870 21-03-2003 20:23:14 5.1 C 3.83 g/m*3 5.1 C 0 km/h
1871 21-03-2003 20:35:13 4.8 C 3.89 g/m*3 4.8 C 0 km/h
1872 21-03-2003 20:47:13 4.6 C 3.9 g/m*3 4.6 C 0 km/h
1873 21-03-2003 20:59:13 4.3 C 3.89 g/m*3 4.3 C 0 km/h
1874 21-03-2003 21:11:14 4 C 3.88 g/m*3 4 C 0 km/h
1875 21-03-2003 21:23:14 4 C 3.94 g/m*3 4 C 0 km/h
Sensor: Nr:Datum:Temp:Abs-Feuchte:Windchill:Wind:
Aussen-T/F 1876 21-03-2003 21:35:14 3.7 C 3.86 g/m*3 3.7 C 0 km/h
1877 21-03-2003 21:47:14 3.7 C 3.93 g/m*3 3.7 C 0 km/h
1878 21-03-2003 21:59:14 3.7 C 3.93 g/m*3 3.7 C 0 km/h
1879 21-03-2003 22:12:14 3.2 C 3.92 g/m*3 3.2 C 0 km/h
1880 21-03-2003 22:24:14 3 C 3.92 g/m*3 3 C 0 km/h
1881 21-03-2003 22:36:14 3 C 3.86 g/m*3 3 C 0 km/h
1882 21-03-2003 22:48:14 3.1 C 3.89 g/m*3 3.1 C 0 km/h
1883 21-03-2003 23:00:14 3.1 C 3.89 g/m*3 3.1 C 0 km/h
1884 21-03-2003 23:12:14 2.4 C 3.88 g/m*3 2.4 C 0 km/h
1885 21-03-2003 23:24:14 2.2 C 4 g/m*3 2.2 C 0 km/h
1886 21-03-2003 23:36:14 2 C 3.89 g/m*3 2 C 0 km/h
1887 21-03-2003 23:48:14 2 C 3.89 g/m*3 2 C 0 km/h
1888 22-03-2003 00:00:14 1.8 C 3.84 g/m*3 1.8 C 0 km/h
1889 22-03-2003 00:12:14 1.6 C 3.79 g/m*3 1.6 C 0 km/h
1890 22-03-2003 00:24:14 1.6 C 3.73 g/m*3 1.6 C 0 km/h
1891 22-03-2003 00:36:14 1.7 C 3.7 g/m*3 1.7 C 0 km/h
1892 22-03-2003 00:48:14 1.5 C 3.65 g/m*3 1.5 C 0 km/h
1893 22-03-2003 01:00:14 1.5 C 3.65 g/m*3 1.5 C 0 km/h
1894 22-03-2003 01:12:14 1.5 C 3.6 g/m*3 1.5 C 0 km/h
1895 22-03-2003 01:24:14 1.2 C 3.53 g/m*3 1.2 C 0 km/h
1896 22-03-2003 01:36:14 1.1 C 3.45 g/m*3 1.1 C 0 km/h
1897 22-03-2003 01:48:14 1 C 3.48 g/m*3 1 C 0 km/h
1898 22-03-2003 02:00:14 0.8 C 3.53 g/m*3 0.8 C 0 km/h
1899 22-03-2003 02:12:14 0.6 C 3.43 g/m*3 0.6 C 0 km/h
1900 22-03-2003 02:24:14 0.6 C 3.38 g/m*3 0.6 C 0 km/h
Sensor: Nr:Datum:Temp:Abs-Feuchte:Windchill:Wind:
Aussen-T/F 1901 22-03-2003 02:36:14 0.3 C 3.36 g/m*3 0.3 C 0 km/h
1902 22-03-2003 02:48:14 0.4 C 3.39 g/m*3 0.4 C 0 km/h
1903 22-03-2003 03:00:14 0.1 C 3.27 g/m*3 0.1 C 0 km/h
1904 22-03-2003 03:12:14 0.1 C 3.32 g/m*3 0.1 C 0 km/h
1905 22-03-2003 03:24:14 0 C 3.25 g/m*3 0 C 0 km/h
1906 22-03-2003 03:36:14 -0.2 C 3.2 g/m*3 -0.2 C 0 km/h
1907 22-03-2003 03:48:14 -0.4 C 3.16 g/m*3 -0.4 C 0 km/h
1908 22-03-2003 04:00:14 -0.6 C 3.16 g/m*3 -0.6 C 0 km/h
1909 22-03-2003 04:12:14 -0.8 C 3.07 g/m*3 -0.8 C 0 km/h
1910 22-03-2003 04:24:14 -0.8 C 3.12 g/m*3 -0.8 C 0 km/h
1911 22-03-2003 04:36:14 -1 C 3.12 g/m*3 -1 C 0 km/h
1912 22-03-2003 04:48:14 -1.1 C 3.14 g/m*3 -1.1 C 0 km/h
1913 22-03-2003 05:00:14 -1.3 C 3.14 g/m*3 -1.3 C 0 km/h
1914 22-03-2003 05:12:14 -1.4 C 3.08 g/m*3 -1.4 C 0 km/h
1915 22-03-2003 05:24:14 -1.4 C 3.08 g/m*3 -1.4 C 0 km/h
1916 22-03-2003 05:36:14 -1.5 C 3.06 g/m*3 -1.5 C 0 km/h
1917 22-03-2003 05:48:14 -1.7 C 3.06 g/m*3 -1.7 C 0 km/h
1918 22-03-2003 06:00:14 -1.8 C 3.04 g/m*3 -1.8 C 0 km/h
1919 22-03-2003 06:12:14 -2 C 3.03 g/m*3 -2 C 0 km/h
1920 22-03-2003 06:24:14 -2.1 C 3.01 g/m*3 -2.1 C 0 km/h
1921 22-03-2003 06:36:14 -2 C 3.03 g/m*3 -2 C 0 km/h
1922 22-03-2003 06:48:14 -2 C 3.03 g/m*3 -2 C 0 km/h
1923 22-03-2003 07:00:14 -2 C 2.99 g/m*3 -2 C 0 km/h
1924 22-03-2003 07:12:14 -1.9 C 2.97 g/m*3 -1.9 C 0 km/h
1925 22-03-2003 07:24:14 -1.9 C 2.97 g/m*3 -1.9 C 0 km/h
Sensor: Nr:Datum:Temp:Abs-Feuchte:Windchill:Wind:
Aussen-T/F 1926 22-03-2003 07:36:15 -1.8 C 2.95 g/m*3 -1.8 C 0 km/h
1927 22-03-2003 07:48:15 -1.5 C 2.97 g/m*3 -1.5 C 0 km/h
1928 22-03-2003 08:00:15 -1.4 C 2.99 g/m*3 -1.4 C 0 km/h
1929 22-03-2003 08:12:15 -1.2 C 2.99 g/m*3 -1.2 C 0 km/h
1930 22-03-2003 08:24:15 -1 C 2.98 g/m*3 -1 C 0 km/h
1931 22-03-2003 08:36:15 -0.9 C 2.96 g/m*3 -0.9 C 0 km/h
1932 22-03-2003 08:48:15 -0.4 C 2.92 g/m*3 -0.4 C 0 km/h
1933 22-03-2003 09:00:15 0.3 C 2.97 g/m*3 0.3 C 0 km/h
1934 22-03-2003 09:12:15 1.5 C 2.79 g/m*3 1.5 C 0 km/h
1935 22-03-2003 09:24:15 2.3 C 2.78 g/m*3 2.3 C 0 km/h
1936 22-03-2003 09:36:14 2.5 C 2.87 g/m*3 2.5 C 0 km/h
1937 22-03-2003 09:48:14 3.2 C 2.89 g/m*3 3.2 C 0 km/h
1938 22-03-2003 10:00:14 4 C 2.86 g/m*3 4 C 0 km/h
1939 22-03-2003 10:12:15 4.7 C 2.66 g/m*3 4.7 C 0 km/h
1940 22-03-2003 10:24:15 5.4 C 2.58 g/m*3 5.4 C 0 km/h
1941 22-03-2003 10:36:15 5.8 C 2.51 g/m*3 5.8 C 0 km/h
1942 22-03-2003 10:48:15 6.4 C 2.38 g/m*3 6.4 C 0 km/h
1943 22-03-2003 11:00:15 7.3 C 2.37 g/m*3 7.3 C 0 km/h
1944 22-03-2003 11:12:18 8 C 2.4 g/m*3 8 C 0 km/h
1945 22-03-2003 11:24:18 8.4 C 1.78 g/m*3 8.4 C 0 km/h
1946 22-03-2003 11:36:19 9.3 C 1.8 g/m*3 9.3 C 0 km/h
1947 22-03-2003 11:48:19 10 C 1.88 g/m*3 10 C 0 km/h
1948 22-03-2003 12:00:19 10.7 C 1.96 g/m*3 10.7 C 0 km/h
1949 22-03-2003 12:12:18 11.6 C 2.08 g/m*3 11.6 C 0 km/h
1950 22-03-2003 12:24:18 12 C 2.13 g/m*3 12 C 0 km/h
Sensor: Nr:Datum:Temp:Abs-Feuchte:Windchill:Wind:
Aussen-T/F 1951 22-03-2003 12:36:19 12.5 C 2.2 g/m*3 12.5 C 0 km/h
1952 22-03-2003 12:48:19 12.5 C 2.2 g/m*3 12.5 C 0 km/h
1953 22-03-2003 13:00:19 12.7 C 2.23 g/m*3 12.7 C 0 km/h
1954 22-03-2003 13:12:18 12.7 C 2.23 g/m*3 12.7 C 0 km/h
1955 22-03-2003 13:24:18 12.7 C 2.23 g/m*3 12.7 C 0 km/h
1956 22-03-2003 13:36:17 13.4 C 2.32 g/m*3 13.4 C 0 km/h
1957 22-03-2003 13:48:17 13.8 C 2.38 g/m*3 13.8 C 0 km/h
1958 22-03-2003 14:00:17 14.3 C 2.46 g/m*3 14.3 C 0 km/h
1959 22-03-2003 14:12:18 14.6 C 2.5 g/m*3 14.6 C 0 km/h
1960 22-03-2003 14:24:18 15.5 C 2.64 g/m*3 15.5 C 0 km/h
1961 22-03-2003 14:36:18 15.7 C 2.68 g/m*3 15.7 C 0 km/h
1962 22-03-2003 14:48:18 16.5 C 2.81 g/m*3 16.5 C 0 km/h
1963 22-03-2003 15:00:18 17 C 2.89 g/m*3 17 C 0 km/h
1964 22-03-2003 15:12:18 17 C 2.89 g/m*3 17 C 0 km/h
1965 22-03-2003 15:24:18 17.7 C 3.02 g/m*3 17.7 C 0 km/h
1966 22-03-2003 15:36:17 18 C 3.07 g/m*3 18 C 0 km/h
1967 22-03-2003 15:48:17 18.3 C 3.13 g/m*3 18.3 C 0 km/h
1968 22-03-2003 16:00:17 17.8 C 3.04 g/m*3 17.8 C 0 km/h
1969 22-03-2003 16:12:17 17.8 C 3.04 g/m*3 17.8 C 0 km/h
1970 22-03-2003 16:24:17 17.6 C 3 g/m*3 17.6 C 0 km/h
1971 22-03-2003 16:36:18 16.9 C 2.88 g/m*3 16.9 C 0 km/h
1972 22-03-2003 16:48:18 17.2 C 2.93 g/m*3 17.2 C 0 km/h
1973 22-03-2003 17:00:18 17.2 C 2.93 g/m*3 17.2 C 0 km/h
1974 22-03-2003 17:12:18 17 C 2.89 g/m*3 17 C 0 km/h
1975 22-03-2003 17:24:18 16.4 C 2.79 g/m*3 16.4 C 0 km/h
Sensor: Nr:Datum:Temp:Abs-Feuchte:Windchill:Wind:
Aussen-T/F 1976 22-03-2003 17:36:18 16.7 C 2.84 g/m*3 16.7 C 0 km/h
1977 22-03-2003 17:48:18 16.3 C 2.77 g/m*3 16.3 C 0 km/h
1978 22-03-2003 18:00:18 15.6 C 2.66 g/m*3 15.6 C 0 km/h
1979 22-03-2003 18:12:18 14.7 C 2.52 g/m*3 14.7 C 0 km/h
1980 22-03-2003 18:24:18 13.9 C 2.4 g/m*3 13.9 C 0 km/h
1981 22-03-2003 18:36:18 12.6 C 2.21 g/m*3 12.6 C 0 km/h
1982 22-03-2003 18:48:18 11.1 C 2.01 g/m*3 11.1 C 0 km/h
1983 22-03-2003 19:00:18 10.2 C 1.9 g/m*3 10.2 C 0 km/h
1984 22-03-2003 19:12:17 9.4 C 1.81 g/m*3 9.4 C 0 km/h
1985 22-03-2003 19:24:17 9.1 C 1.77 g/m*3 9.1 C 0 km/h
1986 22-03-2003 19:36:17 9.1 C 1.77 g/m*3 9.1 C 0 km/h
1987 22-03-2003 19:48:17 9.1 C 1.77 g/m*3 9.1 C 0 km/h
1988 22-03-2003 20:00:17 9.1 C 1.77 g/m*3 9.1 C 0 km/h
1989 22-03-2003 20:12:17 9.1 C 1.77 g/m*3 9.1 C 0 km/h
1990 22-03-2003 20:24:17 9.1 C 1.77 g/m*3 9.1 C 0 km/h
1991 22-03-2003 20:36:17 9.1 C 1.77 g/m*3 9.1 C 0 km/h
1992 22-03-2003 20:48:17 9.1 C 1.77 g/m*3 9.1 C 0 km/h
1993 22-03-2003 21:00:17 9.1 C 1.77 g/m*3 9.1 C 0 km/h
1994 22-03-2003 21:13:15 9.1 C 1.77 g/m*3 9.1 C 0 km/h
1995 22-03-2003 21:25:15 6.5 C 2.02 g/m*3 6.5 C 0 km/h
1996 22-03-2003 21:37:15 6.4 C 2.01 g/m*3 6.4 C 0 km/h
1997 22-03-2003 21:49:15 6.3 C 2 g/m*3 6.3 C 0 km/h
1998 22-03-2003 22:01:15 6.3 C 2 g/m*3 6.3 C 0 km/h
1999 22-03-2003 22:13:15 6.3 C 2 g/m*3 6.3 C 0 km/h
2000 22-03-2003 22:25:15 6.3 C 2 g/m*3 6.3 C 0 km/h
Sensor: Nr:Datum:Temp:Abs-Feuchte:Windchill:Wind:
Aussen-T/F 2001 22-03-2003 22:37:15 6.3 C 2 g/m*3 6.3 C 0 km/h
2002 22-03-2003 22:49:15 6.3 C 2 g/m*3 6.3 C 0 km/h
2003 22-03-2003 23:01:15 6.3 C 2 g/m*3 6.3 C 0 km/h
2004 22-03-2003 23:13:15 6.3 C 2 g/m*3 6.3 C 0 km/h
2005 22-03-2003 23:25:15 6.3 C 2 g/m*3 6.3 C 0 km/h
2006 22-03-2003 23:37:15 6.3 C 2 g/m*3 6.3 C 0 km/h
2007 22-03-2003 23:49:15 6.3 C 2 g/m*3 6.3 C 0 km/h
2008 23-03-2003 00:01:15 6.3 C 2 g/m*3 6.3 C 0 km/h
2009 23-03-2003 00:13:15 6.3 C 2 g/m*3 6.3 C 0 km/h
2010 23-03-2003 00:25:15 6.3 C 2 g/m*3 6.3 C 0 km/h
2011 23-03-2003 00:37:15 6.3 C 2 g/m*3 6.3 C 0 km/h
2012 23-03-2003 00:49:15 2.5 C 2.59 g/m*3 2.5 C 0 km/h
2013 23-03-2003 01:01:15 2.5 C 2.41 g/m*3 2.5 C 0 km/h
2014 23-03-2003 01:13:15 2.1 C 2.52 g/m*3 2.1 C 0 km/h
2015 23-03-2003 01:25:15 1.9 C 2.48 g/m*3 1.9 C 0 km/h
2016 23-03-2003 01:37:15 1.6 C 2.6 g/m*3 1.6 C 0 km/h
2017 23-03-2003 01:49:15 1.4 C 2.45 g/m*3 1.4 C 0 km/h
2018 23-03-2003 02:01:15 1.4 C 2.51 g/m*3 1.4 C 0 km/h
2019 23-03-2003 02:13:15 1 C 2.6 g/m*3 1 C 0 km/h
2020 23-03-2003 02:25:15 0.8 C 2.61 g/m*3 0.8 C 0 km/h
2021 23-03-2003 02:37:15 0.7 C 2.49 g/m*3 0.7 C 0 km/h
2022 23-03-2003 02:49:15 0.6 C 2.63 g/m*3 0.6 C 0 km/h
2023 23-03-2003 03:01:15 0.6 C 2.52 g/m*3 0.6 C 0 km/h
2024 23-03-2003 03:13:15 0.5 C 2.51 g/m*3 0.5 C 0 km/h
2025 23-03-2003 03:25:15 0.3 C 2.52 g/m*3 0.3 C 0 km/h
Sensor: Nr:Datum:Temp:Abs-Feuchte:Windchill:Wind:
Aussen-T/F 2026 23-03-2003 03:37:15 0 C 2.57 g/m*3 0 C 0 km/h
2027 23-03-2003 03:49:15 -0.3 C 2.52 g/m*3 -0.3 C 0 km/h
2028 23-03-2003 04:01:15 -0.3 C 2.56 g/m*3 -0.3 C 0 km/h
2029 23-03-2003 04:13:15 -0.6 C 2.56 g/m*3 -0.6 C 0 km/h
2030 23-03-2003 04:25:15 -0.6 C 2.6 g/m*3 -0.6 C 0 km/h
2031 23-03-2003 04:37:15 -0.7 C 2.58 g/m*3 -0.7 C 0 km/h
2032 23-03-2003 04:49:15 -0.8 C 2.7 g/m*3 -0.8 C 0 km/h
2033 23-03-2003 05:01:15 -0.9 C 2.64 g/m*3 -0.9 C 0 km/h
2034 23-03-2003 05:13:15 -1 C 2.71 g/m*3 -1 C 0 km/h
2035 23-03-2003 05:25:15 -1.1 C 2.74 g/m*3 -1.1 C 0 km/h
2036 23-03-2003 05:37:15 -1.3 C 2.74 g/m*3 -1.3 C 0 km/h
2037 23-03-2003 05:49:15 -1.4 C 2.77 g/m*3 -1.4 C 0 km/h
2038 23-03-2003 06:01:15 -1.5 C 2.75 g/m*3 -1.5 C 0 km/h
2039 23-03-2003 06:13:15 -1.6 C 2.73 g/m*3 -1.6 C 0 km/h
2040 23-03-2003 06:25:15 -1.8 C 2.69 g/m*3 -1.8 C 0 km/h
2041 23-03-2003 06:37:15 -1.9 C 2.67 g/m*3 -1.9 C 0 km/h
2042 23-03-2003 06:49:15 -1.8 C 2.69 g/m*3 -1.8 C 0 km/h
2043 23-03-2003 07:01:15 -2.1 C 2.64 g/m*3 -2.1 C 0 km/h
2044 23-03-2003 07:13:15 -2 C 2.74 g/m*3 -2 C 0 km/h
2045 23-03-2003 07:25:15 -2 C 2.74 g/m*3 -2 C 0 km/h
2046 23-03-2003 07:37:15 -2.1 C 2.64 g/m*3 -2.1 C 0 km/h
2047 23-03-2003 07:49:15 -1.8 C 2.65 g/m*3 -1.8 C 0 km/h
2048 23-03-2003 08:01:15 -1.8 C 2.69 g/m*3 -1.8 C 0 km/h
2049 23-03-2003 08:13:15 -1.8 C 2.65 g/m*3 -1.8 C 0 km/h
2050 23-03-2003 08:25:15 -1.6 C 2.69 g/m*3 -1.6 C 0 km/h
Sensor: Nr:Datum:Temp:Abs-Feuchte:Windchill:Wind:
Aussen-T/F 2051 23-03-2003 08:37:15 -1.2 C 2.72 g/m*3 -1.2 C 0 km/h
2052 23-03-2003 08:49:15 -0.8 C 2.8 g/m*3 -0.8 C 0 km/h
2053 23-03-2003 09:01:15 0.2 C 2.9 g/m*3 0.2 C 0 km/h
2054 23-03-2003 09:13:16 1.4 C 2.99 g/m*3 1.4 C 0 km/h
2055 23-03-2003 09:25:16 2.1 C 2.8 g/m*3 2.1 C 0 km/h
2056 23-03-2003 09:37:15 3 C 2.79 g/m*3 3 C 0 km/h
2057 23-03-2003 09:49:15 3.6 C 2.72 g/m*3 3.6 C 0 km/h
2058 23-03-2003 10:01:15 4.9 C 2.7 g/m*3 4.9 C 0 km/h
2059 23-03-2003 10:13:15 5.6 C 2.9 g/m*3 5.6 C 0 km/h
2060 23-03-2003 10:25:15 6.5 C 2.77 g/m*3 6.5 C 0 km/h
2061 23-03-2003 10:37:15 7.6 C 2.74 g/m*3 7.6 C 0 km/h
2062 23-03-2003 10:49:15 8.6 C 2.58 g/m*3 8.6 C 0 km/h
2063 23-03-2003 11:01:15 9.6 C 2.38 g/m*3 9.6 C 0 km/h
2064 23-03-2003 11:13:15 10.7 C 1.96 g/m*3 10.7 C 0 km/h
2065 23-03-2003 11:25:15 10.6 C 1.95 g/m*3 10.6 C 0 km/h
2066 23-03-2003 11:37:16 11.4 C 2.05 g/m*3 11.4 C 0 km/h
2067 23-03-2003 11:49:16 12.3 C 2.17 g/m*3 12.3 C 0 km/h
2068 23-03-2003 12:01:16 13.1 C 2.28 g/m*3 13.1 C 0 km/h
2069 23-03-2003 12:13:14 14.1 C 2.43 g/m*3 14.1 C 0 km/h
2070 23-03-2003 12:25:14 15.2 C 2.6 g/m*3 15.2 C 0 km/h
2071 23-03-2003 12:37:16 15.5 C 2.64 g/m*3 15.5 C 0 km/h
2072 23-03-2003 12:49:16 15.6 C 2.66 g/m*3 15.6 C 0 km/h
2073 23-03-2003 13:01:16 15.8 C 2.69 g/m*3 15.8 C 0 km/h
2074 23-03-2003 13:13:15 15.8 C 2.69 g/m*3 15.8 C 0 km/h
2075 23-03-2003 13:25:15 16.2 C 2.76 g/m*3 16.2 C 0 km/h
Sensor: Nr:Datum:Temp:Abs-Feuchte:Windchill:Wind:
Aussen-T/F 2076 23-03-2003 13:37:15 16.6 C 2.83 g/m*3 16.6 C 0 km/h
2077 23-03-2003 13:49:15 17.2 C 2.93 g/m*3 17.2 C 0 km/h
2078 23-03-2003 14:01:15 17.5 C 2.98 g/m*3 17.5 C 0 km/h
2079 23-03-2003 14:13:15 17.8 C 3.04 g/m*3 17.8 C 0 km/h
2080 23-03-2003 14:25:15 18.5 C 3.16 g/m*3 18.5 C 0 km/h
2081 23-03-2003 14:37:15 18.4 C 3.15 g/m*3 18.4 C 0 km/h
2082 23-03-2003 15:01:15 19.5 C 3.36 g/m*3 19.5 C 0 km/h
2083 23-03-2003 15:13:15 20.2 C 3.5 g/m*3 20.2 C 0 km/h
2084 23-03-2003 15:25:15 20.8 C 3.62 g/m*3 20.8 C 0 km/h
2085 23-03-2003 15:37:15 20.8 C 3.62 g/m*3 20.8 C 0 km/h
2086 23-03-2003 15:49:15 21.1 C 3.69 g/m*3 21.1 C 0 km/h
2087 23-03-2003 16:01:15 21.3 C 3.73 g/m*3 21.3 C 0 km/h
2088 23-03-2003 16:13:15 21.1 C 3.69 g/m*3 21.1 C 0 km/h
2089 23-03-2003 16:25:15 20.7 C 3.6 g/m*3 20.7 C 0 km/h
2090 23-03-2003 16:37:15 20.7 C 3.6 g/m*3 20.7 C 0 km/h
2091 23-03-2003 16:49:15 20.8 C 3.62 g/m*3 20.8 C 0 km/h
2092 23-03-2003 17:01:15 20.7 C 3.6 g/m*3 20.7 C 0 km/h
2093 23-03-2003 17:13:15 20.2 C 3.5 g/m*3 20.2 C 0 km/h
2094 23-03-2003 17:25:15 20 C 3.46 g/m*3 20 C 0 km/h
2095 23-03-2003 17:37:15 19.4 C 3.34 g/m*3 19.4 C 0 km/h
2096 23-03-2003 17:49:15 19.2 C 3.3 g/m*3 19.2 C 0 km/h
2097 23-03-2003 18:01:15 18.7 C 3.2 g/m*3 18.7 C 0 km/h
2098 23-03-2003 18:13:15 17.8 C 3.04 g/m*3 17.8 C 0 km/h
2099 23-03-2003 18:25:15 16.4 C 2.79 g/m*3 16.4 C 0 km/h
2100 23-03-2003 18:37:15 15 C 2.56 g/m*3 15 C 0 km/h
Sensor: Nr:Datum:Temp:Abs-Feuchte:Windchill:Wind:
Aussen-T/F 2101 23-03-2003 18:49:15 13.8 C 2.38 g/m*3 13.8 C 0 km/h
2102 23-03-2003 19:01:15 13 C 2.27 g/m*3 13 C 0 km/h
2103 23-03-2003 19:13:15 12.1 C 2.14 g/m*3 12.1 C 0 km/h
2104 23-03-2003 19:25:15 11.9 C 2.12 g/m*3 11.9 C 0 km/h
2105 23-03-2003 19:37:14 11.4 C 2.05 g/m*3 11.4 C 0 km/h
2106 23-03-2003 19:49:14 11.6 C 2.08 g/m*3 11.6 C 0 km/h
2107 23-03-2003 20:01:14 10.9 C 1.99 g/m*3 10.9 C 0 km/h
2108 23-03-2003 20:13:15 10.5 C 1.94 g/m*3 10.5 C 0 km/h
2109 23-03-2003 20:25:15 9.9 C 2.43 g/m*3 9.9 C 0 km/h
2110 23-03-2003 20:37:59 9.4 C 2.71 g/m*3 9.4 C 0 km/h
2111 23-03-2003 20:49:59 9 C 2.64 g/m*3 9 C 0 km/h
2112 23-03-2003 21:01:13 8.8 C 2.79 g/m*3 8.8 C 0 km/h
2113 23-03-2003 21:13:14 8.2 C 2.93 g/m*3 8.2 C 0 km/h
2114 23-03-2003 21:25:14 8 C 2.98 g/m*3 8 C 0 km/h
2115 23-03-2003 21:38:14 7.5 C 2.88 g/m*3 7.5 C 0 km/h
2116 23-03-2003 21:50:14 7.1 C 2.96 g/m*3 7.1 C 0 km/h
2117 23-03-2003 22:02:14 6.5 C 3 g/m*3 6.5 C 0 km/h
2118 23-03-2003 22:14:14 6.3 C 3.11 g/m*3 6.3 C 0 km/h
2119 23-03-2003 22:26:14 6.1 C 3 g/m*3 6.1 C 0 km/h
2120 23-03-2003 22:38:14 5.9 C 3.03 g/m*3 5.9 C 0 km/h
2121 23-03-2003 22:50:14 5.8 C 3.01 g/m*3 5.8 C 0 km/h
2122 23-03-2003 23:02:14 5.6 C 3.04 g/m*3 5.6 C 0 km/h
2123 23-03-2003 23:14:14 5.4 C 3.07 g/m*3 5.4 C 0 km/h
2124 23-03-2003 23:26:14 5 C 3.06 g/m*3 5 C 0 km/h
2125 23-03-2003 23:38:14 4.8 C 3.02 g/m*3 4.8 C 0 km/h
Sensor: Nr:Datum:Temp:Abs-Feuchte:Windchill:Wind:
Aussen-T/F 2126 23-03-2003 23:50:14 4.6 C 3.04 g/m*3 4.6 C 0 km/h
2127 24-03-2003 00:02:14 4.4 C 3.07 g/m*3 4.4 C 0 km/h
2128 24-03-2003 00:14:14 4.2 C 3.03 g/m*3 4.2 C 0 km/h
2129 24-03-2003 00:26:14 4.1 C 3.01 g/m*3 4.1 C 0 km/h
2130 24-03-2003 00:38:14 3.6 C 2.97 g/m*3 3.6 C 0 km/h
2131 24-03-2003 00:50:14 3.5 C 3.01 g/m*3 3.5 C 0 km/h
2132 24-03-2003 01:02:14 3.3 C 3.03 g/m*3 3.3 C 0 km/h
2133 24-03-2003 01:14:14 2.8 C 3.11 g/m*3 2.8 C 0 km/h
2134 24-03-2003 01:26:14 2.6 C 3.13 g/m*3 2.6 C 0 km/h
2135 24-03-2003 01:38:14 2.4 C 3.14 g/m*3 2.4 C 0 km/h
2136 24-03-2003 01:50:14 2.4 C 3.08 g/m*3 2.4 C 0 km/h
2137 24-03-2003 02:02:14 2.2 C 3.1 g/m*3 2.2 C 0 km/h
2138 24-03-2003 02:14:14 2 C 3.11 g/m*3 2 C 0 km/h
2139 24-03-2003 02:26:14 2.1 C 3.19 g/m*3 2.1 C 0 km/h
2140 24-03-2003 02:38:14 2 C 3.11 g/m*3 2 C 0 km/h
2141 24-03-2003 02:50:14 1.6 C 3.14 g/m*3 1.6 C 0 km/h
2142 24-03-2003 03:02:14 0.9 C 3.09 g/m*3 0.9 C 0 km/h
2143 24-03-2003 03:14:14 1.3 C 3.23 g/m*3 1.3 C 0 km/h
2144 24-03-2003 03:26:14 1 C 3.17 g/m*3 1 C 0 km/h
2145 24-03-2003 03:38:14 1.1 C 3.19 g/m*3 1.1 C 0 km/h
2146 24-03-2003 03:50:14 1 C 3.17 g/m*3 1 C 0 km/h
2147 24-03-2003 04:02:14 1 C 3.22 g/m*3 1 C 0 km/h
2148 24-03-2003 04:14:14 0.8 C 3.17 g/m*3 0.8 C 0 km/h
2149 24-03-2003 04:26:14 0.5 C 3.26 g/m*3 0.5 C 0 km/h
2150 24-03-2003 04:38:14 0.5 C 3.36 g/m*3 0.5 C 0 km/h
Sensor: Nr:Datum:Temp:Abs-Feuchte:Windchill:Wind:
Aussen-T/F 2151 24-03-2003 04:50:14 0.3 C 3.31 g/m*3 0.3 C 0 km/h
2152 24-03-2003 05:02:14 0 C 3.25 g/m*3 0 C 0 km/h
2153 24-03-2003 05:14:14 -0.2 C 3.2 g/m*3 -0.2 C 0 km/h
2154 24-03-2003 05:26:14 -0.3 C 3.18 g/m*3 -0.3 C 0 km/h
2155 24-03-2003 05:38:14 -0.3 C 3.23 g/m*3 -0.3 C 0 km/h
2156 24-03-2003 05:50:14 -0.4 C 3.2 g/m*3 -0.4 C 0 km/h
2157 24-03-2003 06:02:14 -0.4 C 3.25 g/m*3 -0.4 C 0 km/h
2158 24-03-2003 06:14:14 -0.6 C 3.16 g/m*3 -0.6 C 0 km/h
2159 24-03-2003 06:26:14 -0.8 C 3.12 g/m*3 -0.8 C 0 km/h
2160 24-03-2003 06:38:14 -0.9 C 3.14 g/m*3 -0.9 C 0 km/h
2161 24-03-2003 06:50:14 -0.6 C 3.25 g/m*3 -0.6 C 0 km/h
2162 24-03-2003 07:02:14 -0.6 C 3.21 g/m*3 -0.6 C 0 km/h
2163 24-03-2003 07:14:14 -0.4 C 3.35 g/m*3 -0.4 C 0 km/h
2164 24-03-2003 07:26:14 -0.5 C 3.28 g/m*3 -0.5 C 0 km/h
2165 24-03-2003 07:38:14 -0.5 C 3.28 g/m*3 -0.5 C 0 km/h
2166 24-03-2003 07:50:14 -0.3 C 3.32 g/m*3 -0.3 C 0 km/h
2167 24-03-2003 08:02:14 -0.2 C 3.35 g/m*3 -0.2 C 0 km/h
2168 24-03-2003 08:14:14 0.1 C 3.37 g/m*3 0.1 C 0 km/h
2169 24-03-2003 08:26:14 0.4 C 3.44 g/m*3 0.4 C 0 km/h
2170 24-03-2003 08:38:15 0.9 C 3.51 g/m*3 0.9 C 0 km/h
2171 24-03-2003 08:50:15 1.3 C 3.44 g/m*3 1.3 C 0 km/h
2172 24-03-2003 09:02:15 2.3 C 3.46 g/m*3 2.3 C 0 km/h
2173 24-03-2003 09:14:15 3.2 C 3.43 g/m*3 3.2 C 0 km/h
2174 24-03-2003 09:26:15 3.9 C 3.54 g/m*3 3.9 C 0 km/h
2175 24-03-2003 09:38:15 4.6 C 3.57 g/m*3 4.6 C 0 km/h
Sensor: Nr:Datum:Temp:Abs-Feuchte:Windchill:Wind:
Aussen-T/F 2176 24-03-2003 09:50:15 5.5 C 3.51 g/m*3 5.5 C 0 km/h
2177 24-03-2003 10:02:15 6.2 C 3.6 g/m*3 6.2 C 0 km/h
2178 24-03-2003 10:14:15 7.4 C 3.66 g/m*3 7.4 C 0 km/h
2179 24-03-2003 10:26:15 8.3 C 3.71 g/m*3 8.3 C 0 km/h
2180 24-03-2003 10:38:16 9.1 C 3.73 g/m*3 9.1 C 0 km/h
2181 24-03-2003 10:50:16 10.1 C 3.88 g/m*3 10.1 C 0 km/h
2182 24-03-2003 11:02:14 11.5 C 3.93 g/m*3 11.5 C 0 km/h
2183 24-03-2003 11:14:14 12.5 C 3.85 g/m*3 12.5 C 0 km/h
2184 24-03-2003 11:26:14 13.5 C 4.09 g/m*3 13.5 C 0 km/h
2185 24-03-2003 11:38:16 14.5 C 3.73 g/m*3 14.5 C 0 km/h
2186 24-03-2003 11:50:16 15.4 C 3.68 g/m*3 15.4 C 0 km/h
2187 24-03-2003 12:02:14 16.6 C 3.81 g/m*3 16.6 C 0 km/h
2188 24-03-2003 12:14:14 17.7 C 3.92 g/m*3 17.7 C 0 km/h
2189 24-03-2003 12:26:14 18.5 C 3.8 g/m*3 18.5 C 0 km/h
2190 24-03-2003 12:38:14 18.9 C 3.73 g/m*3 18.9 C 0 km/h
2191 24-03-2003 12:50:14 18.9 C 3.73 g/m*3 18.9 C 0 km/h
2192 24-03-2003 13:02:15 19 C 3.59 g/m*3 19 C 0 km/h
2193 24-03-2003 13:14:15 19.1 C 3.44 g/m*3 19.1 C 0 km/h
2194 24-03-2003 13:26:15 19.2 C 3.46 g/m*3 19.2 C 0 km/h
2195 24-03-2003 13:38:15 19.7 C 3.57 g/m*3 19.7 C 0 km/h
2196 24-03-2003 13:50:15 20.1 C 3.48 g/m*3 20.1 C 0 km/h
2197 24-03-2003 14:02:15 20.2 C 3.67 g/m*3 20.2 C 0 km/h
2198 24-03-2003 14:14:15 20.4 C 3.54 g/m*3 20.4 C 0 km/h
2199 24-03-2003 14:26:15 20.5 C 3.56 g/m*3 20.5 C 0 km/h
2200 24-03-2003 14:38:14 20.8 C 3.62 g/m*3 20.8 C 0 km/h
Sensor: Nr:Datum:Temp:Abs-Feuchte:Windchill:Wind:
Aussen-T/F 2201 24-03-2003 14:50:14 21.2 C 3.71 g/m*3 21.2 C 0 km/h
2202 24-03-2003 15:02:14 21.3 C 3.73 g/m*3 21.3 C 0 km/h
2203 24-03-2003 15:14:14 21.6 C 3.79 g/m*3 21.6 C 0 km/h
2204 24-03-2003 15:26:14 21.7 C 3.82 g/m*3 21.7 C 0 km/h
2205 24-03-2003 15:38:14 21.7 C 3.82 g/m*3 21.7 C 0 km/h
2206 24-03-2003 15:50:14 21.7 C 3.82 g/m*3 21.7 C 0 km/h
2207 24-03-2003 16:02:14 22 C 3.88 g/m*3 22 C 0 km/h
2208 24-03-2003 16:14:14 21.7 C 3.82 g/m*3 21.7 C 0 km/h
2209 24-03-2003 16:26:14 21.6 C 3.79 g/m*3 21.6 C 0 km/h
2210 24-03-2003 16:38:14 21.6 C 3.79 g/m*3 21.6 C 0 km/h
2211 24-03-2003 16:50:14 21.6 C 3.79 g/m*3 21.6 C 0 km/h
2212 24-03-2003 17:02:15 21.5 C 3.77 g/m*3 21.5 C 0 km/h
2213 24-03-2003 17:14:15 21.3 C 3.73 g/m*3 21.3 C 0 km/h
2214 24-03-2003 17:26:15 21 C 3.66 g/m*3 21 C 0 km/h
2215 24-03-2003 17:38:15 20.8 C 3.62 g/m*3 20.8 C 0 km/h
2216 24-03-2003 17:50:15 20.7 C 3.78 g/m*3 20.7 C 0 km/h
2217 24-03-2003 18:02:14 20.2 C 4.02 g/m*3 20.2 C 0 km/h
2218 24-03-2003 18:14:14 19.5 C 4.2 g/m*3 19.5 C 0 km/h
2219 24-03-2003 18:26:14 18.2 C 4.51 g/m*3 18.2 C 0 km/h
2220 24-03-2003 18:38:13 17.1 C 4.51 g/m*3 17.1 C 0 km/h
2221 24-03-2003 18:50:13 16.2 C 4.41 g/m*3 16.2 C 0 km/h
2222 24-03-2003 19:02:14 15.8 C 4.58 g/m*3 15.8 C 0 km/h
2223 24-03-2003 19:14:14 15.5 C 4.63 g/m*3 15.5 C 0 km/h
2224 24-03-2003 19:26:14 15.6 C 4.65 g/m*3 15.6 C 0 km/h
2225 24-03-2003 19:38:14 15.2 C 4.67 g/m*3 15.2 C 0 km/h
Sensor: Nr:Datum:Temp:Abs-Feuchte:Windchill:Wind:
Aussen-T/F 2226 24-03-2003 19:50:14 15.2 C 4.67 g/m*3 15.2 C 0 km/h
2227 24-03-2003 20:02:14 14.6 C 4.88 g/m*3 14.6 C 0 km/h
2228 24-03-2003 20:14:14 14 C 4.82 g/m*3 14 C 0 km/h
2229 24-03-2003 20:26:14 13.6 C 4.83 g/m*3 13.6 C 0 km/h
2230 24-03-2003 20:38:14 13.2 C 4.82 g/m*3 13.2 C 0 km/h
2231 24-03-2003 20:50:14 13.1 C 4.91 g/m*3 13.1 C 0 km/h
2232 24-03-2003 21:02:15 12.9 C 4.85 g/m*3 12.9 C 0 km/h
2233 24-03-2003 21:14:15 12.5 C 4.84 g/m*3 12.5 C 0 km/h
2234 24-03-2003 21:26:15 12.2 C 4.86 g/m*3 12.2 C 0 km/h
2235 24-03-2003 21:38:13 11.8 C 4.95 g/m*3 11.8 C 0 km/h
2236 24-03-2003 21:50:13 11.9 C 4.87 g/m*3 11.9 C 0 km/h
2237 24-03-2003 22:03:16 11.8 C 4.84 g/m*3 11.8 C 0 km/h
2238 24-03-2003 22:15:16 11.4 C 4.82 g/m*3 11.4 C 0 km/h
2239 24-03-2003 22:27:16 11 C 4.8 g/m*3 11 C 0 km/h
2240 24-03-2003 22:39:16 10.8 C 4.94 g/m*3 10.8 C 0 km/h
2241 24-03-2003 22:51:16 10.2 C 4.95 g/m*3 10.2 C 0 km/h
2242 24-03-2003 23:03:16 9.8 C 5.01 g/m*3 9.8 C 0 km/h
2243 24-03-2003 23:15:16 9.9 C 5.04 g/m*3 9.9 C 0 km/h
2244 24-03-2003 23:27:16 9.6 C 4.95 g/m*3 9.6 C 0 km/h
2245 24-03-2003 23:39:16 9.3 C 4.94 g/m*3 9.3 C 0 km/h
2246 24-03-2003 23:51:16 9.1 C 4.97 g/m*3 9.1 C 0 km/h
2247 25-03-2003 00:03:16 9 C 4.94 g/m*3 9 C 0 km/h
2248 25-03-2003 00:15:16 8.6 C 4.98 g/m*3 8.6 C 0 km/h
2249 25-03-2003 00:27:16 8.5 C 5.04 g/m*3 8.5 C 0 km/h
2250 25-03-2003 00:39:16 8.4 C 5.01 g/m*3 8.4 C 0 km/h
Sensor: Nr:Datum:Temp:Abs-Feuchte:Windchill:Wind:
Aussen-T/F 2251 25-03-2003 00:51:16 8.1 C 4.99 g/m*3 8.1 C 0 km/h
2252 25-03-2003 01:03:16 7.9 C 5.17 g/m*3 7.9 C 0 km/h
2253 25-03-2003 01:15:16 7.8 C 5.14 g/m*3 7.8 C 0 km/h
2254 25-03-2003 01:27:16 7.6 C 5.16 g/m*3 7.6 C 0 km/h
2255 25-03-2003 01:39:16 7.5 C 5.12 g/m*3 7.5 C 0 km/h
2256 25-03-2003 01:51:16 7.5 C 5.04 g/m*3 7.5 C 0 km/h
2257 25-03-2003 02:03:16 7.5 C 5.12 g/m*3 7.5 C 0 km/h
2258 25-03-2003 02:15:16 7.7 C 5.11 g/m*3 7.7 C 0 km/h
2259 25-03-2003 02:27:16 7.9 C 5.09 g/m*3 7.9 C 0 km/h
2260 25-03-2003 02:39:16 7.9 C 5.09 g/m*3 7.9 C 0 km/h
2261 25-03-2003 02:51:16 8.2 C 5.11 g/m*3 8.2 C 0 km/h
2262 25-03-2003 03:03:16 8.2 C 5.11 g/m*3 8.2 C 0 km/h
2263 25-03-2003 03:15:16 8.4 C 5.17 g/m*3 8.4 C 0 km/h
2264 25-03-2003 03:27:16 8.4 C 5.17 g/m*3 8.4 C 0 km/h
2265 25-03-2003 03:39:16 8.3 C 5.23 g/m*3 8.3 C 0 km/h
2266 25-03-2003 03:51:16 8.2 C 5.19 g/m*3 8.2 C 0 km/h
2267 25-03-2003 04:03:16 8.2 C 5.19 g/m*3 8.2 C 0 km/h
2268 25-03-2003 04:15:16 8.1 C 5.16 g/m*3 8.1 C 0 km/h
2269 25-03-2003 04:27:16 8.1 C 5.24 g/m*3 8.1 C 0 km/h
2270 25-03-2003 04:39:16 8.1 C 5.24 g/m*3 8.1 C 0 km/h
2271 25-03-2003 04:51:16 8.1 C 5.24 g/m*3 8.1 C 0 km/h
2272 25-03-2003 05:03:16 8.2 C 5.19 g/m*3 8.2 C 0 km/h
2273 25-03-2003 05:15:16 8.2 C 5.19 g/m*3 8.2 C 0 km/h
2274 25-03-2003 05:27:16 8.1 C 5.24 g/m*3 8.1 C 0 km/h
2275 25-03-2003 05:39:16 8.1 C 5.24 g/m*3 8.1 C 0 km/h
Sensor: Nr:Datum:Temp:Abs-Feuchte:Windchill:Wind:
Aussen-T/F 2276 25-03-2003 05:51:16 8 C 5.29 g/m*3 8 C 0 km/h
2277 25-03-2003 06:03:16 8 C 5.29 g/m*3 8 C 0 km/h
2278 25-03-2003 06:15:16 7.9 C 5.34 g/m*3 7.9 C 0 km/h
2279 25-03-2003 06:27:16 7.9 C 5.34 g/m*3 7.9 C 0 km/h
2280 25-03-2003 06:39:16 8 C 5.29 g/m*3 8 C 0 km/h
2281 25-03-2003 06:51:16 8.1 C 5.33 g/m*3 8.1 C 0 km/h
2282 25-03-2003 07:03:16 8.2 C 5.44 g/m*3 8.2 C 0 km/h
2283 25-03-2003 07:15:16 8 C 5.37 g/m*3 8 C 0 km/h
2284 25-03-2003 07:27:16 8.1 C 5.41 g/m*3 8.1 C 0 km/h
2285 25-03-2003 07:39:16 8.3 C 5.48 g/m*3 8.3 C 0 km/h
2286 25-03-2003 07:51:16 8.6 C 5.5 g/m*3 8.6 C 0 km/h
2287 25-03-2003 08:03:16 8.6 C 5.5 g/m*3 8.6 C 0 km/h
2288 25-03-2003 08:15:16 8.7 C 5.53 g/m*3 8.7 C 0 km/h
2289 25-03-2003 08:27:16 9.1 C 5.5 g/m*3 9.1 C 0 km/h
2290 25-03-2003 08:39:16 9.5 C 5.55 g/m*3 9.5 C 0 km/h
2291 25-03-2003 08:51:16 9.6 C 5.5 g/m*3 9.6 C 0 km/h
2292 25-03-2003 09:03:15 9.8 C 5.57 g/m*3 9.8 C 0 km/h
2293 25-03-2003 09:15:15 9.7 C 5.53 g/m*3 9.7 C 0 km/h
2294 25-03-2003 09:27:15 10.1 C 5.58 g/m*3 10.1 C 0 km/h
2295 25-03-2003 09:39:15 10.4 C 5.49 g/m*3 10.4 C 0 km/h
2296 25-03-2003 09:51:15 11 C 5.51 g/m*3 11 C 0 km/h
2297 25-03-2003 10:03:16 11.6 C 5.72 g/m*3 11.6 C 0 km/h
2298 25-03-2003 10:15:16 12 C 5.54 g/m*3 12 C 0 km/h
2299 25-03-2003 10:27:16 12.7 C 5.68 g/m*3 12.7 C 0 km/h
2300 25-03-2003 10:39:15 13.2 C 5.74 g/m*3 13.2 C 0 km/h
Sensor: Nr:Datum:Temp:Abs-Feuchte:Windchill:Wind:
Aussen-T/F 2301 25-03-2003 10:51:15 13.9 C 5.63 g/m*3 13.9 C 0 km/h
2302 25-03-2003 11:03:15 14 C 5.43 g/m*3 14 C 0 km/h
2303 25-03-2003 11:15:15 14 C 5.55 g/m*3 14 C 0 km/h
2304 25-03-2003 11:27:15 14.5 C 5.72 g/m*3 14.5 C 0 km/h
2305 25-03-2003 11:39:16 14.9 C 5.86 g/m*3 14.9 C 0 km/h
2306 25-03-2003 11:51:16 14.8 C 5.83 g/m*3 14.8 C 0 km/h
2307 25-03-2003 12:03:16 14.7 C 5.92 g/m*3 14.7 C 0 km/h
2308 25-03-2003 12:15:16 14.5 C 5.72 g/m*3 14.5 C 0 km/h
2309 25-03-2003 12:27:16 13.5 C 6.43 g/m*3 13.5 C 0 km/h
2310 25-03-2003 12:39:15 13.7 C 6.16 g/m*3 13.7 C 0 km/h
2311 25-03-2003 12:51:15 14.5 C 6.22 g/m*3 14.5 C 0 km/h
2312 25-03-2003 13:03:15 15.3 C 6.14 g/m*3 15.3 C 0 km/h
2313 25-03-2003 13:15:15 16 C 5.99 g/m*3 16 C 0 km/h
2314 25-03-2003 13:27:15 17 C 6.08 g/m*3 17 C 0 km/h
2315 25-03-2003 13:39:15 18.3 C 6.25 g/m*3 18.3 C 0 km/h
2316 25-03-2003 13:51:15 19.4 C 6.34 g/m*3 19.4 C 0 km/h
2317 25-03-2003 14:03:15 19.6 C 6.25 g/m*3 19.6 C 0 km/h
2318 25-03-2003 14:15:15 20.3 C 6.51 g/m*3 20.3 C 0 km/h
2319 25-03-2003 14:27:15 21.3 C 6.34 g/m*3 21.3 C 0 km/h
2320 25-03-2003 14:39:15 22.1 C 6.05 g/m*3 22.1 C 0 km/h
2321 25-03-2003 14:51:15 21.9 C 6.18 g/m*3 21.9 C 0 km/h
2322 25-03-2003 15:03:15 20.6 C 6.26 g/m*3 20.6 C 0 km/h
2323 25-03-2003 15:15:15 21.3 C 6.34 g/m*3 21.3 C 0 km/h
2324 25-03-2003 15:27:15 22.5 C 6.19 g/m*3 22.5 C 0 km/h
2325 25-03-2003 15:39:15 23 C 6.17 g/m*3 23 C 0 km/h
Sensor: Nr:Datum:Temp:Abs-Feuchte:Windchill:Wind:
Aussen-T/F 2326 25-03-2003 15:51:15 22.4 C 5.96 g/m*3 22.4 C 0 km/h
2327 25-03-2003 16:03:15 21.3 C 6.15 g/m*3 21.3 C 0 km/h
2328 25-03-2003 16:15:15 20.9 C 6.56 g/m*3 20.9 C 0 km/h
2329 25-03-2003 16:27:15 19.6 C 6.42 g/m*3 19.6 C 0 km/h
2330 25-03-2003 16:39:14 19 C 6.52 g/m*3 19 C 0 km/h
2331 25-03-2003 16:51:14 18.4 C 6.61 g/m*3 18.4 C 0 km/h
2332 25-03-2003 17:03:15 18 C 6.6 g/m*3 18 C 0 km/h
2333 25-03-2003 17:15:15 17.4 C 6.82 g/m*3 17.4 C 0 km/h
2334 25-03-2003 17:27:15 16.1 C 7.4 g/m*3 16.1 C 0 km/h
2335 25-03-2003 17:39:15 16 C 7.9 g/m*3 16 C 0 km/h
2336 25-03-2003 17:51:15 15.8 C 8.21 g/m*3 15.8 C 0 km/h
2337 25-03-2003 18:15:14 15 C 8.59 g/m*3 15 C 0 km/h
2338 25-03-2003 18:27:14 15.2 C 8.18 g/m*3 15.2 C 0 km/h
2339 25-03-2003 18:39:15 14.9 C 8.28 g/m*3 14.9 C 0 km/h
2340 25-03-2003 18:51:15 14.6 C 8.38 g/m*3 14.6 C 0 km/h
2341 25-03-2003 19:03:14 14 C 8.08 g/m*3 14 C 0 km/h
2342 25-03-2003 19:15:14 13.5 C 7.95 g/m*3 13.5 C 0 km/h
2343 25-03-2003 19:27:14 13.2 C 7.92 g/m*3 13.2 C 0 km/h
2344 25-03-2003 19:39:14 13.2 C 7.69 g/m*3 13.2 C 0 km/h
2345 25-03-2003 19:51:14 13.4 C 7.67 g/m*3 13.4 C 0 km/h
2346 25-03-2003 20:03:15 13.3 C 7.74 g/m*3 13.3 C 0 km/h
2347 25-03-2003 20:15:15 13.4 C 7.79 g/m*3 13.4 C 0 km/h
2348 25-03-2003 20:27:15 13.3 C 7.63 g/m*3 13.3 C 0 km/h
2349 25-03-2003 20:39:13 13 C 7.48 g/m*3 13 C 0 km/h
2350 25-03-2003 20:51:13 12.7 C 7.57 g/m*3 12.7 C 0 km/h
Sensor: Nr:Datum:Temp:Abs-Feuchte:Windchill:Wind:
Aussen-T/F 2351 25-03-2003 21:03:15 12.4 C 7.54 g/m*3 12.4 C 0 km/h
2352 25-03-2003 21:15:15 12.3 C 7.49 g/m*3 12.3 C 0 km/h
2353 25-03-2003 21:27:15 12.4 C 7.65 g/m*3 12.4 C 0 km/h
2354 25-03-2003 21:39:15 12.2 C 7.99 g/m*3 12.2 C 0 km/h
2355 25-03-2003 21:51:15 12.2 C 8.2 g/m*3 12.2 C 0 km/h
2356 25-03-2003 22:04:15 12.1 C 8.26 g/m*3 12.1 C 0 km/h
2357 25-03-2003 22:16:15 12.2 C 8.42 g/m*3 12.2 C 0 km/h
2358 25-03-2003 22:28:15 12 C 8.42 g/m*3 12 C 0 km/h
2359 25-03-2003 22:40:15 11.9 C 8.37 g/m*3 11.9 C 0 km/h
2360 25-03-2003 22:52:15 11.7 C 8.58 g/m*3 11.7 C 0 km/h
2361 25-03-2003 23:04:15 11.8 C 8.63 g/m*3 11.8 C 0 km/h
2362 25-03-2003 23:16:15 11.7 C 8.47 g/m*3 11.7 C 0 km/h
2363 25-03-2003 23:28:15 11.4 C 8.31 g/m*3 11.4 C 0 km/h
2364 25-03-2003 23:40:15 11.2 C 8.31 g/m*3 11.2 C 0 km/h
2365 25-03-2003 23:52:15 11.1 C 8.06 g/m*3 11.1 C 0 km/h
2366 26-03-2003 00:04:15 11.1 C 7.96 g/m*3 11.1 C 0 km/h
2367 26-03-2003 00:16:15 10.8 C 8.01 g/m*3 10.8 C 0 km/h
2368 26-03-2003 00:28:15 10.8 C 8.11 g/m*3 10.8 C 0 km/h
2369 26-03-2003 00:40:15 10.6 C 7.81 g/m*3 10.6 C 0 km/h
2370 26-03-2003 00:52:15 10.2 C 7.61 g/m*3 10.2 C 0 km/h
2371 26-03-2003 01:04:15 10.1 C 7.47 g/m*3 10.1 C 0 km/h
2372 26-03-2003 01:16:15 10.1 C 7.66 g/m*3 10.1 C 0 km/h
2373 26-03-2003 01:28:15 10.3 C 7.76 g/m*3 10.3 C 0 km/h
2374 26-03-2003 01:40:15 10.4 C 7.61 g/m*3 10.4 C 0 km/h
2375 26-03-2003 01:52:15 10.4 C 7.61 g/m*3 10.4 C 0 km/h
Sensor: Nr:Datum:Temp:Abs-Feuchte:Windchill:Wind:
Aussen-T/F 2376 26-03-2003 02:04:15 9.9 C 7.66 g/m*3 9.9 C 0 km/h
2377 26-03-2003 02:16:15 9.9 C 7.84 g/m*3 9.9 C 0 km/h
2378 26-03-2003 02:28:15 9.6 C 7.69 g/m*3 9.6 C 0 km/h
2379 26-03-2003 02:40:15 9.5 C 7.74 g/m*3 9.5 C 0 km/h
2380 26-03-2003 02:52:15 9.5 C 7.74 g/m*3 9.5 C 0 km/h
2381 26-03-2003 03:04:15 9.3 C 7.55 g/m*3 9.3 C 0 km/h
2382 26-03-2003 03:16:15 9.3 C 7.55 g/m*3 9.3 C 0 km/h
2383 26-03-2003 03:28:15 9.3 C 7.55 g/m*3 9.3 C 0 km/h
2384 26-03-2003 03:40:15 9.1 C 7.36 g/m*3 9.1 C 0 km/h
2385 26-03-2003 03:52:15 9 C 7.32 g/m*3 9 C 0 km/h
2386 26-03-2003 04:04:15 8.9 C 7.45 g/m*3 8.9 C 0 km/h
2387 26-03-2003 04:16:15 8.9 C 7.53 g/m*3 8.9 C 0 km/h
2388 26-03-2003 04:28:15 9 C 7.58 g/m*3 9 C 0 km/h
2389 26-03-2003 04:40:15 8.5 C 7.43 g/m*3 8.5 C 0 km/h
2390 26-03-2003 04:52:15 8.4 C 7.38 g/m*3 8.4 C 0 km/h
2391 26-03-2003 05:04:15 8.4 C 7.38 g/m*3 8.4 C 0 km/h
2392 26-03-2003 05:16:15 8 C 7.19 g/m*3 8 C 0 km/h
2393 26-03-2003 05:28:15 7.8 C 7.26 g/m*3 7.8 C 0 km/h
2394 26-03-2003 05:40:15 7.4 C 7.08 g/m*3 7.4 C 0 km/h
2395 26-03-2003 05:52:15 7.2 C 7.06 g/m*3 7.2 C 0 km/h
2396 26-03-2003 06:04:15 7.1 C 7.1 g/m*3 7.1 C 0 km/h
2397 26-03-2003 06:16:15 7 C 7.13 g/m*3 7 C 0 km/h
2398 26-03-2003 06:28:15 6.9 C 7.16 g/m*3 6.9 C 0 km/h
2399 26-03-2003 06:40:15 6.9 C 7.24 g/m*3 6.9 C 0 km/h
2400 26-03-2003 06:52:15 7.1 C 7.33 g/m*3 7.1 C 0 km/h
Sensor: Nr:Datum:Temp:Abs-Feuchte:Windchill:Wind:
Aussen-T/F 2401 26-03-2003 07:04:15 7.2 C 7.3 g/m*3 7.2 C 0 km/h
2402 26-03-2003 07:16:15 7.6 C 7.49 g/m*3 7.6 C 0 km/h
2403 26-03-2003 07:28:15 8 C 7.61 g/m*3 8 C 0 km/h
2404 26-03-2003 07:40:15 8.3 C 7.67 g/m*3 8.3 C 0 km/h
2405 26-03-2003 07:52:15 8.3 C 7.42 g/m*3 8.3 C 0 km/h
2406 26-03-2003 08:04:14 8.5 C 7.34 g/m*3 8.5 C 0 km/h
2407 26-03-2003 08:16:14 8.7 C 7.44 g/m*3 8.7 C 0 km/h
2408 26-03-2003 08:28:14 8.9 C 7.45 g/m*3 8.9 C 0 km/h
2409 26-03-2003 08:40:16 9.2 C 7.59 g/m*3 9.2 C 0 km/h
2410 26-03-2003 08:52:16 9.6 C 7.69 g/m*3 9.6 C 0 km/h
2411 26-03-2003 09:04:15 10 C 7.61 g/m*3 10 C 0 km/h
2412 26-03-2003 09:16:15 10.3 C 7.66 g/m*3 10.3 C 0 km/h
2413 26-03-2003 09:28:15 10.7 C 7.76 g/m*3 10.7 C 0 km/h
2414 26-03-2003 09:40:16 11 C 7.71 g/m*3 11 C 0 km/h
2415 26-03-2003 09:52:16 11.4 C 7.7 g/m*3 11.4 C 0 km/h
2416 26-03-2003 10:04:15 11.4 C 7.7 g/m*3 11.4 C 0 km/h
2417 26-03-2003 10:16:15 11.3 C 7.65 g/m*3 11.3 C 0 km/h
2418 26-03-2003 10:28:15 11.7 C 7.74 g/m*3 11.7 C 0 km/h
2419 26-03-2003 10:40:16 13.1 C 7.76 g/m*3 13.1 C 0 km/h
2420 26-03-2003 10:52:16 14.5 C 7.46 g/m*3 14.5 C 0 km/h
2421 26-03-2003 11:04:14 15.3 C 7.18 g/m*3 15.3 C 0 km/h
2422 26-03-2003 11:16:14 16.8 C 7.29 g/m*3 16.8 C 0 km/h
2423 26-03-2003 11:28:14 17.4 C 6.97 g/m*3 17.4 C 0 km/h
2424 26-03-2003 11:40:15 17.1 C 6.84 g/m*3 17.1 C 0 km/h
2425 26-03-2003 11:52:15 16.2 C 7.03 g/m*3 16.2 C 0 km/h
Sensor: Nr:Datum:Temp:Abs-Feuchte:Windchill:Wind:
Aussen-T/F 2426 26-03-2003 12:04:14 16.2 C 7.03 g/m*3 16.2 C 0 km/h
2427 26-03-2003 12:16:14 17.7 C 6.94 g/m*3 17.7 C 0 km/h
2428 26-03-2003 12:28:14 19.4 C 7.17 g/m*3 19.4 C 0 km/h
2429 26-03-2003 12:40:15 20.2 C 6.99 g/m*3 20.2 C 0 km/h
2430 26-03-2003 12:52:15 20.1 C 6.78 g/m*3 20.1 C 0 km/h
2431 26-03-2003 13:04:14 20.2 C 6.99 g/m*3 20.2 C 0 km/h
2432 26-03-2003 13:16:14 19.9 C 7.04 g/m*3 19.9 C 0 km/h
2433 26-03-2003 13:28:14 19.8 C 7 g/m*3 19.8 C 0 km/h
2434 26-03-2003 13:40:16 20.1 C 7.13 g/m*3 20.1 C 0 km/h
2435 26-03-2003 13:52:16 20.4 C 7.08 g/m*3 20.4 C 0 km/h
2436 26-03-2003 14:04:15 19.9 C 7.04 g/m*3 19.9 C 0 km/h
2437 26-03-2003 14:16:15 20 C 7.09 g/m*3 20 C 0 km/h
2438 26-03-2003 14:28:15 19.8 C 7 g/m*3 19.8 C 0 km/h
2439 26-03-2003 14:40:16 19.6 C 6.58 g/m*3 19.6 C 0 km/h
2440 26-03-2003 14:52:16 19.6 C 6.92 g/m*3 19.6 C 0 km/h
2441 26-03-2003 15:04:14 19.3 C 6.8 g/m*3 19.3 C 0 km/h
2442 26-03-2003 15:16:14 18.6 C 6.53 g/m*3 18.6 C 0 km/h
2443 26-03-2003 15:28:14 18.6 C 7 g/m*3 18.6 C 0 km/h
2444 26-03-2003 15:40:14 18 C 6.91 g/m*3 18 C 0 km/h
2445 26-03-2003 15:52:14 17.8 C 6.98 g/m*3 17.8 C 0 km/h
2446 26-03-2003 16:04:15 17.6 C 7.05 g/m*3 17.6 C 0 km/h
2447 26-03-2003 16:16:15 17 C 7.38 g/m*3 17 C 0 km/h
2448 26-03-2003 16:28:15 16.3 C 7.49 g/m*3 16.3 C 0 km/h
2449 26-03-2003 16:40:15 16.3 C 7.63 g/m*3 16.3 C 0 km/h
2450 26-03-2003 16:52:15 16 C 8.04 g/m*3 16 C 0 km/h
Sensor: Nr:Datum:Temp:Abs-Feuchte:Windchill:Wind:
Aussen-T/F 2451 26-03-2003 17:04:15 15.7 C 8.16 g/m*3 15.7 C 0 km/h
2452 26-03-2003 17:16:15 15.5 C 8.46 g/m*3 15.5 C 0 km/h
2453 26-03-2003 17:28:15 15.3 C 7.97 g/m*3 15.3 C 0 km/h
2454 26-03-2003 17:40:15 14.5 C 7.46 g/m*3 14.5 C 0 km/h
2455 26-03-2003 17:52:15 14.6 C 7.63 g/m*3 14.6 C 0 km/h
2456 26-03-2003 18:04:15 13.7 C 7.7 g/m*3 13.7 C 0 km/h
2457 26-03-2003 18:16:15 13.5 C 7.49 g/m*3 13.5 C 0 km/h
2458 26-03-2003 18:28:15 13.3 C 7.63 g/m*3 13.3 C 0 km/h
2459 26-03-2003 18:40:13 13.1 C 7.3 g/m*3 13.1 C 0 km/h
2460 26-03-2003 18:52:05 12.8 C 7.17 g/m*3 12.8 C 0 km/h
2461 26-03-2003 19:04:05 12.7 C 7.01 g/m*3 12.7 C 0 km/h
2462 26-03-2003 19:16:15 12.4 C 7.32 g/m*3 12.4 C 0 km/h
2463 26-03-2003 19:28:15 12.2 C 7.23 g/m*3 12.2 C 0 km/h
2464 26-03-2003 19:40:14 12.2 C 7.23 g/m*3 12.2 C 0 km/h
2465 26-03-2003 19:52:14 12.3 C 7.28 g/m*3 12.3 C 0 km/h
2466 26-03-2003 20:04:14 12.4 C 7.43 g/m*3 12.4 C 0 km/h
2467 26-03-2003 20:16:14 12.2 C 7.34 g/m*3 12.2 C 0 km/h
2468 26-03-2003 20:28:14 12.2 C 7.34 g/m*3 12.2 C 0 km/h
2469 26-03-2003 20:40:13 12.2 C 7.45 g/m*3 12.2 C 0 km/h
2470 26-03-2003 20:52:13 12.1 C 7.29 g/m*3 12.1 C 0 km/h
2471 26-03-2003 21:04:14 12 C 7.35 g/m*3 12 C 0 km/h
2472 26-03-2003 21:16:14 12.1 C 7.4 g/m*3 12.1 C 0 km/h
2473 26-03-2003 21:28:14 12 C 7.46 g/m*3 12 C 0 km/h
2474 26-03-2003 21:40:14 12 C 7.46 g/m*3 12 C 0 km/h
2475 26-03-2003 21:52:14 11.9 C 7.41 g/m*3 11.9 C 0 km/h
Sensor: Nr:Datum:Temp:Abs-Feuchte:Windchill:Wind:
Aussen-T/F 2476 26-03-2003 22:04:14 11.8 C 7.47 g/m*3 11.8 C 0 km/h
2477 26-03-2003 22:16:14 11.5 C 7.33 g/m*3 11.5 C 0 km/h
2478 26-03-2003 22:28:14 11.4 C 7.39 g/m*3 11.4 C 0 km/h
2479 26-03-2003 22:40:00 11.1 C 7.25 g/m*3 11.1 C 0 km/h
2480 26-03-2003 22:52:00 11.1 C 7.35 g/m*3 11.1 C 0 km/h
2481 26-03-2003 23:04:14 11 C 7.31 g/m*3 11 C 0 km/h
2482 26-03-2003 23:16:14 10.8 C 7.31 g/m*3 10.8 C 0 km/h
2483 26-03-2003 23:28:14 10.5 C 7.27 g/m*3 10.5 C 0 km/h
2484 26-03-2003 23:40:14 10.3 C 7.28 g/m*3 10.3 C 0 km/h
2485 26-03-2003 23:52:14 10.2 C 7.23 g/m*3 10.2 C 0 km/h
2486 27-03-2003 00:05:17 10 C 7.24 g/m*3 10 C 0 km/h
2487 27-03-2003 00:17:17 9.7 C 7.28 g/m*3 9.7 C 0 km/h
2488 27-03-2003 00:29:17 9.4 C 7.15 g/m*3 9.4 C 0 km/h
2489 27-03-2003 00:41:17 9.1 C 7.1 g/m*3 9.1 C 0 km/h
2490 27-03-2003 00:53:17 9 C 7.23 g/m*3 9 C 0 km/h
2491 27-03-2003 01:05:17 8.9 C 7.27 g/m*3 8.9 C 0 km/h
2492 27-03-2003 01:17:17 8.4 C 7.04 g/m*3 8.4 C 0 km/h
2493 27-03-2003 01:29:17 8.2 C 7.03 g/m*3 8.2 C 0 km/h
2494 27-03-2003 01:41:17 7.9 C 6.98 g/m*3 7.9 C 0 km/h
2495 27-03-2003 01:53:17 7.7 C 7.05 g/m*3 7.7 C 0 km/h
2496 27-03-2003 02:05:17 7.6 C 7.01 g/m*3 7.6 C 0 km/h
2497 27-03-2003 02:17:17 7.5 C 7.04 g/m*3 7.5 C 0 km/h
2498 27-03-2003 02:29:17 7.3 C 6.95 g/m*3 7.3 C 0 km/h
2499 27-03-2003 02:41:17 7.3 C 7.03 g/m*3 7.3 C 0 km/h
2500 27-03-2003 02:53:17 6.9 C 6.85 g/m*3 6.9 C 0 km/h
Sensor: Nr:Datum:Temp:Abs-Feuchte:Windchill:Wind:
Aussen-T/F 2501 27-03-2003 03:05:17 6.7 C 6.76 g/m*3 6.7 C 0 km/h
2502 27-03-2003 03:17:17 6.5 C 6.67 g/m*3 6.5 C 0 km/h
2503 27-03-2003 03:29:17 6.5 C 6.9 g/m*3 6.5 C 0 km/h
2504 27-03-2003 03:41:17 6.4 C 6.93 g/m*3 6.4 C 0 km/h
2505 27-03-2003 03:53:17 6.5 C 7.05 g/m*3 6.5 C 0 km/h
2506 27-03-2003 04:05:17 6.6 C 7.1 g/m*3 6.6 C 0 km/h
2507 27-03-2003 04:17:17 6.4 C 7.08 g/m*3 6.4 C 0 km/h
2508 27-03-2003 04:29:17 6.5 C 7.05 g/m*3 6.5 C 0 km/h
2509 27-03-2003 04:41:17 6.8 C 7.19 g/m*3 6.8 C 0 km/h
2510 27-03-2003 04:53:17 6.7 C 7.14 g/m*3 6.7 C 0 km/h
2511 27-03-2003 05:05:17 6.7 C 7.07 g/m*3 6.7 C 0 km/h
2512 27-03-2003 05:17:17 6.5 C 6.97 g/m*3 6.5 C 0 km/h
2513 27-03-2003 05:29:17 6.5 C 6.97 g/m*3 6.5 C 0 km/h
2514 27-03-2003 05:41:17 6.6 C 7.1 g/m*3 6.6 C 0 km/h
2515 27-03-2003 05:53:17 6.7 C 7.14 g/m*3 6.7 C 0 km/h
2516 27-03-2003 06:05:17 6.5 C 7.05 g/m*3 6.5 C 0 km/h
2517 27-03-2003 06:17:17 6.5 C 6.97 g/m*3 6.5 C 0 km/h
2518 27-03-2003 06:29:17 6.2 C 6.84 g/m*3 6.2 C 0 km/h
2519 27-03-2003 06:41:17 6.1 C 6.72 g/m*3 6.1 C 0 km/h
2520 27-03-2003 06:53:17 5.7 C 6.62 g/m*3 5.7 C 0 km/h
2521 27-03-2003 07:05:17 5.6 C 6.65 g/m*3 5.6 C 0 km/h
2522 27-03-2003 07:17:17 5.5 C 6.6 g/m*3 5.5 C 0 km/h
2523 27-03-2003 07:29:17 5.5 C 6.67 g/m*3 5.5 C 0 km/h
2524 27-03-2003 07:41:17 5.7 C 6.76 g/m*3 5.7 C 0 km/h
2525 27-03-2003 07:53:17 5.7 C 6.76 g/m*3 5.7 C 0 km/h
Sensor: Nr:Datum:Temp:Abs-Feuchte:Windchill:Wind:
Aussen-T/F 2526 27-03-2003 08:05:16 5.9 C 6.85 g/m*3 5.9 C 0 km/h
2527 27-03-2003 08:17:16 6.1 C 6.87 g/m*3 6.1 C 0 km/h
2528 27-03-2003 08:29:16 6.3 C 6.88 g/m*3 6.3 C 0 km/h
2529 27-03-2003 08:41:16 6.3 C 6.81 g/m*3 6.3 C 0 km/h
2530 27-03-2003 08:53:16 6.5 C 6.82 g/m*3 6.5 C 0 km/h
2531 27-03-2003 09:05:16 6.9 C 6.93 g/m*3 6.9 C 0 km/h
2532 27-03-2003 09:17:16 7.5 C 7.04 g/m*3 7.5 C 0 km/h
2533 27-03-2003 09:29:16 8.2 C 7.03 g/m*3 8.2 C 0 km/h
2534 27-03-2003 09:41:15 8.5 C 7.17 g/m*3 8.5 C 0 km/h
2535 27-03-2003 09:53:15 9.5 C 7.28 g/m*3 9.5 C 0 km/h
2536 27-03-2003 10:05:15 10.4 C 7.13 g/m*3 10.4 C 0 km/h
2537 27-03-2003 10:17:15 10.9 C 7.26 g/m*3 10.9 C 0 km/h
2538 27-03-2003 10:29:15 11.2 C 7.4 g/m*3 11.2 C 0 km/h
2539 27-03-2003 10:41:15 11.6 C 7.59 g/m*3 11.6 C 0 km/h
2540 27-03-2003 10:53:15 12.1 C 7.72 g/m*3 12.1 C 0 km/h
2541 27-03-2003 11:05:15 13.2 C 7.69 g/m*3 13.2 C 0 km/h
2542 27-03-2003 11:17:15 14 C 7.72 g/m*3 14 C 0 km/h
2543 27-03-2003 11:29:15 14.5 C 7.71 g/m*3 14.5 C 0 km/h
2544 27-03-2003 11:41:15 15.4 C 7.88 g/m*3 15.4 C 0 km/h
2545 27-03-2003 11:53:15 16.1 C 7.68 g/m*3 16.1 C 0 km/h
2546 27-03-2003 12:05:16 16.8 C 7.86 g/m*3 16.8 C 0 km/h
2547 27-03-2003 12:17:16 17.9 C 7.63 g/m*3 17.9 C 0 km/h
2548 27-03-2003 12:29:16 18.3 C 7.35 g/m*3 18.3 C 0 km/h
2549 27-03-2003 12:41:16 19.5 C 7.55 g/m*3 19.5 C 0 km/h
2550 27-03-2003 12:53:16 19.7 C 6.96 g/m*3 19.7 C 0 km/h
Sensor: Nr:Datum:Temp:Abs-Feuchte:Windchill:Wind:
Aussen-T/F 2551 27-03-2003 13:05:16 20.1 C 7.13 g/m*3 20.1 C 0 km/h
2552 27-03-2003 13:17:16 20 C 6.74 g/m*3 20 C 0 km/h
2553 27-03-2003 13:29:16 20.4 C 6.37 g/m*3 20.4 C 0 km/h
2554 27-03-2003 13:41:15 21.2 C 6.49 g/m*3 21.2 C 0 km/h
2555 27-03-2003 13:53:15 21.5 C 6.22 g/m*3 21.5 C 0 km/h
2556 27-03-2003 14:05:16 21.6 C 6.07 g/m*3 21.6 C 0 km/h
2557 27-03-2003 14:17:16 22.4 C 5.96 g/m*3 22.4 C 0 km/h
2558 27-03-2003 14:29:16 23.1 C 5.58 g/m*3 23.1 C 0 km/h
2559 27-03-2003 14:41:15 23.9 C 5.41 g/m*3 23.9 C 0 km/h
2560 27-03-2003 14:53:15 23.2 C 5.41 g/m*3 23.2 C 0 km/h
2561 27-03-2003 15:05:15 22.4 C 5.56 g/m*3 22.4 C 0 km/h
2562 27-03-2003 15:17:15 21.6 C 5.12 g/m*3 21.6 C 0 km/h
2563 27-03-2003 15:29:15 20.6 C 5.37 g/m*3 20.6 C 0 km/h
2564 27-03-2003 15:41:15 20.4 C 5.66 g/m*3 20.4 C 0 km/h
2565 27-03-2003 15:53:15 20.7 C 6.12 g/m*3 20.7 C 0 km/h
2566 27-03-2003 16:05:15 20.9 C 5.83 g/m*3 20.9 C 0 km/h
2567 27-03-2003 16:17:15 20.3 C 5.98 g/m*3 20.3 C 0 km/h
2568 27-03-2003 16:29:15 19.5 C 5.87 g/m*3 19.5 C 0 km/h
2569 27-03-2003 16:41:16 19.8 C 5.98 g/m*3 19.8 C 0 km/h
2570 27-03-2003 16:53:16 19.8 C 6.49 g/m*3 19.8 C 0 km/h
2571 27-03-2003 17:05:15 20.1 C 6.43 g/m*3 20.1 C 0 km/h
2572 27-03-2003 17:17:15 20.8 C 6.34 g/m*3 20.8 C 0 km/h
2573 27-03-2003 17:29:15 21.6 C 6.26 g/m*3 21.6 C 0 km/h
2574 27-03-2003 17:41:15 21.2 C 5.74 g/m*3 21.2 C 0 km/h
2575 27-03-2003 17:53:15 20.7 C 6.12 g/m*3 20.7 C 0 km/h
Sensor: Nr:Datum:Temp:Abs-Feuchte:Windchill:Wind:
Aussen-T/F 2576 27-03-2003 18:05:14 20.2 C 6.29 g/m*3 20.2 C 0 km/h
2577 27-03-2003 18:17:14 19.4 C 6.51 g/m*3 19.4 C 0 km/h
2578 27-03-2003 18:29:14 18.1 C 6.33 g/m*3 18.1 C 0 km/h
2579 27-03-2003 18:41:15 17 C 6.22 g/m*3 17 C 0 km/h
2580 27-03-2003 18:53:15 16.3 C 6.1 g/m*3 16.3 C 0 km/h
2581 27-03-2003 19:05:16 15.7 C 6.02 g/m*3 15.7 C 0 km/h
2582 27-03-2003 19:17:16 15.2 C 6.1 g/m*3 15.2 C 0 km/h
2583 27-03-2003 19:29:16 14.5 C 6.22 g/m*3 14.5 C 0 km/h
2584 27-03-2003 19:41:16 14.2 C 6.23 g/m*3 14.2 C 0 km/h
2585 27-03-2003 19:53:16 13.9 C 6.23 g/m*3 13.9 C 0 km/h
2586 27-03-2003 20:05:16 13.6 C 6.36 g/m*3 13.6 C 0 km/h
2587 27-03-2003 20:17:16 13.2 C 6.32 g/m*3 13.2 C 0 km/h
2588 27-03-2003 20:29:16 12.9 C 6.31 g/m*3 12.9 C 0 km/h
2589 27-03-2003 20:41:16 12.5 C 6.27 g/m*3 12.5 C 0 km/h
2590 27-03-2003 20:53:16 12.4 C 6.23 g/m*3 12.4 C 0 km/h
2591 27-03-2003 21:06:16 12.1 C 6.22 g/m*3 12.1 C 0 km/h
2592 27-03-2003 21:30:16 11.5 C 6.4 g/m*3 11.5 C 0 km/h
2593 27-03-2003 21:42:16 11.4 C 6.47 g/m*3 11.4 C 0 km/h
2594 27-03-2003 21:54:16 11.2 C 6.28 g/m*3 11.2 C 0 km/h
2595 27-03-2003 22:06:16 10.8 C 6.33 g/m*3 10.8 C 0 km/h
2596 27-03-2003 22:18:16 10.5 C 6.3 g/m*3 10.5 C 0 km/h
2597 27-03-2003 22:30:16 10.4 C 6.36 g/m*3 10.4 C 0 km/h
2598 27-03-2003 22:42:16 10.1 C 6.34 g/m*3 10.1 C 0 km/h
2599 27-03-2003 22:54:16 9.7 C 6.36 g/m*3 9.7 C 0 km/h
2600 27-03-2003 23:06:16 9.3 C 6.29 g/m*3 9.3 C 0 km/h
Sensor: Nr:Datum:Temp:Abs-Feuchte:Windchill:Wind:
Aussen-T/F 2601 27-03-2003 23:18:16 9.1 C 6.3 g/m*3 9.1 C 0 km/h
2602 27-03-2003 23:30:16 9.3 C 6.47 g/m*3 9.3 C 0 km/h
2603 27-03-2003 23:42:16 9.1 C 6.48 g/m*3 9.1 C 0 km/h
2604 27-03-2003 23:54:16 8.9 C 6.48 g/m*3 8.9 C 0 km/h
2605 28-03-2003 00:06:16 8.5 C 6.32 g/m*3 8.5 C 0 km/h
2606 28-03-2003 00:18:16 8.4 C 6.45 g/m*3 8.4 C 0 km/h
2607 28-03-2003 00:30:16 8.1 C 6.24 g/m*3 8.1 C 0 km/h
2608 28-03-2003 00:42:16 7.9 C 6.32 g/m*3 7.9 C 0 km/h
2609 28-03-2003 00:54:16 7.7 C 6.32 g/m*3 7.7 C 0 km/h
2610 28-03-2003 01:06:16 7.8 C 6.53 g/m*3 7.8 C 0 km/h
2611 28-03-2003 01:18:16 7.3 C 6.32 g/m*3 7.3 C 0 km/h
2612 28-03-2003 01:30:16 7.2 C 6.28 g/m*3 7.2 C 0 km/h
2613 28-03-2003 01:42:16 7.1 C 6.32 g/m*3 7.1 C 0 km/h
2614 28-03-2003 01:54:16 6.9 C 6.31 g/m*3 6.9 C 0 km/h
2615 28-03-2003 02:06:16 6.8 C 6.35 g/m*3 6.8 C 0 km/h
2616 28-03-2003 02:18:16 6.9 C 6.47 g/m*3 6.9 C 0 km/h
2617 28-03-2003 02:30:16 6.7 C 6.38 g/m*3 6.7 C 0 km/h
2618 28-03-2003 02:42:16 6.4 C 6.18 g/m*3 6.4 C 0 km/h
2619 28-03-2003 02:54:16 6.4 C 6.33 g/m*3 6.4 C 0 km/h
2620 28-03-2003 03:06:16 6.4 C 6.33 g/m*3 6.4 C 0 km/h
2621 28-03-2003 03:18:16 6.2 C 6.32 g/m*3 6.2 C 0 km/h
2622 28-03-2003 03:30:16 6 C 6.24 g/m*3 6 C 0 km/h
2623 28-03-2003 03:42:16 5.8 C 6.3 g/m*3 5.8 C 0 km/h
2624 28-03-2003 03:54:16 5.6 C 6.22 g/m*3 5.6 C 0 km/h
2625 28-03-2003 04:06:16 5.3 C 6.03 g/m*3 5.3 C 0 km/h
Sensor: Nr:Datum:Temp:Abs-Feuchte:Windchill:Wind:
Aussen-T/F 2626 28-03-2003 04:18:16 5.3 C 6.1 g/m*3 5.3 C 0 km/h
2627 28-03-2003 04:30:16 5.1 C 6.02 g/m*3 5.1 C 0 km/h
2628 28-03-2003 04:42:16 5.2 C 6.13 g/m*3 5.2 C 0 km/h
2629 28-03-2003 04:54:16 5 C 6.05 g/m*3 5 C 0 km/h
2630 28-03-2003 05:06:16 4.9 C 6.08 g/m*3 4.9 C 0 km/h
2631 28-03-2003 05:18:16 4.7 C 6 g/m*3 4.7 C 0 km/h
2632 28-03-2003 05:30:16 4.7 C 6 g/m*3 4.7 C 0 km/h
2633 28-03-2003 05:42:16 4.4 C 5.88 g/m*3 4.4 C 0 km/h
2634 28-03-2003 05:54:16 4.4 C 5.88 g/m*3 4.4 C 0 km/h
2635 28-03-2003 06:06:16 4.2 C 5.8 g/m*3 4.2 C 0 km/h
2636 28-03-2003 06:18:16 4.2 C 5.86 g/m*3 4.2 C 0 km/h
2637 28-03-2003 06:30:16 4.2 C 5.86 g/m*3 4.2 C 0 km/h
2638 28-03-2003 06:42:16 4.4 C 5.94 g/m*3 4.4 C 0 km/h
2639 28-03-2003 06:54:16 4.4 C 5.94 g/m*3 4.4 C 0 km/h
2640 28-03-2003 07:06:16 4.6 C 6.09 g/m*3 4.6 C 0 km/h
2641 28-03-2003 07:18:16 4.8 C 6.1 g/m*3 4.8 C 0 km/h
2642 28-03-2003 07:30:16 5 C 6.12 g/m*3 5 C 0 km/h
2643 28-03-2003 07:42:16 5 C 6.12 g/m*3 5 C 0 km/h
2644 28-03-2003 07:54:16 4.8 C 6.1 g/m*3 4.8 C 0 km/h
2645 28-03-2003 08:06:17 5 C 6.12 g/m*3 5 C 0 km/h
2646 28-03-2003 08:18:17 5.2 C 6.27 g/m*3 5.2 C 0 km/h
2647 28-03-2003 08:30:17 5.3 C 6.31 g/m*3 5.3 C 0 km/h
2648 28-03-2003 08:42:16 5.4 C 6.42 g/m*3 5.4 C 0 km/h
2649 28-03-2003 08:54:16 5.8 C 6.59 g/m*3 5.8 C 0 km/h
2650 28-03-2003 09:06:16 6.6 C 6.79 g/m*3 6.6 C 0 km/h
Sensor: Nr:Datum:Temp:Abs-Feuchte:Windchill:Wind:
Aussen-T/F 2651 28-03-2003 09:18:16 7.3 C 6.87 g/m*3 7.3 C 0 km/h
2652 28-03-2003 09:30:16 8.3 C 7 g/m*3 8.3 C 0 km/h
2653 28-03-2003 09:42:16 9 C 6.79 g/m*3 9 C 0 km/h
2654 28-03-2003 09:54:16 9.5 C 6.74 g/m*3 9.5 C 0 km/h
2655 28-03-2003 10:06:17 10.4 C 6.94 g/m*3 10.4 C 0 km/h
2656 28-03-2003 10:18:17 11.4 C 6.98 g/m*3 11.4 C 0 km/h
2657 28-03-2003 10:30:17 12.4 C 6.99 g/m*3 12.4 C 0 km/h
2658 28-03-2003 10:42:16 13.2 C 7.12 g/m*3 13.2 C 0 km/h
2659 28-03-2003 10:54:16 14.4 C 7.05 g/m*3 14.4 C 0 km/h
2660 28-03-2003 11:06:16 15.4 C 6.96 g/m*3 15.4 C 0 km/h
2661 28-03-2003 11:18:16 16.3 C 6.94 g/m*3 16.3 C 0 km/h
2662 28-03-2003 11:30:16 17.3 C 6.78 g/m*3 17.3 C 0 km/h
2663 28-03-2003 11:42:17 17.4 C 6.52 g/m*3 17.4 C 0 km/h
2664 28-03-2003 11:54:17 18.4 C 6.45 g/m*3 18.4 C 0 km/h
2665 28-03-2003 12:06:17 19.8 C 6.83 g/m*3 19.8 C 0 km/h
2666 28-03-2003 12:18:17 20.4 C 6.55 g/m*3 20.4 C 0 km/h
2667 28-03-2003 12:30:17 21.2 C 6.3 g/m*3 21.2 C 0 km/h
2668 28-03-2003 12:42:16 21.5 C 6.22 g/m*3 21.5 C 0 km/h
2669 28-03-2003 12:54:16 21.6 C 6.64 g/m*3 21.6 C 0 km/h
2670 28-03-2003 13:06:16 21.4 C 6.37 g/m*3 21.4 C 0 km/h
2671 28-03-2003 13:18:16 21.7 C 6.49 g/m*3 21.7 C 0 km/h
2672 28-03-2003 13:30:16 21.5 C 6.41 g/m*3 21.5 C 0 km/h
2673 28-03-2003 13:42:15 22 C 6.6 g/m*3 22 C 0 km/h
2674 28-03-2003 13:54:15 22.5 C 6.39 g/m*3 22.5 C 0 km/h
2675 28-03-2003 14:06:16 23 C 5.96 g/m*3 23 C 0 km/h
Sensor: Nr:Datum:Temp:Abs-Feuchte:Windchill:Wind:
Aussen-T/F 2676 28-03-2003 14:18:16 23.3 C 5.23 g/m*3 23.3 C 0 km/h
2677 28-03-2003 14:30:16 23.8 C 5.16 g/m*3 23.8 C 0 km/h
2678 28-03-2003 14:42:16 24 C 4.79 g/m*3 24 C 0 km/h
2679 28-03-2003 14:54:16 24.1 C 4.59 g/m*3 24.1 C 0 km/h
2680 28-03-2003 15:06:16 24.4 C 4.45 g/m*3 24.4 C 0 km/h
2681 28-03-2003 15:18:16 24.7 C 4.53 g/m*3 24.7 C 0 km/h
2682 28-03-2003 15:30:16 24.3 C 4.65 g/m*3 24.3 C 0 km/h
2683 28-03-2003 15:42:17 24.6 C 4.5 g/m*3 24.6 C 0 km/h
2684 28-03-2003 15:54:17 24.8 C 4.55 g/m*3 24.8 C 0 km/h
2685 28-03-2003 16:06:16 24.5 C 4.48 g/m*3 24.5 C 0 km/h
2686 28-03-2003 16:18:16 24 C 4.35 g/m*3 24 C 0 km/h
2687 28-03-2003 16:30:16 24.1 C 4.38 g/m*3 24.1 C 0 km/h
2688 28-03-2003 16:42:15 24 C 4.57 g/m*3 24 C 0 km/h
2689 28-03-2003 16:54:15 23.3 C 4.6 g/m*3 23.3 C 0 km/h
2690 28-03-2003 17:06:16 22.4 C 4.96 g/m*3 22.4 C 0 km/h
2691 28-03-2003 17:18:16 22.5 C 4.99 g/m*3 22.5 C 0 km/h
2692 28-03-2003 17:30:16 22.4 C 5.16 g/m*3 22.4 C 0 km/h
2693 28-03-2003 17:42:16 21.9 C 5.4 g/m*3 21.9 C 0 km/h
2694 28-03-2003 17:54:16 21.2 C 5.56 g/m*3 21.2 C 0 km/h
2695 28-03-2003 18:06:56 19.8 C 6.15 g/m*3 19.8 C 0 km/h
2696 28-03-2003 18:18:09 19.1 C 6.23 g/m*3 19.1 C 0 km/h
2697 28-03-2003 18:30:16 18.5 C 6.17 g/m*3 18.5 C 0 km/h
2698 28-03-2003 18:42:17 18.3 C 6.25 g/m*3 18.3 C 0 km/h
2699 28-03-2003 18:54:17 17.9 C 6.41 g/m*3 17.9 C 0 km/h
2700 28-03-2003 19:06:38 17.7 C 6.34 g/m*3 17.7 C 0 km/h
Sensor: Nr:Datum:Temp:Abs-Feuchte:Windchill:Wind:
Aussen-T/F 2701 28-03-2003 19:18:33 17.6 C 6.3 g/m*3 17.6 C 0 km/h
2702 28-03-2003 19:30:01 17.5 C 6.11 g/m*3 17.5 C 0 km/h
2703 28-03-2003 19:42:17 17.4 C 6.37 g/m*3 17.4 C 0 km/h
2704 28-03-2003 19:54:17 17.5 C 6.26 g/m*3 17.5 C 0 km/h
2705 28-03-2003 20:06:16 17.4 C 6.22 g/m*3 17.4 C 0 km/h
2706 28-03-2003 20:18:16 17.3 C 6.19 g/m*3 17.3 C 0 km/h
2707 28-03-2003 20:30:16 17.2 C 6.3 g/m*3 17.2 C 0 km/h
2708 28-03-2003 20:42:17 16.9 C 6.18 g/m*3 16.9 C 0 km/h
2709 28-03-2003 20:54:17 17 C 6.08 g/m*3 17 C 0 km/h
2710 28-03-2003 21:06:16 16.9 C 6.18 g/m*3 16.9 C 0 km/h
2711 28-03-2003 21:18:16 16.6 C 6.22 g/m*3 16.6 C 0 km/h
2712 28-03-2003 21:30:16 16.5 C 6.32 g/m*3 16.5 C 0 km/h
2713 28-03-2003 21:43:16 16.1 C 6.44 g/m*3 16.1 C 0 km/h
2714 28-03-2003 21:55:16 15.8 C 6.6 g/m*3 15.8 C 0 km/h
2715 28-03-2003 22:07:16 15.8 C 6.6 g/m*3 15.8 C 0 km/h
2716 28-03-2003 22:19:16 15.5 C 6.61 g/m*3 15.5 C 0 km/h
2717 28-03-2003 22:31:16 15.5 C 6.48 g/m*3 15.5 C 0 km/h
2718 28-03-2003 22:43:16 15.3 C 6.92 g/m*3 15.3 C 0 km/h
2719 28-03-2003 22:55:16 14.7 C 7.55 g/m*3 14.7 C 0 km/h
2720 28-03-2003 23:07:16 14.8 C 7.22 g/m*3 14.8 C 0 km/h
2721 28-03-2003 23:19:16 14.8 C 7.22 g/m*3 14.8 C 0 km/h
2722 28-03-2003 23:31:16 15 C 6.54 g/m*3 15 C 0 km/h
2723 28-03-2003 23:43:16 15.5 C 6.34 g/m*3 15.5 C 0 km/h
2724 28-03-2003 23:55:16 15.3 C 6.53 g/m*3 15.3 C 0 km/h
2725 29-03-2003 00:07:16 15.1 C 6.58 g/m*3 15.1 C 0 km/h
Sensor: Nr:Datum:Temp:Abs-Feuchte:Windchill:Wind:
Aussen-T/F 2726 29-03-2003 00:19:16 14.9 C 6.75 g/m*3 14.9 C 0 km/h
2727 29-03-2003 00:31:16 14.6 C 6.88 g/m*3 14.6 C 0 km/h
2728 29-03-2003 00:43:16 14.3 C 6.76 g/m*3 14.3 C 0 km/h
2729 29-03-2003 00:55:16 14.2 C 6.72 g/m*3 14.2 C 0 km/h
2730 29-03-2003 01:07:16 14.1 C 6.8 g/m*3 14.1 C 0 km/h
2731 29-03-2003 01:19:16 14 C 7 g/m*3 14 C 0 km/h
2732 29-03-2003 01:31:16 14 C 6.75 g/m*3 14 C 0 km/h
2733 29-03-2003 01:43:16 13.8 C 7.03 g/m*3 13.8 C 0 km/h
2734 29-03-2003 01:55:16 13.8 C 7.15 g/m*3 13.8 C 0 km/h
2735 29-03-2003 02:07:16 13.5 C 7.02 g/m*3 13.5 C 0 km/h
2736 29-03-2003 02:19:16 13.4 C 6.97 g/m*3 13.4 C 0 km/h
2737 29-03-2003 02:31:16 13.4 C 6.97 g/m*3 13.4 C 0 km/h
2738 29-03-2003 02:43:16 13.3 C 7.05 g/m*3 13.3 C 0 km/h
2739 29-03-2003 02:55:16 13.1 C 7.07 g/m*3 13.1 C 0 km/h
2740 29-03-2003 03:07:16 13 C 7.03 g/m*3 13 C 0 km/h
2741 29-03-2003 03:19:16 12.8 C 7.06 g/m*3 12.8 C 0 km/h
2742 29-03-2003 03:31:16 12.9 C 7.1 g/m*3 12.9 C 0 km/h
2743 29-03-2003 03:43:16 12.8 C 7.17 g/m*3 12.8 C 0 km/h
2744 29-03-2003 03:55:16 12.7 C 7.12 g/m*3 12.7 C 0 km/h
2745 29-03-2003 04:07:16 12.7 C 7.12 g/m*3 12.7 C 0 km/h
2746 29-03-2003 04:19:16 12.4 C 7.1 g/m*3 12.4 C 0 km/h
2747 29-03-2003 04:31:16 12.2 C 7.01 g/m*3 12.2 C 0 km/h
2748 29-03-2003 04:43:16 12.1 C 7.08 g/m*3 12.1 C 0 km/h
2749 29-03-2003 04:55:16 12.1 C 7.08 g/m*3 12.1 C 0 km/h
2750 29-03-2003 05:07:16 12.1 C 7.18 g/m*3 12.1 C 0 km/h
Sensor: Nr:Datum:Temp:Abs-Feuchte:Windchill:Wind:
Aussen-T/F 2751 29-03-2003 05:19:16 11.9 C 7.2 g/m*3 11.9 C 0 km/h
2752 29-03-2003 05:31:16 11.8 C 7.16 g/m*3 11.8 C 0 km/h
2753 29-03-2003 05:43:16 11.7 C 7.11 g/m*3 11.7 C 0 km/h
2754 29-03-2003 05:55:16 11.8 C 7.16 g/m*3 11.8 C 0 km/h
2755 29-03-2003 06:07:16 11.8 C 7.26 g/m*3 11.8 C 0 km/h
2756 29-03-2003 06:19:16 11.8 C 7.16 g/m*3 11.8 C 0 km/h
2757 29-03-2003 06:31:16 11.7 C 7.22 g/m*3 11.7 C 0 km/h
2758 29-03-2003 06:43:16 11.7 C 7.32 g/m*3 11.7 C 0 km/h
2759 29-03-2003 06:55:16 11.7 C 7.53 g/m*3 11.7 C 0 km/h
2760 29-03-2003 07:07:16 11.8 C 7.47 g/m*3 11.8 C 0 km/h
2761 29-03-2003 07:19:16 12 C 7.46 g/m*3 12 C 0 km/h
2762 29-03-2003 07:31:16 12.1 C 7.4 g/m*3 12.1 C 0 km/h
2763 29-03-2003 07:43:16 12.2 C 7.45 g/m*3 12.2 C 0 km/h
2764 29-03-2003 07:55:16 12 C 7.46 g/m*3 12 C 0 km/h
2765 29-03-2003 08:07:16 12.2 C 7.45 g/m*3 12.2 C 0 km/h
2766 29-03-2003 08:19:16 12.7 C 7.46 g/m*3 12.7 C 0 km/h
2767 29-03-2003 08:31:16 12.7 C 7.57 g/m*3 12.7 C 0 km/h
2768 29-03-2003 08:43:16 12.9 C 7.66 g/m*3 12.9 C 0 km/h
2769 29-03-2003 08:55:16 13.4 C 7.67 g/m*3 13.4 C 0 km/h
2770 29-03-2003 09:07:16 13.5 C 7.6 g/m*3 13.5 C 0 km/h
2771 29-03-2003 09:19:16 14.5 C 7.59 g/m*3 14.5 C 0 km/h
2772 29-03-2003 09:31:16 15.4 C 7.23 g/m*3 15.4 C 0 km/h
2773 29-03-2003 09:43:38 15.9 C 7.18 g/m*3 15.9 C 0 km/h
2774 29-03-2003 09:55:38 16.8 C 7.29 g/m*3 16.8 C 0 km/h
2775 29-03-2003 10:07:09 17.2 C 7.32 g/m*3 17.2 C 0 km/h
Sensor: Nr:Datum:Temp:Abs-Feuchte:Windchill:Wind:
Aussen-T/F 2776 29-03-2003 10:19:03 17.4 C 7.26 g/m*3 17.4 C 0 km/h
2777 29-03-2003 10:31:15 17.1 C 7.13 g/m*3 17.1 C 0 km/h
2778 29-03-2003 10:43:16 17 C 6.95 g/m*3 17 C 0 km/h
2779 29-03-2003 10:55:16 17.3 C 6.92 g/m*3 17.3 C 0 km/h
2780 29-03-2003 11:07:16 17.8 C 6.98 g/m*3 17.8 C 0 km/h
2781 29-03-2003 11:19:16 18.5 C 6.96 g/m*3 18.5 C 0 km/h
2782 29-03-2003 11:31:16 19.3 C 6.97 g/m*3 19.3 C 0 km/h
2783 29-03-2003 11:43:16 19.8 C 6.83 g/m*3 19.8 C 0 km/h
2784 29-03-2003 11:55:16 20.1 C 7.13 g/m*3 20.1 C 0 km/h
2785 29-03-2003 12:07:29 20.2 C 7.17 g/m*3 20.2 C 0 km/h
2786 29-03-2003 12:19:29 21 C 6.96 g/m*3 21 C 0 km/h
2787 29-03-2003 12:31:17 22.1 C 7.03 g/m*3 22.1 C 0 km/h
2788 29-03-2003 12:43:17 22.1 C 7.03 g/m*3 22.1 C 0 km/h
2789 29-03-2003 12:55:17 22.3 C 7.11 g/m*3 22.3 C 0 km/h
2790 29-03-2003 13:07:17 21.2 C 6.67 g/m*3 21.2 C 0 km/h
2791 29-03-2003 13:19:17 21.5 C 7.17 g/m*3 21.5 C 0 km/h
2792 29-03-2003 13:31:17 22.5 C 7.19 g/m*3 22.5 C 0 km/h
2793 29-03-2003 13:43:15 23.6 C 7.44 g/m*3 23.6 C 0 km/h
2794 29-03-2003 13:55:15 24 C 7.18 g/m*3 24 C 0 km/h
2795 29-03-2003 14:07:34 23.4 C 6.73 g/m*3 23.4 C 0 km/h
2796 29-03-2003 14:19:34 24.6 C 6.98 g/m*3 24.6 C 0 km/h
2797 29-03-2003 14:31:15 23.9 C 6.71 g/m*3 23.9 C 0 km/h
2798 29-03-2003 14:43:16 23.1 C 6.61 g/m*3 23.1 C 0 km/h
2799 29-03-2003 14:55:16 21.7 C 6.68 g/m*3 21.7 C 0 km/h
2800 29-03-2003 15:07:15 21.4 C 6.94 g/m*3 21.4 C 0 km/h
Sensor: Nr:Datum:Temp:Abs-Feuchte:Windchill:Wind:
Aussen-T/F 2801 29-03-2003 15:19:15 21.7 C 6.87 g/m*3 21.7 C 0 km/h
2802 29-03-2003 15:31:15 21.4 C 6.94 g/m*3 21.4 C 0 km/h
2803 29-03-2003 15:42:59 21.1 C 6.82 g/m*3 21.1 C 0 km/h
2804 29-03-2003 15:55:38 21 C 6.96 g/m*3 21 C 0 km/h
2805 29-03-2003 16:07:16 20.3 C 7.03 g/m*3 20.3 C 0 km/h
2806 29-03-2003 16:19:16 18.8 C 7.57 g/m*3 18.8 C 0 km/h
2807 29-03-2003 16:31:16 17.1 C 7.42 g/m*3 17.1 C 0 km/h
2808 29-03-2003 16:43:17 14.6 C 10.76 g/m*3 14.6 C 0 km/h
2809 29-03-2003 16:55:16 15.1 C 11.48 g/m*3 15.1 C 0 km/h
2810 29-03-2003 17:07:17 15.2 C 11.42 g/m*3 15.2 C 0 km/h
2811 29-03-2003 17:19:17 15.7 C 11.77 g/m*3 15.7 C 0 km/h
2812 29-03-2003 17:31:17 15.9 C 11.65 g/m*3 15.9 C 0 km/h
2813 29-03-2003 17:43:16 15.7 C 11.11 g/m*3 15.7 C 0 km/h
2814 29-03-2003 17:55:16 15.3 C 10.97 g/m*3 15.3 C 0 km/h
2815 29-03-2003 18:07:16 14.9 C 10.96 g/m*3 14.9 C 0 km/h
2816 29-03-2003 18:19:16 14.7 C 10.7 g/m*3 14.7 C 0 km/h
2817 29-03-2003 18:31:16 14.5 C 10.45 g/m*3 14.5 C 0 km/h
2818 29-03-2003 18:43:16 14.4 C 10.26 g/m*3 14.4 C 0 km/h
2819 29-03-2003 18:55:16 14.3 C 10.32 g/m*3 14.3 C 0 km/h
2820 29-03-2003 19:07:16 14.1 C 9.95 g/m*3 14.1 C 0 km/h
2821 29-03-2003 19:19:16 14.1 C 10.07 g/m*3 14.1 C 0 km/h
2822 29-03-2003 19:31:16 14.1 C 10.07 g/m*3 14.1 C 0 km/h
2823 29-03-2003 19:43:15 14.2 C 10.14 g/m*3 14.2 C 0 km/h
2824 29-03-2003 19:55:15 14.1 C 9.95 g/m*3 14.1 C 0 km/h
2825 29-03-2003 20:07:15 14 C 9.89 g/m*3 14 C 0 km/h
Sensor: Nr:Datum:Temp:Abs-Feuchte:Windchill:Wind:
Aussen-T/F 2826 29-03-2003 20:19:15 13.9 C 9.71 g/m*3 13.9 C 0 km/h
2827 29-03-2003 20:31:15 13.7 C 9.47 g/m*3 13.7 C 0 km/h
2828 29-03-2003 20:43:16 13.6 C 9.3 g/m*3 13.6 C 0 km/h
2829 29-03-2003 20:55:16 13.6 C 9.42 g/m*3 13.6 C 0 km/h
2830 29-03-2003 21:07:16 13.5 C 9.36 g/m*3 13.5 C 0 km/h
2831 29-03-2003 21:19:16 13.5 C 9.36 g/m*3 13.5 C 0 km/h
2832 29-03-2003 21:31:16 13.5 C 9.47 g/m*3 13.5 C 0 km/h
2833 29-03-2003 21:43:15 13.6 C 9.42 g/m*3 13.6 C 0 km/h
2834 29-03-2003 21:55:15 13.5 C 9.36 g/m*3 13.5 C 0 km/h
2835 29-03-2003 23:08:16 13.4 C 9.42 g/m*3 13.4 C 0 km/h
2836 29-03-2003 23:20:16 13.4 C 9.3 g/m*3 13.4 C 0 km/h
2837 29-03-2003 23:32:16 13.4 C 9.42 g/m*3 13.4 C 0 km/h
2838 29-03-2003 23:44:16 13.4 C 9.42 g/m*3 13.4 C 0 km/h
2839 29-03-2003 23:56:16 13.3 C 9.36 g/m*3 13.3 C 0 km/h
2840 30-03-2003 00:08:16 13.3 C 9.36 g/m*3 13.3 C 0 km/h
2841 30-03-2003 00:20:16 13.2 C 9.19 g/m*3 13.2 C 0 km/h
2842 30-03-2003 00:32:16 13.3 C 9.24 g/m*3 13.3 C 0 km/h
2843 30-03-2003 00:44:16 13.2 C 9.3 g/m*3 13.2 C 0 km/h
2844 30-03-2003 00:56:16 13 C 9.19 g/m*3 13 C 0 km/h
2845 30-03-2003 01:08:16 12.8 C 9.3 g/m*3 12.8 C 0 km/h
2846 30-03-2003 01:20:16 12.7 C 9.24 g/m*3 12.7 C 0 km/h
2847 30-03-2003 01:44:16 12.2 C 9.06 g/m*3 12.2 C 0 km/h
2848 30-03-2003 01:56:16 11.8 C 9.05 g/m*3 11.8 C 0 km/h
2849 30-03-2003 02:08:16 11.7 C 9.1 g/m*3 11.7 C 0 km/h
2850 30-03-2003 02:20:16 11.4 C 8.93 g/m*3 11.4 C 0 km/h
Sensor: Nr:Datum:Temp:Abs-Feuchte:Windchill:Wind:
Aussen-T/F 2851 30-03-2003 02:32:16 11.3 C 8.87 g/m*3 11.3 C 0 km/h
2852 30-03-2003 02:44:16 11.1 C 8.76 g/m*3 11.1 C 0 km/h
2853 30-03-2003 02:56:16 11 C 8.81 g/m*3 11 C 0 km/h
2854 30-03-2003 04:08:16 10.7 C 8.64 g/m*3 10.7 C 0 km/h
2855 30-03-2003 04:20:16 10.6 C 8.59 g/m*3 10.6 C 0 km/h
2856 30-03-2003 04:32:16 10.4 C 8.48 g/m*3 10.4 C 0 km/h
2857 30-03-2003 04:44:16 10.4 C 8.58 g/m*3 10.4 C 0 km/h
2858 30-03-2003 04:56:16 10.2 C 8.47 g/m*3 10.2 C 0 km/h
2859 30-03-2003 05:08:16 10.1 C 8.42 g/m*3 10.1 C 0 km/h
2860 30-03-2003 05:20:16 10.1 C 8.42 g/m*3 10.1 C 0 km/h
2861 30-03-2003 05:32:16 10.1 C 8.42 g/m*3 10.1 C 0 km/h
2862 30-03-2003 05:44:16 10 C 8.36 g/m*3 10 C 0 km/h
2863 30-03-2003 05:56:16 10 C 8.36 g/m*3 10 C 0 km/h
2864 30-03-2003 06:08:16 9.9 C 8.4 g/m*3 9.9 C 0 km/h
2865 30-03-2003 06:20:16 9.8 C 8.35 g/m*3 9.8 C 0 km/h
2866 30-03-2003 06:32:16 9.8 C 8.35 g/m*3 9.8 C 0 km/h
2867 30-03-2003 06:44:16 9.8 C 8.35 g/m*3 9.8 C 0 km/h
2868 30-03-2003 06:56:16 10 C 8.36 g/m*3 10 C 0 km/h
2869 30-03-2003 07:08:16 10.1 C 8.32 g/m*3 10.1 C 0 km/h
2870 30-03-2003 07:20:16 10.1 C 8.32 g/m*3 10.1 C 0 km/h
2871 30-03-2003 07:32:16 10.1 C 8.23 g/m*3 10.1 C 0 km/h
2872 30-03-2003 07:44:16 10 C 8.17 g/m*3 10 C 0 km/h
2873 30-03-2003 07:56:16 9.9 C 8.22 g/m*3 9.9 C 0 km/h
2874 30-03-2003 08:08:16 9.8 C 8.16 g/m*3 9.8 C 0 km/h
2875 30-03-2003 08:20:16 9.8 C 8.16 g/m*3 9.8 C 0 km/h
Sensor: Nr:Datum:Temp:Abs-Feuchte:Windchill:Wind:
Aussen-T/F 2876 30-03-2003 08:32:16 10 C 8.17 g/m*3 10 C 0 km/h
2877 30-03-2003 08:44:16 10.1 C 8.23 g/m*3 10.1 C 0 km/h
2878 30-03-2003 08:56:16 10.2 C 8.28 g/m*3 10.2 C 0 km/h
2879 30-03-2003 09:08:16 10.4 C 8.38 g/m*3 10.4 C 0 km/h
2880 30-03-2003 09:20:16 10.5 C 8.34 g/m*3 10.5 C 0 km/h
2881 30-03-2003 09:32:16 10.6 C 8.39 g/m*3 10.6 C 0 km/h
2882 30-03-2003 09:44:16 10.8 C 8.4 g/m*3 10.8 C 0 km/h
2883 30-03-2003 09:56:16 10.8 C 8.4 g/m*3 10.8 C 0 km/h
2884 30-03-2003 10:08:16 11 C 8.41 g/m*3 11 C 0 km/h
2885 30-03-2003 10:20:16 11.1 C 8.36 g/m*3 11.1 C 0 km/h
2886 30-03-2003 10:32:16 11.2 C 8.41 g/m*3 11.2 C 0 km/h
2887 30-03-2003 10:44:16 12 C 8.63 g/m*3 12 C 0 km/h
2888 30-03-2003 10:56:16 12.3 C 8.47 g/m*3 12.3 C 0 km/h
2889 30-03-2003 11:08:16 12.6 C 8.52 g/m*3 12.6 C 0 km/h
2890 30-03-2003 11:20:16 13 C 8.51 g/m*3 13 C 0 km/h
2891 30-03-2003 11:32:16 13.4 C 8.49 g/m*3 13.4 C 0 km/h
2892 30-03-2003 11:44:16 13.9 C 8.63 g/m*3 13.9 C 0 km/h
2893 30-03-2003 11:56:16 14.2 C 8.55 g/m*3 14.2 C 0 km/h
2894 30-03-2003 12:08:16 14.7 C 8.56 g/m*3 14.7 C 0 km/h
2895 30-03-2003 12:20:16 15.5 C 8.86 g/m*3 15.5 C 0 km/h
2896 30-03-2003 12:32:16 16.6 C 9.18 g/m*3 16.6 C 0 km/h
2897 30-03-2003 12:44:16 16.6 C 9.75 g/m*3 16.6 C 0 km/h
2898 30-03-2003 12:56:00 15.6 C 10.11 g/m*3 15.6 C 0 km/h
2899 30-03-2003 13:08:01 15.6 C 9.97 g/m*3 15.6 C 0 km/h
2900 30-03-2003 13:20:01 16.4 C 9.77 g/m*3 16.4 C 0 km/h
Sensor: Nr:Datum:Temp:Abs-Feuchte:Windchill:Wind:
Aussen-T/F 2901 30-03-2003 13:32:00 17.6 C 9.45 g/m*3 17.6 C 0 km/h
2902 30-03-2003 13:44:00 17.9 C 9.47 g/m*3 17.9 C 0 km/h
2903 30-03-2003 13:56:00 18.3 C 9.54 g/m*3 18.3 C 0 km/h
2904 30-03-2003 13:56:01 20.4 C 8.49 g/m*3 20.4 C 0 km/h
2905 30-03-2003 14:08:02 20.3 C 8.09 g/m*3 20.3 C 0 km/h
2906 30-03-2003 14:08:12 19 C 9.29 g/m*3 19 C 0 km/h
2907 30-03-2003 14:20:02 19.2 C 7.75 g/m*3 19.2 C 0 km/h
2908 30-03-2003 14:20:12 20.5 C 8.72 g/m*3 20.5 C 0 km/h
2909 30-03-2003 14:32:00 19.2 C 8.08 g/m*3 19.2 C 0 km/h
2910 30-03-2003 14:44:00 19.2 C 7.91 g/m*3 19.2 C 0 km/h
2911 30-03-2003 14:56:00 20 C 8.3 g/m*3 20 C 0 km/h
2912 30-03-2003 15:08:01 21 C 8.24 g/m*3 21 C 0 km/h
2913 30-03-2003 15:20:01 21.2 C 8.52 g/m*3 21.2 C 0 km/h
2914 30-03-2003 15:32:01 20.8 C 8.15 g/m*3 20.8 C 0 km/h
2915 30-03-2003 15:44:01 19.5 C 8.06 g/m*3 19.5 C 0 km/h
2916 30-03-2003 15:56:01 19 C 7.99 g/m*3 19 C 0 km/h
2917 30-03-2003 16:08:02 19.3 C 7.96 g/m*3 19.3 C 0 km/h
2918 30-03-2003 16:20:02 19.2 C 7.75 g/m*3 19.2 C 0 km/h
2919 30-03-2003 16:32:02 19.1 C 7.38 g/m*3 19.1 C 0 km/h
2920 30-03-2003 16:44:02 18.3 C 7.19 g/m*3 18.3 C 0 km/h
2921 30-03-2003 16:56:02 18 C 7.37 g/m*3 18 C 0 km/h
2922 30-03-2003 17:08:01 17.7 C 7.54 g/m*3 17.7 C 0 km/h
2923 30-03-2003 17:20:01 17.7 C 7.54 g/m*3 17.7 C 0 km/h
2924 30-03-2003 17:32:01 17.4 C 7.41 g/m*3 17.4 C 0 km/h
2925 30-03-2003 17:44:01 17.3 C 7.22 g/m*3 17.3 C 0 km/h
Sensor: Nr:Datum:Temp:Abs-Feuchte:Windchill:Wind:
Aussen-T/F 2926 30-03-2003 17:56:01 17.8 C 7.29 g/m*3 17.8 C 0 km/h
2927 30-03-2003 18:08:02 17.6 C 7.2 g/m*3 17.6 C 0 km/h
2928 30-03-2003 18:20:02 17.2 C 7.03 g/m*3 17.2 C 0 km/h
2929 30-03-2003 18:32:02 17 C 6.66 g/m*3 17 C 0 km/h
2930 30-03-2003 18:44:02 16.9 C 6.62 g/m*3 16.9 C 0 km/h
2931 30-03-2003 18:56:02 16.6 C 6.07 g/m*3 16.6 C 0 km/h
2932 30-03-2003 19:08:01 16.6 C 5.93 g/m*3 16.6 C 0 km/h
2933 30-03-2003 19:20:01 16.6 C 5.93 g/m*3 16.6 C 0 km/h
2934 30-03-2003 19:32:04 16.2 C 5.52 g/m*3 16.2 C 0 km/h
2935 30-03-2003 19:44:04 15.8 C 5.52 g/m*3 15.8 C 0 km/h
2936 30-03-2003 19:56:04 15.6 C 5.45 g/m*3 15.6 C 0 km/h
2937 30-03-2003 20:08:03 15.3 C 5.09 g/m*3 15.3 C 0 km/h
2938 30-03-2003 20:20:03 14.8 C 4.94 g/m*3 14.8 C 0 km/h
2939 30-03-2003 20:32:14 14.7 C 4.91 g/m*3 14.7 C 0 km/h
2940 30-03-2003 20:44:14 14.1 C 4.98 g/m*3 14.1 C 0 km/h
2941 30-03-2003 20:56:14 13.8 C 5.12 g/m*3 13.8 C 0 km/h
2942 30-03-2003 21:08:01 13.8 C 5.24 g/m*3 13.8 C 0 km/h
2943 30-03-2003 21:20:01 13.5 C 5.38 g/m*3 13.5 C 0 km/h
2944 30-03-2003 21:33:17 13.4 C 5.58 g/m*3 13.4 C 0 km/h
2945 30-03-2003 21:45:17 13.1 C 5.59 g/m*3 13.1 C 0 km/h
2946 30-03-2003 21:57:17 13.1 C 5.71 g/m*3 13.1 C 0 km/h
2947 30-03-2003 22:09:17 12.9 C 5.97 g/m*3 12.9 C 0 km/h
2948 30-03-2003 22:21:17 12.7 C 6.12 g/m*3 12.7 C 0 km/h
2949 30-03-2003 22:33:17 12.4 C 6.12 g/m*3 12.4 C 0 km/h
2950 30-03-2003 22:45:17 12.1 C 6.11 g/m*3 12.1 C 0 km/h
Sensor: Nr:Datum:Temp:Abs-Feuchte:Windchill:Wind:
Aussen-T/F 2951 30-03-2003 22:57:17 11.8 C 6.31 g/m*3 11.8 C 0 km/h
2952 30-03-2003 23:09:17 11.6 C 6.44 g/m*3 11.6 C 0 km/h
2953 30-03-2003 23:21:17 11.3 C 6.32 g/m*3 11.3 C 0 km/h
2954 30-03-2003 23:33:17 11 C 6.31 g/m*3 11 C 0 km/h
2955 30-03-2003 23:45:17 11.1 C 6.35 g/m*3 11.1 C 0 km/h
2956 30-03-2003 23:57:17 10.9 C 6.37 g/m*3 10.9 C 0 km/h
2957 31-03-2003 00:09:17 10.6 C 6.25 g/m*3 10.6 C 0 km/h
2958 31-03-2003 00:21:17 10.5 C 6.3 g/m*3 10.5 C 0 km/h
2959 31-03-2003 00:33:17 10.5 C 6.21 g/m*3 10.5 C 0 km/h
2960 31-03-2003 00:45:17 10.4 C 6.07 g/m*3 10.4 C 0 km/h
2961 31-03-2003 00:57:17 10.2 C 6 g/m*3 10.2 C 0 km/h
2962 31-03-2003 01:09:17 10.1 C 5.96 g/m*3 10.1 C 0 km/h
2963 31-03-2003 01:21:17 9.9 C 6.07 g/m*3 9.9 C 0 km/h
2964 31-03-2003 01:33:17 9.9 C 6.07 g/m*3 9.9 C 0 km/h
2965 31-03-2003 01:45:17 9.6 C 5.95 g/m*3 9.6 C 0 km/h
2966 31-03-2003 01:57:17 9.3 C 5.93 g/m*3 9.3 C 0 km/h
2967 31-03-2003 02:09:17 9.1 C 5.86 g/m*3 9.1 C 0 km/h
2968 31-03-2003 02:21:17 9 C 5.82 g/m*3 9 C 0 km/h
2969 31-03-2003 02:33:17 8.7 C 5.79 g/m*3 8.7 C 0 km/h
2970 31-03-2003 02:45:17 8.6 C 5.67 g/m*3 8.6 C 0 km/h
2971 31-03-2003 02:57:17 8.4 C 5.68 g/m*3 8.4 C 0 km/h
2972 31-03-2003 03:09:17 8 C 5.62 g/m*3 8 C 0 km/h
2973 31-03-2003 03:21:17 7.8 C 5.71 g/m*3 7.8 C 0 km/h
2974 31-03-2003 03:33:17 7.8 C 5.71 g/m*3 7.8 C 0 km/h
2975 31-03-2003 03:45:17 7.5 C 5.6 g/m*3 7.5 C 0 km/h
Sensor: Nr:Datum:Temp:Abs-Feuchte:Windchill:Wind:
Aussen-T/F 2976 31-03-2003 03:57:17 7.3 C 5.61 g/m*3 7.3 C 0 km/h
2977 31-03-2003 04:09:17 7.2 C 5.65 g/m*3 7.2 C 0 km/h
2978 31-03-2003 04:21:17 7 C 5.66 g/m*3 7 C 0 km/h
2979 31-03-2003 04:33:17 6.8 C 5.66 g/m*3 6.8 C 0 km/h
2980 31-03-2003 04:45:17 6.8 C 5.74 g/m*3 6.8 C 0 km/h
2981 31-03-2003 04:57:17 6.3 C 5.63 g/m*3 6.3 C 0 km/h
2982 31-03-2003 05:09:17 6.2 C 5.66 g/m*3 6.2 C 0 km/h
2983 31-03-2003 05:21:17 5.7 C 5.55 g/m*3 5.7 C 0 km/h
2984 31-03-2003 05:33:17 5.7 C 5.69 g/m*3 5.7 C 0 km/h
2985 31-03-2003 05:45:17 5.8 C 5.8 g/m*3 5.8 C 0 km/h
2986 31-03-2003 05:57:17 5.7 C 5.84 g/m*3 5.7 C 0 km/h
2987 31-03-2003 06:09:17 5.4 C 5.79 g/m*3 5.4 C 0 km/h
2988 31-03-2003 06:21:17 5.5 C 5.9 g/m*3 5.5 C 0 km/h
2989 31-03-2003 06:33:17 5.8 C 5.95 g/m*3 5.8 C 0 km/h
2990 31-03-2003 06:45:17 5.6 C 5.8 g/m*3 5.6 C 0 km/h
2991 31-03-2003 06:57:17 5.3 C 5.68 g/m*3 5.3 C 0 km/h
2992 31-03-2003 07:09:17 5.1 C 5.54 g/m*3 5.1 C 0 km/h
2993 31-03-2003 07:21:17 4.9 C 5.54 g/m*3 4.9 C 0 km/h
2994 31-03-2003 07:33:17 4.7 C 5.46 g/m*3 4.7 C 0 km/h
2995 31-03-2003 07:45:17 4.5 C 5.46 g/m*3 4.5 C 0 km/h
2996 31-03-2003 07:57:00 4.5 C 5.46 g/m*3 4.5 C 0 km/h
2997 31-03-2003 08:09:01 4.7 C 5.46 g/m*3 4.7 C 0 km/h
2998 31-03-2003 08:21:01 4.8 C 5.5 g/m*3 4.8 C 0 km/h
2999 31-03-2003 08:33:00 4.8 C 5.43 g/m*3 4.8 C 0 km/h
3000 31-03-2003 08:45:00 5 C 5.44 g/m*3 5 C 0 km/h
Sensor: Nr:Datum:Temp:Abs-Feuchte:Windchill:Wind:
Aussen-T/F 3001 31-03-2003 08:57:00 5.3 C 5.41 g/m*3 5.3 C 0 km/h
3002 31-03-2003 09:09:00 5.6 C 5.3 g/m*3 5.6 C 0 km/h
3003 31-03-2003 09:21:00 5.6 C 5.09 g/m*3 5.6 C 0 km/h
3004 31-03-2003 09:33:01 5.8 C 5.01 g/m*3 5.8 C 0 km/h
3005 31-03-2003 09:45:01 6.3 C 4.89 g/m*3 6.3 C 0 km/h
3006 31-03-2003 09:57:01 6.8 C 4.97 g/m*3 6.8 C 0 km/h
3007 31-03-2003 10:09:01 7 C 4.73 g/m*3 7 C 0 km/h
3008 31-03-2003 10:21:01 7.6 C 4.99 g/m*3 7.6 C 0 km/h
3009 31-03-2003 10:33:01 8.3 C 4.89 g/m*3 8.3 C 0 km/h
3010 31-03-2003 10:45:01 8 C 4.46 g/m*3 8 C 0 km/h
3011 31-03-2003 10:57:01 8.4 C 4.5 g/m*3 8.4 C 0 km/h
3012 31-03-2003 11:09:02 8.6 C 4.38 g/m*3 8.6 C 0 km/h
3013 31-03-2003 11:21:02 8.9 C 4.56 g/m*3 8.9 C 0 km/h
3014 31-03-2003 11:33:01 9.1 C 4.53 g/m*3 9.1 C 0 km/h
3015 31-03-2003 11:45:01 9.7 C 4.43 g/m*3 9.7 C 0 km/h
3016 31-03-2003 11:57:01 10.3 C 4.6 g/m*3 10.3 C 0 km/h
3017 31-03-2003 12:09:00 11.8 C 4.32 g/m*3 11.8 C 0 km/h
3018 31-03-2003 12:21:01 12.3 C 4.13 g/m*3 12.3 C 0 km/h
3019 31-03-2003 12:33:02 12 C 3.94 g/m*3 12 C 0 km/h
3020 31-03-2003 12:45:02 12.1 C 3.86 g/m*3 12.1 C 0 km/h
3021 31-03-2003 12:57:02 13 C 3.97 g/m*3 13 C 0 km/h
3022 31-03-2003 13:09:33 13.3 C 3.93 g/m*3 13.3 C 0 km/h
3023 31-03-2003 13:21:01 13.1 C 3.99 g/m*3 13.1 C 0 km/h
3024 31-03-2003 13:33:02 14.1 C 3.76 g/m*3 14.1 C 0 km/h
3025 31-03-2003 13:45:02 13.5 C 3.86 g/m*3 13.5 C 0 km/h
Sensor: Nr:Datum:Temp:Abs-Feuchte:Windchill:Wind:
Aussen-T/F 3026 31-03-2003 13:57:02 14.1 C 4 g/m*3 14.1 C 0 km/h
3027 31-03-2003 14:09:00 14.6 C 4 g/m*3 14.6 C 0 km/h
3028 31-03-2003 14:21:00 14.7 C 3.9 g/m*3 14.7 C 0 km/h
3029 31-03-2003 14:33:01 15.3 C 4.05 g/m*3 15.3 C 0 km/h
3030 31-03-2003 14:45:01 15.5 C 4.23 g/m*3 15.5 C 0 km/h
3031 31-03-2003 14:57:01 16.1 C 4.11 g/m*3 16.1 C 0 km/h
3032 31-03-2003 15:09:02 16 C 3.95 g/m*3 16 C 0 km/h
3033 31-03-2003 15:21:02 17 C 3.91 g/m*3 17 C 0 km/h
3034 31-03-2003 15:33:02 17.7 C 4.07 g/m*3 17.7 C 0 km/h
3035 31-03-2003 15:45:02 16.8 C 3.57 g/m*3 16.8 C 0 km/h
3036 31-03-2003 15:57:02 17 C 3.91 g/m*3 17 C 0 km/h
3037 31-03-2003 16:09:01 17.2 C 3.66 g/m*3 17.2 C 0 km/h
3038 31-03-2003 16:21:01 17.7 C 3.62 g/m*3 17.7 C 0 km/h
3039 31-03-2003 16:33:01 16.8 C 3.57 g/m*3 16.8 C 0 km/h
3040 31-03-2003 16:45:01 18.3 C 3.91 g/m*3 18.3 C 0 km/h
3041 31-03-2003 16:57:01 19.3 C 3.98 g/m*3 19.3 C 0 km/h
3042 31-03-2003 17:09:01 18.7 C 3.2 g/m*3 18.7 C 0 km/h
3043 31-03-2003 17:21:01 18.3 C 3.44 g/m*3 18.3 C 0 km/h
3044 31-03-2003 17:33:01 18.1 C 3.4 g/m*3 18.1 C 0 km/h
3045 31-03-2003 17:45:01 18.5 C 3.32 g/m*3 18.5 C 0 km/h
3046 31-03-2003 17:57:01 18.4 C 3.3 g/m*3 18.4 C 0 km/h
3047 31-03-2003 18:09:00 18.4 C 3.3 g/m*3 18.4 C 0 km/h
3048 31-03-2003 18:21:00 18.3 C 3.6 g/m*3 18.3 C 0 km/h
3049 31-03-2003 18:33:02 17.6 C 3.45 g/m*3 17.6 C 0 km/h
3050 31-03-2003 18:45:02 17 C 3.62 g/m*3 17 C 0 km/h
Sensor: Nr:Datum:Temp:Abs-Feuchte:Windchill:Wind:
Aussen-T/F 3051 31-03-2003 18:57:02 16.4 C 3.63 g/m*3 16.4 C 0 km/h
3052 31-03-2003 19:09:02 16.1 C 3.7 g/m*3 16.1 C 0 km/h
3053 31-03-2003 19:21:02 15.4 C 3.81 g/m*3 15.4 C 0 km/h
3054 31-03-2003 19:33:01 15.1 C 3.87 g/m*3 15.1 C 0 km/h
3055 31-03-2003 19:45:01 14.4 C 4.08 g/m*3 14.4 C 0 km/h
3056 31-03-2003 19:57:01 13.7 C 4.5 g/m*3 13.7 C 0 km/h
3057 31-03-2003 20:09:01 12.8 C 4.59 g/m*3 12.8 C 0 km/h
3058 31-03-2003 20:21:01 12.1 C 4.5 g/m*3 12.1 C 0 km/h
3059 31-03-2003 20:33:01 11.5 C 4.44 g/m*3 11.5 C 0 km/h
3060 31-03-2003 20:45:01 10.8 C 4.65 g/m*3 10.8 C 0 km/h
3061 31-03-2003 20:57:01 10.5 C 4.85 g/m*3 10.5 C 0 km/h
3062 31-03-2003 21:09:01 10.5 C 4.85 g/m*3 10.5 C 0 km/h
3063 31-03-2003 21:21:01 10.3 C 4.79 g/m*3 10.3 C 0 km/h
3064 31-03-2003 21:33:02 10 C 4.89 g/m*3 10 C 0 km/h
3065 31-03-2003 21:45:02 9.6 C 5.04 g/m*3 9.6 C 0 km/h
3066 31-03-2003 21:57:02 9.3 C 4.94 g/m*3 9.3 C 0 km/h
3067 31-03-2003 22:10:02 9.2 C 5 g/m*3 9.2 C 0 km/h
3068 31-03-2003 22:22:02 8.9 C 5.08 g/m*3 8.9 C 0 km/h
3069 31-03-2003 22:34:02 8.6 C 4.98 g/m*3 8.6 C 0 km/h
3070 31-03-2003 22:46:02 8.4 C 5.01 g/m*3 8.4 C 0 km/h
3071 31-03-2003 22:58:02 8 C 4.96 g/m*3 8 C 0 km/h
3072 31-03-2003 23:10:02 7.7 C 5.03 g/m*3 7.7 C 0 km/h
3073 31-03-2003 23:22:02 7.5 C 4.8 g/m*3 7.5 C 0 km/h
3074 31-03-2003 23:34:02 7.2 C 4.87 g/m*3 7.2 C 0 km/h
3075 31-03-2003 23:46:02 7 C 4.88 g/m*3 7 C 0 km/h
Sensor: Nr:Datum:Temp:Abs-Feuchte:Windchill:Wind:
Aussen-T/F 3076 31-03-2003 23:58:02 6.7 C 4.86 g/m*3 6.7 C 0 km/h
3077 01-04-2003 00:10:02 6.5 C 4.8 g/m*3 6.5 C 0 km/h
3078 01-04-2003 00:22:02 6 C 4.65 g/m*3 6 C 0 km/h
3079 01-04-2003 00:34:02 6 C 4.72 g/m*3 6 C 0 km/h
3080 01-04-2003 00:46:02 5.7 C 4.7 g/m*3 5.7 C 0 km/h
3081 01-04-2003 00:58:02 5.4 C 4.67 g/m*3 5.4 C 0 km/h
3082 01-04-2003 01:10:02 5.2 C 4.61 g/m*3 5.2 C 0 km/h
3083 01-04-2003 01:22:02 4.8 C 4.49 g/m*3 4.8 C 0 km/h
3084 01-04-2003 01:34:02 4.8 C 4.63 g/m*3 4.8 C 0 km/h
3085 01-04-2003 01:46:02 4.6 C 4.63 g/m*3 4.6 C 0 km/h
3086 01-04-2003 01:58:02 4.6 C 4.7 g/m*3 4.6 C 0 km/h
3087 01-04-2003 02:10:02 4.2 C 4.7 g/m*3 4.2 C 0 km/h
3088 01-04-2003 02:22:02 4.1 C 4.67 g/m*3 4.1 C 0 km/h
3089 01-04-2003 02:34:02 4 C 4.64 g/m*3 4 C 0 km/h
3090 01-04-2003 02:46:02 3.6 C 4.58 g/m*3 3.6 C 0 km/h
3091 01-04-2003 02:58:02 3.7 C 4.61 g/m*3 3.7 C 0 km/h
3092 01-04-2003 03:10:02 3.6 C 4.64 g/m*3 3.6 C 0 km/h
3093 01-04-2003 03:22:02 3.6 C 4.64 g/m*3 3.6 C 0 km/h
3094 01-04-2003 03:34:02 3.5 C 4.67 g/m*3 3.5 C 0 km/h
3095 01-04-2003 03:46:02 3.3 C 4.55 g/m*3 3.3 C 0 km/h
3096 01-04-2003 03:58:02 3.2 C 4.58 g/m*3 3.2 C 0 km/h
3097 01-04-2003 04:10:02 2.8 C 4.58 g/m*3 2.8 C 0 km/h
3098 01-04-2003 04:22:02 2.5 C 4.48 g/m*3 2.5 C 0 km/h
3099 01-04-2003 04:34:02 2.3 C 4.54 g/m*3 2.3 C 0 km/h
3100 01-04-2003 04:58:02 2.1 C 4.53 g/m*3 2.1 C 0 km/h
Sensor: Nr:Datum:Temp:Abs-Feuchte:Windchill:Wind:
Aussen-T/F 3101 01-04-2003 05:10:02 1.8 C 4.49 g/m*3 1.8 C 0 km/h
3102 01-04-2003 05:22:02 1.8 C 4.55 g/m*3 1.8 C 0 km/h
3103 01-04-2003 05:34:02 1.7 C 4.52 g/m*3 1.7 C 0 km/h
3104 01-04-2003 05:46:02 1.5 C 4.51 g/m*3 1.5 C 0 km/h
3105 01-04-2003 05:58:02 1.5 C 4.51 g/m*3 1.5 C 0 km/h
3106 01-04-2003 06:10:02 1.5 C 4.62 g/m*3 1.5 C 0 km/h
3107 01-04-2003 06:22:02 1.2 C 4.53 g/m*3 1.2 C 0 km/h
3108 01-04-2003 06:34:02 0.7 C 4.42 g/m*3 0.7 C 0 km/h
3109 01-04-2003 06:46:02 0.8 C 4.51 g/m*3 0.8 C 0 km/h
3110 01-04-2003 06:58:02 0.9 C 4.54 g/m*3 0.9 C 0 km/h
3111 01-04-2003 07:10:02 0.7 C 4.47 g/m*3 0.7 C 0 km/h
3112 01-04-2003 07:22:02 0.8 C 4.51 g/m*3 0.8 C 0 km/h
3113 01-04-2003 07:34:02 0.7 C 4.47 g/m*3 0.7 C 0 km/h
3114 01-04-2003 07:46:02 0.6 C 4.44 g/m*3 0.6 C 0 km/h
3115 01-04-2003 07:58:02 0.7 C 4.47 g/m*3 0.7 C 0 km/h
3116 01-04-2003 08:10:01 0.6 C 4.44 g/m*3 0.6 C 0 km/h
3117 01-04-2003 08:22:01 0.8 C 4.51 g/m*3 0.8 C 0 km/h
3118 01-04-2003 08:34:01 0.9 C 4.54 g/m*3 0.9 C 0 km/h
3119 01-04-2003 08:46:01 1 C 4.52 g/m*3 1 C 0 km/h
3120 01-04-2003 08:58:01 1.2 C 4.58 g/m*3 1.2 C 0 km/h
3121 01-04-2003 09:10:02 1.5 C 4.73 g/m*3 1.5 C 0 km/h
3122 01-04-2003 09:22:02 2 C 4.72 g/m*3 2 C 0 km/h
3123 01-04-2003 09:34:02 2.5 C 4.83 g/m*3 2.5 C 0 km/h
3124 01-04-2003 09:46:02 3.2 C 4.94 g/m*3 3.2 C 0 km/h
3125 01-04-2003 09:58:02 4.1 C 4.93 g/m*3 4.1 C 0 km/h
Sensor: Nr:Datum:Temp:Abs-Feuchte:Windchill:Wind:
Aussen-T/F 3126 01-04-2003 10:10:02 4.9 C 5 g/m*3 4.9 C 0 km/h
3127 01-04-2003 10:22:02 6.1 C 4.97 g/m*3 6.1 C 0 km/h
3128 01-04-2003 10:34:02 7.1 C 5.07 g/m*3 7.1 C 0 km/h
3129 01-04-2003 10:46:02 8.3 C 4.97 g/m*3 8.3 C 0 km/h
3130 01-04-2003 10:58:02 8.9 C 4.91 g/m*3 8.9 C 0 km/h
3131 01-04-2003 11:10:01 9.8 C 4.92 g/m*3 9.8 C 0 km/h
3132 01-04-2003 11:22:01 10.7 C 5.01 g/m*3 10.7 C 0 km/h
3133 01-04-2003 11:34:01 12.1 C 4.83 g/m*3 12.1 C 0 km/h
3134 01-04-2003 11:46:01 12.2 C 4.53 g/m*3 12.2 C 0 km/h
3135 01-04-2003 11:58:01 12.6 C 4.43 g/m*3 12.6 C 0 km/h
3136 01-04-2003 12:10:02 13.6 C 4.12 g/m*3 13.6 C 0 km/h
3137 01-04-2003 12:22:02 13.8 C 3.81 g/m*3 13.8 C 0 km/h
3138 01-04-2003 12:34:01 14.4 C 3.71 g/m*3 14.4 C 0 km/h
3139 01-04-2003 12:46:01 14.9 C 3.7 g/m*3 14.9 C 0 km/h
3140 01-04-2003 12:58:01 15.2 C 3.76 g/m*3 15.2 C 0 km/h
3141 01-04-2003 13:10:01 15.8 C 3.63 g/m*3 15.8 C 0 km/h
3142 01-04-2003 13:22:01 15.5 C 3.3 g/m*3 15.5 C 0 km/h
3143 01-04-2003 13:34:03 16 C 3.68 g/m*3 16 C 0 km/h
3144 01-04-2003 13:46:03 15 C 3.46 g/m*3 15 C 0 km/h
3145 01-04-2003 13:58:03 15.5 C 3.57 g/m*3 15.5 C 0 km/h
3146 01-04-2003 14:10:01 15.9 C 3.39 g/m*3 15.9 C 0 km/h
3147 01-04-2003 14:22:01 16.4 C 3.49 g/m*3 16.4 C 0 km/h
3148 01-04-2003 14:34:02 16.3 C 3.19 g/m*3 16.3 C 0 km/h
3149 01-04-2003 14:46:02 16.9 C 3.16 g/m*3 16.9 C 0 km/h
3150 01-04-2003 14:58:02 17.5 C 2.98 g/m*3 17.5 C 0 km/h
Sensor: Nr:Datum:Temp:Abs-Feuchte:Windchill:Wind:
Aussen-T/F 3151 01-04-2003 15:10:02 17.6 C 3 g/m*3 17.6 C 0 km/h
3152 01-04-2003 15:22:02 17.5 C 2.98 g/m*3 17.5 C 0 km/h
3153 01-04-2003 15:34:01 17.7 C 3.02 g/m*3 17.7 C 0 km/h
3154 01-04-2003 15:46:01 17.8 C 3.04 g/m*3 17.8 C 0 km/h
3155 01-04-2003 15:58:01 17.9 C 3.05 g/m*3 17.9 C 0 km/h
3156 01-04-2003 16:10:02 17.7 C 3.02 g/m*3 17.7 C 0 km/h
3157 01-04-2003 16:22:02 17.8 C 3.04 g/m*3 17.8 C 0 km/h
3158 01-04-2003 16:34:02 17.8 C 3.04 g/m*3 17.8 C 0 km/h
3159 01-04-2003 16:46:02 18 C 3.07 g/m*3 18 C 0 km/h
3160 01-04-2003 16:58:02 17.7 C 3.02 g/m*3 17.7 C 0 km/h
3161 01-04-2003 17:10:02 17.7 C 3.02 g/m*3 17.7 C 0 km/h
3162 01-04-2003 17:22:02 17.4 C 2.96 g/m*3 17.4 C 0 km/h
3163 01-04-2003 17:34:02 17.2 C 2.93 g/m*3 17.2 C 0 km/h
3164 01-04-2003 17:46:02 17 C 2.89 g/m*3 17 C 0 km/h
3165 01-04-2003 17:58:02 16.7 C 2.84 g/m*3 16.7 C 0 km/h
3166 01-04-2003 18:10:01 16.8 C 2.86 g/m*3 16.8 C 0 km/h
3167 01-04-2003 18:22:01 16.6 C 2.83 g/m*3 16.6 C 0 km/h
3168 01-04-2003 18:34:18 16.4 C 2.79 g/m*3 16.4 C 0 km/h
3169 01-04-2003 18:46:18 16.2 C 2.9 g/m*3 16.2 C 0 km/h
3170 01-04-2003 18:58:18 16 C 3.13 g/m*3 16 C 0 km/h
3171 01-04-2003 19:02:35 16 C 3.41 g/m*3 16 C 0 km/h
3172 01-04-2003 19:08:35 15.9 C 3.52 g/m*3 15.9 C 0 km/h
3173 01-04-2003 19:14:35 15.7 C 3.48 g/m*3 15.7 C 0 km/h
3174 01-04-2003 19:18:01 15.7 C 3.48 g/m*3 15.7 C 0 km/h
3175 01-04-2003 19:24:01 15.6 C 3.59 g/m*3 15.6 C 0 km/h
Sensor: Nr:Datum:Temp:Abs-Feuchte:Windchill:Wind:
Aussen-T/F 3176 01-04-2003 19:30:01 15.6 C 3.59 g/m*3 15.6 C 0 km/h
3177 01-04-2003 19:36:02 15.5 C 3.44 g/m*3 15.5 C 0 km/h
3178 01-04-2003 19:42:02 15.4 C 3.55 g/m*3 15.4 C 0 km/h
3179 01-04-2003 19:48:02 15.4 C 3.55 g/m*3 15.4 C 0 km/h
3180 01-04-2003 19:54:02 15.5 C 3.57 g/m*3 15.5 C 0 km/h
3181 01-04-2003 20:00:02 15.4 C 3.81 g/m*3 15.4 C 0 km/h
3182 01-04-2003 20:06:02 15.4 C 3.81 g/m*3 15.4 C 0 km/h
3183 01-04-2003 20:12:02 15.3 C 3.92 g/m*3 15.3 C 0 km/h
3184 01-04-2003 20:18:02 15.2 C 3.89 g/m*3 15.2 C 0 km/h
3185 01-04-2003 20:24:02 15.2 C 3.89 g/m*3 15.2 C 0 km/h
3186 01-04-2003 20:30:02 15.2 C 3.89 g/m*3 15.2 C 0 km/h
3187 01-04-2003 20:36:02 15.1 C 4 g/m*3 15.1 C 0 km/h
3188 01-04-2003 20:42:02 15.2 C 4.15 g/m*3 15.2 C 0 km/h
3189 01-04-2003 20:48:02 15.1 C 4.39 g/m*3 15.1 C 0 km/h
3190 01-04-2003 21:00:02 14.8 C 4.81 g/m*3 14.8 C 0 km/h
3191 01-04-2003 21:06:02 14.2 C 5.49 g/m*3 14.2 C 0 km/h
3192 01-04-2003 21:12:02 12.8 C 6.5 g/m*3 12.8 C 0 km/h
3193 01-04-2003 21:18:02 11.9 C 6.99 g/m*3 11.9 C 0 km/h
3194 01-04-2003 21:24:02 11.3 C 7.24 g/m*3 11.3 C 0 km/h
3195 01-04-2003 21:30:02 11 C 7.31 g/m*3 11 C 0 km/h
3196 01-04-2003 21:36:02 10.7 C 7.46 g/m*3 10.7 C 0 km/h
3197 01-04-2003 21:42:02 10.6 C 7.42 g/m*3 10.6 C 0 km/h
3198 01-04-2003 21:48:02 10.7 C 7.56 g/m*3 10.7 C 0 km/h
3199 01-04-2003 21:54:02 10.4 C 7.61 g/m*3 10.4 C 0 km/h
3200 01-04-2003 22:00:02 10.2 C 7.71 g/m*3 10.2 C 0 km/h
Sensor: Nr:Datum:Temp:Abs-Feuchte:Windchill:Wind:
Aussen-T/F 3201 01-04-2003 22:07:02 10.1 C 7.75 g/m*3 10.1 C 0 km/h
3202 01-04-2003 22:13:02 9.9 C 7.84 g/m*3 9.9 C 0 km/h
3203 01-04-2003 22:19:02 9.8 C 7.79 g/m*3 9.8 C 0 km/h
3204 01-04-2003 22:25:02 9.7 C 7.93 g/m*3 9.7 C 0 km/h
3205 01-04-2003 22:31:02 9.6 C 7.79 g/m*3 9.6 C 0 km/h
3206 01-04-2003 22:37:02 9.5 C 7.83 g/m*3 9.5 C 0 km/h
3207 01-04-2003 22:43:02 9.6 C 7.69 g/m*3 9.6 C 0 km/h
3208 01-04-2003 22:49:02 9.6 C 7.69 g/m*3 9.6 C 0 km/h
3209 01-04-2003 22:55:02 9.6 C 7.6 g/m*3 9.6 C 0 km/h
3210 01-04-2003 23:01:02 9.6 C 7.6 g/m*3 9.6 C 0 km/h
3211 01-04-2003 23:07:02 9.6 C 7.6 g/m*3 9.6 C 0 km/h
3212 01-04-2003 23:13:02 9.7 C 7.65 g/m*3 9.7 C 0 km/h
3213 01-04-2003 23:19:02 9.7 C 7.65 g/m*3 9.7 C 0 km/h
3214 01-04-2003 23:25:02 9.8 C 7.42 g/m*3 9.8 C 0 km/h
3215 01-04-2003 23:31:02 9.7 C 7.19 g/m*3 9.7 C 0 km/h
3216 01-04-2003 23:37:02 9.5 C 7.19 g/m*3 9.5 C 0 km/h
3217 01-04-2003 23:43:02 9.3 C 7.19 g/m*3 9.3 C 0 km/h
3218 01-04-2003 23:49:02 9.2 C 7.14 g/m*3 9.2 C 0 km/h
3219 01-04-2003 23:55:02 9.1 C 7.01 g/m*3 9.1 C 0 km/h
3220 02-04-2003 00:01:02 9.1 C 7.01 g/m*3 9.1 C 0 km/h
3221 02-04-2003 00:07:02 9 C 6.88 g/m*3 9 C 0 km/h
3222 02-04-2003 00:13:02 9 C 6.88 g/m*3 9 C 0 km/h
3223 02-04-2003 00:19:02 8.9 C 6.92 g/m*3 8.9 C 0 km/h
3224 02-04-2003 00:25:02 8.9 C 6.92 g/m*3 8.9 C 0 km/h
3225 02-04-2003 00:31:02 9 C 6.79 g/m*3 9 C 0 km/h
Sensor: Nr:Datum:Temp:Abs-Feuchte:Windchill:Wind:
Aussen-T/F 3226 02-04-2003 00:37:02 9 C 6.7 g/m*3 9 C 0 km/h
3227 02-04-2003 00:43:02 9 C 6.7 g/m*3 9 C 0 km/h
3228 02-04-2003 00:49:02 9 C 6.7 g/m*3 9 C 0 km/h
3229 02-04-2003 00:55:02 9 C 6.7 g/m*3 9 C 0 km/h
3230 02-04-2003 01:01:02 9.3 C 6.83 g/m*3 9.3 C 0 km/h
3231 02-04-2003 01:07:02 7.3 C 6.08 g/m*3 7.3 C 0 km/h
3232 02-04-2003 01:13:02 7 C 6.35 g/m*3 7 C 0 km/h
3233 02-04-2003 01:19:02 6.7 C 6.23 g/m*3 6.7 C 0 km/h
3234 02-04-2003 01:25:02 7 C 6.35 g/m*3 7 C 0 km/h
3235 02-04-2003 01:31:02 6.6 C 6.34 g/m*3 6.6 C 0 km/h
3236 02-04-2003 01:37:02 6.8 C 6.35 g/m*3 6.8 C 0 km/h
3237 02-04-2003 01:43:02 6.7 C 6.38 g/m*3 6.7 C 0 km/h
3238 02-04-2003 01:49:02 6.7 C 6.46 g/m*3 6.7 C 0 km/h
3239 02-04-2003 01:55:02 6.8 C 6.5 g/m*3 6.8 C 0 km/h
3240 02-04-2003 02:01:02 6.7 C 6.46 g/m*3 6.7 C 0 km/h
3241 02-04-2003 02:07:02 6.7 C 6.46 g/m*3 6.7 C 0 km/h
3242 02-04-2003 02:13:02 6.6 C 6.34 g/m*3 6.6 C 0 km/h
3243 02-04-2003 02:19:02 6.7 C 6.31 g/m*3 6.7 C 0 km/h
3244 02-04-2003 02:25:02 6.6 C 6.27 g/m*3 6.6 C 0 km/h
324